<?xml version='1.0' encoding='UTF-8'?><gpx version="1.1" creator="JPX - https://github.com/jenetics/jpx" xmlns="http://www.topografix.com/GPX/1/1"><trk><trkseg><trkpt lat="-34.251629170159795" lon="-70.6071076653701"><ele>829.0000000000001</ele><time>2026-03-24T21:40:28Z</time></trkpt><trkpt lat="-34.251629994928834" lon="-70.60697222935458"><ele>828.0</ele><time>2026-03-24T21:40:45Z</time></trkpt><trkpt lat="-34.251636473085405" lon="-70.60688872055658"><ele>827.0</ele><time>2026-03-24T21:40:46Z</time></trkpt><trkpt lat="-34.25162811585388" lon="-70.60677785174686"><ele>826.0</ele><time>2026-03-24T21:40:48Z</time></trkpt><trkpt lat="-34.25160029193305" lon="-70.60667981987628"><ele>825.0000000000001</ele><time>2026-03-24T21:40:49Z</time></trkpt><trkpt lat="-34.25155481440034" lon="-70.60660022831583"><ele>824.0</ele><time>2026-03-24T21:40:50Z</time></trkpt><trkpt lat="-34.251460514895946" lon="-70.60650234032593"><ele>826.6</ele><time>2026-03-24T21:40:52Z</time></trkpt><trkpt lat="-34.251402244739005" lon="-70.60647095406966"><ele>829.2</ele><time>2026-03-24T21:40:53Z</time></trkpt><trkpt lat="-34.25133498779749" lon="-70.60643397337851"><ele>831.8000000000001</ele><time>2026-03-24T21:40:54Z</time></trkpt><trkpt lat="-34.25124709334861" lon="-70.60635338927115"><ele>834.4000000000001</ele><time>2026-03-24T21:40:57Z</time></trkpt><trkpt lat="-34.25114422775867" lon="-70.60634142728226"><ele>837.0</ele><time>2026-03-24T21:40:58Z</time></trkpt><trkpt lat="-34.25103652402465" lon="-70.6063581336052"><ele>837.0</ele><time>2026-03-24T21:41:00Z</time></trkpt><trkpt lat="-34.25094598602303" lon="-70.6062833111781"><ele>837.0</ele><time>2026-03-24T21:41:02Z</time></trkpt><trkpt lat="-34.25091530764745" lon="-70.60619864351972"><ele>837.0</ele><time>2026-03-24T21:41:04Z</time></trkpt><trkpt lat="-34.250943362766606" lon="-70.60608935745178"><ele>837.0</ele><time>2026-03-24T21:41:07Z</time></trkpt><trkpt lat="-34.25093672899009" lon="-70.60600944921862"><ele>837.0</ele><time>2026-03-24T21:41:09Z</time></trkpt><trkpt lat="-34.25091830417051" lon="-70.60593511959415"><ele>837.0</ele><time>2026-03-24T21:41:12Z</time></trkpt><trkpt lat="-34.25099517623526" lon="-70.60588447978103"><ele>829.6</ele><time>2026-03-24T21:41:15Z</time></trkpt><trkpt lat="-34.251052890816034" lon="-70.60576202204795"><ele>822.2</ele><time>2026-03-24T21:41:17Z</time></trkpt><trkpt lat="-34.25101893578678" lon="-70.60567803382338"><ele>814.8</ele><time>2026-03-24T21:41:20Z</time></trkpt><trkpt lat="-34.25097048444441" lon="-70.60561504298197"><ele>807.4</ele><time>2026-03-24T21:41:22Z</time></trkpt><trkpt lat="-34.250873694792396" lon="-70.60549466103303"><ele>800.0</ele><time>2026-03-24T21:41:24Z</time></trkpt><trkpt lat="-34.25079924267971" lon="-70.60540138874923"><ele>800.0000000000001</ele><time>2026-03-24T21:41:26Z</time></trkpt><trkpt lat="-34.250867377359505" lon="-70.6053872264669"><ele>800.0</ele><time>2026-03-24T21:41:28Z</time></trkpt><trkpt lat="-34.25093972891126" lon="-70.60537331082494"><ele>800.0</ele><time>2026-03-24T21:41:30Z</time></trkpt><trkpt lat="-34.25100855199402" lon="-70.60531271378287"><ele>800.0</ele><time>2026-03-24T21:41:32Z</time></trkpt><trkpt lat="-34.251081245663634" lon="-70.6052522575337"><ele>800.0000000000001</ele><time>2026-03-24T21:41:34Z</time></trkpt><trkpt lat="-34.25112442347263" lon="-70.60516493762708"><ele>800.0</ele><time>2026-03-24T21:41:36Z</time></trkpt><trkpt lat="-34.251090170369466" lon="-70.60500695129356"><ele>794.5</ele><time>2026-03-24T21:41:38Z</time></trkpt><trkpt lat="-34.25108063522898" lon="-70.60488089809203"><ele>789.0</ele><time>2026-03-24T21:41:39Z</time></trkpt><trkpt lat="-34.25107515131825" lon="-70.60471753448077"><ele>783.5</ele><time>2026-03-24T21:41:40Z</time></trkpt><trkpt lat="-34.2510516187197" lon="-70.60459144606709"><ele>778.0</ele><time>2026-03-24T21:41:41Z</time></trkpt><trkpt lat="-34.250999531500334" lon="-70.60447104362305"><ele>777.0</ele><time>2026-03-24T21:41:42Z</time></trkpt><trkpt lat="-34.250960529980794" lon="-70.60438864128021"><ele>776.0</ele><time>2026-03-24T21:41:43Z</time></trkpt><trkpt lat="-34.25088265455008" lon="-70.60434412373861"><ele>775.0</ele><time>2026-03-24T21:41:44Z</time></trkpt><trkpt lat="-34.250735799085895" lon="-70.60431562180422"><ele>774.0</ele><time>2026-03-24T21:41:45Z</time></trkpt><trkpt lat="-34.250643897099344" lon="-70.60429256035142"><ele>773.0</ele><time>2026-03-24T21:41:46Z</time></trkpt><trkpt lat="-34.25051629857917" lon="-70.60423315221848"><ele>777.75</ele><time>2026-03-24T21:41:47Z</time></trkpt><trkpt lat="-34.25039984671798" lon="-70.60413482757433"><ele>782.5</ele><time>2026-03-24T21:41:48Z</time></trkpt><trkpt lat="-34.25029037824979" lon="-70.60402413371436"><ele>787.25</ele><time>2026-03-24T21:41:49Z</time></trkpt><trkpt lat="-34.25019586646332" lon="-70.60392967894083"><ele>792.0</ele><time>2026-03-24T21:41:50Z</time></trkpt><trkpt lat="-34.25013591840632" lon="-70.6038050795189"><ele>792.0</ele><time>2026-03-24T21:41:51Z</time></trkpt><trkpt lat="-34.25010905810815" lon="-70.60366927344236"><ele>792.0</ele><time>2026-03-24T21:41:52Z</time></trkpt><trkpt lat="-34.25011826093211" lon="-70.60349964155797"><ele>792.0</ele><time>2026-03-24T21:41:53Z</time></trkpt><trkpt lat="-34.2500875445939" lon="-70.60332233517765"><ele>792.0</ele><time>2026-03-24T21:41:54Z</time></trkpt><trkpt lat="-34.250079790155986" lon="-70.6032134824733"><ele>792.6</ele><time>2026-03-24T21:41:55Z</time></trkpt><trkpt lat="-34.25001674221173" lon="-70.6031133615525"><ele>793.2</ele><time>2026-03-24T21:41:56Z</time></trkpt><trkpt lat="-34.24996607147702" lon="-70.60300132585739"><ele>793.8</ele><time>2026-03-24T21:41:57Z</time></trkpt><trkpt lat="-34.24992168871937" lon="-70.60287886947266"><ele>794.4</ele><time>2026-03-24T21:41:58Z</time></trkpt><trkpt lat="-34.24984578084674" lon="-70.60280599338216"><ele>795.0</ele><time>2026-03-24T21:41:59Z</time></trkpt><trkpt lat="-34.24977736395388" lon="-70.602750224898"><ele>795.0</ele><time>2026-03-24T21:42:00Z</time></trkpt><trkpt lat="-34.249714001610215" lon="-70.60268962336089"><ele>795.0</ele><time>2026-03-24T21:42:01Z</time></trkpt><trkpt lat="-34.24966543239663" lon="-70.6025979196596"><ele>795.0</ele><time>2026-03-24T21:42:02Z</time></trkpt><trkpt lat="-34.24961772056449" lon="-70.60252555653375"><ele>795.0</ele><time>2026-03-24T21:42:03Z</time></trkpt><trkpt lat="-34.249483814303325" lon="-70.6023853947359"><ele>795.0</ele><time>2026-03-24T21:42:05Z</time></trkpt><trkpt lat="-34.24943020111379" lon="-70.60231522638895"><ele>795.0</ele><time>2026-03-24T21:42:06Z</time></trkpt><trkpt lat="-34.249391497358516" lon="-70.60219939380525"><ele>795.0</ele><time>2026-03-24T21:42:08Z</time></trkpt><trkpt lat="-34.24938814205297" lon="-70.6021105736972"><ele>795.0</ele><time>2026-03-24T21:42:09Z</time></trkpt><trkpt lat="-34.24938452506429" lon="-70.60200377556198"><ele>795.0</ele><time>2026-03-24T21:42:10Z</time></trkpt><trkpt lat="-34.24938923431965" lon="-70.60186857464124"><ele>795.0</ele><time>2026-03-24T21:42:11Z</time></trkpt><trkpt lat="-34.24940587497815" lon="-70.6017206833169"><ele>793.8</ele><time>2026-03-24T21:42:12Z</time></trkpt><trkpt lat="-34.24940596000373" lon="-70.6016137331007"><ele>792.6</ele><time>2026-03-24T21:42:13Z</time></trkpt><trkpt lat="-34.249361237976714" lon="-70.60148718371846"><ele>791.4000000000001</ele><time>2026-03-24T21:42:14Z</time></trkpt><trkpt lat="-34.24931646560592" lon="-70.6013430505054"><ele>790.2</ele><time>2026-03-24T21:42:15Z</time></trkpt><trkpt lat="-34.24929110191646" lon="-70.60121984451041"><ele>789.0</ele><time>2026-03-24T21:42:16Z</time></trkpt><trkpt lat="-34.24927444232359" lon="-70.60110533385156"><ele>786.0</ele><time>2026-03-24T21:42:17Z</time></trkpt><trkpt lat="-34.24923679083681" lon="-70.60096262752789"><ele>783.0</ele><time>2026-03-24T21:42:18Z</time></trkpt><trkpt lat="-34.249190513101375" lon="-70.60084647154169"><ele>780.0</ele><time>2026-03-24T21:42:19Z</time></trkpt><trkpt lat="-34.24912588405467" lon="-70.60078909089827"><ele>777.0</ele><time>2026-03-24T21:42:20Z</time></trkpt><trkpt lat="-34.249043948062486" lon="-70.60068518175862"><ele>774.0</ele><time>2026-03-24T21:42:21Z</time></trkpt><trkpt lat="-34.24899815434793" lon="-70.60054392249701"><ele>775.5</ele><time>2026-03-24T21:42:22Z</time></trkpt><trkpt lat="-34.24892894561188" lon="-70.6004062096385"><ele>777.0</ele><time>2026-03-24T21:42:23Z</time></trkpt><trkpt lat="-34.248867304727206" lon="-70.60029298239955"><ele>778.5</ele><time>2026-03-24T21:42:24Z</time></trkpt><trkpt lat="-34.248825245491716" lon="-70.6001815395973"><ele>780.0</ele><time>2026-03-24T21:42:25Z</time></trkpt><trkpt lat="-34.2487765621239" lon="-70.60005089973038"><ele>780.0</ele><time>2026-03-24T21:42:26Z</time></trkpt><trkpt lat="-34.24873943786983" lon="-70.59995471811838"><ele>780.0</ele><time>2026-03-24T21:42:27Z</time></trkpt><trkpt lat="-34.24871131455809" lon="-70.59986187056185"><ele>780.0</ele><time>2026-03-24T21:42:28Z</time></trkpt><trkpt lat="-34.248680962660046" lon="-70.59976942206623"><ele>780.0</ele><time>2026-03-24T21:42:29Z</time></trkpt><trkpt lat="-34.24864399057192" lon="-70.59962504302088"><ele>780.0</ele><time>2026-03-24T21:42:30Z</time></trkpt><trkpt lat="-34.248602003954446" lon="-70.59953915694236"><ele>779.0</ele><time>2026-03-24T21:42:31Z</time></trkpt><trkpt lat="-34.248667776129835" lon="-70.59937922010732"><ele>778.0</ele><time>2026-03-24T21:42:33Z</time></trkpt><trkpt lat="-34.24870426065513" lon="-70.5992347532112"><ele>777.0</ele><time>2026-03-24T21:42:34Z</time></trkpt><trkpt lat="-34.24873886603138" lon="-70.5991204451655"><ele>776.0</ele><time>2026-03-24T21:42:35Z</time></trkpt><trkpt lat="-34.24877746578194" lon="-70.59904449453406"><ele>775.0</ele><time>2026-03-24T21:42:36Z</time></trkpt><trkpt lat="-34.24885878271312" lon="-70.59899455250333"><ele>773.75</ele><time>2026-03-24T21:42:37Z</time></trkpt><trkpt lat="-34.24896087472428" lon="-70.59894451356384"><ele>772.5</ele><time>2026-03-24T21:42:38Z</time></trkpt><trkpt lat="-34.249035935130365" lon="-70.59882526034461"><ele>771.25</ele><time>2026-03-24T21:42:39Z</time></trkpt><trkpt lat="-34.24907389872327" lon="-70.59869853749659"><ele>770.0</ele><time>2026-03-24T21:42:40Z</time></trkpt><trkpt lat="-34.249077665167356" lon="-70.59854781433546"><ele>772.4</ele><time>2026-03-24T21:42:41Z</time></trkpt><trkpt lat="-34.249062757958264" lon="-70.59839526038209"><ele>774.8</ele><time>2026-03-24T21:42:42Z</time></trkpt><trkpt lat="-34.24902165893544" lon="-70.59827409012787"><ele>777.2</ele><time>2026-03-24T21:42:43Z</time></trkpt><trkpt lat="-34.2489838930442" lon="-70.59817639584134"><ele>779.6</ele><time>2026-03-24T21:42:44Z</time></trkpt><trkpt lat="-34.24893653134683" lon="-70.59806940046367"><ele>782.0</ele><time>2026-03-24T21:42:45Z</time></trkpt><trkpt lat="-34.248892336276306" lon="-70.59795350113562"><ele>782.0000000000001</ele><time>2026-03-24T21:42:46Z</time></trkpt><trkpt lat="-34.24886177926971" lon="-70.59787876102601"><ele>782.0</ele><time>2026-03-24T21:42:47Z</time></trkpt><trkpt lat="-34.24886422303067" lon="-70.59775213806684"><ele>782.0</ele><time>2026-03-24T21:42:49Z</time></trkpt><trkpt lat="-34.248848545458735" lon="-70.5976422866577"><ele>782.0</ele><time>2026-03-24T21:42:51Z</time></trkpt><trkpt lat="-34.248871873293346" lon="-70.59756916799171"><ele>782.0000000000001</ele><time>2026-03-24T21:42:52Z</time></trkpt><trkpt lat="-34.24886233836642" lon="-70.59748611378075"><ele>782.0</ele><time>2026-03-24T21:42:53Z</time></trkpt><trkpt lat="-34.24881821412624" lon="-70.59739293070866"><ele>783.4000000000001</ele><time>2026-03-24T21:42:55Z</time></trkpt><trkpt lat="-34.24886049491185" lon="-70.59726639815665"><ele>784.8000000000001</ele><time>2026-03-24T21:42:58Z</time></trkpt><trkpt lat="-34.24887039069248" lon="-70.59716515529078"><ele>786.2</ele><time>2026-03-24T21:43:00Z</time></trkpt><trkpt lat="-34.248961445462136" lon="-70.59713819215337"><ele>787.6</ele><time>2026-03-24T21:43:02Z</time></trkpt><trkpt lat="-34.24893794910323" lon="-70.59704839465539"><ele>789.0</ele><time>2026-03-24T21:43:04Z</time></trkpt><trkpt lat="-34.24887748814004" lon="-70.59685919935336"><ele>790.6</ele><time>2026-03-24T21:43:06Z</time></trkpt><trkpt lat="-34.24882126839182" lon="-70.59677230628533"><ele>792.2</ele><time>2026-03-24T21:43:07Z</time></trkpt><trkpt lat="-34.24874440222016" lon="-70.59673761591921"><ele>793.8000000000001</ele><time>2026-03-24T21:43:08Z</time></trkpt><trkpt lat="-34.248676927880666" lon="-70.59669712702699"><ele>795.4000000000001</ele><time>2026-03-24T21:43:09Z</time></trkpt><trkpt lat="-34.24862445952266" lon="-70.59663710664651"><ele>797.0</ele><time>2026-03-24T21:43:10Z</time></trkpt><trkpt lat="-34.24856143379033" lon="-70.59648286856441"><ele>797.0</ele><time>2026-03-24T21:43:12Z</time></trkpt><trkpt lat="-34.24850772347813" lon="-70.59638377317965"><ele>797.0</ele><time>2026-03-24T21:43:13Z</time></trkpt><trkpt lat="-34.24843287814505" lon="-70.59633658343957"><ele>797.0</ele><time>2026-03-24T21:43:14Z</time></trkpt><trkpt lat="-34.248401293384575" lon="-70.59624602813246"><ele>797.0</ele><time>2026-03-24T21:43:15Z</time></trkpt><trkpt lat="-34.2483477844428" lon="-70.59611480527424"><ele>797.0</ele><time>2026-03-24T21:43:16Z</time></trkpt><trkpt lat="-34.248275372131616" lon="-70.59603923591584"><ele>799.2</ele><time>2026-03-24T21:43:17Z</time></trkpt><trkpt lat="-34.24819699776275" lon="-70.59602072812899"><ele>801.4000000000001</ele><time>2026-03-24T21:43:18Z</time></trkpt><trkpt lat="-34.24810849074625" lon="-70.59603518862853"><ele>803.5999999999999</ele><time>2026-03-24T21:43:19Z</time></trkpt><trkpt lat="-34.24800219304912" lon="-70.59605440147966"><ele>805.8</ele><time>2026-03-24T21:43:20Z</time></trkpt><trkpt lat="-34.247889546654605" lon="-70.59603103226992"><ele>808.0</ele><time>2026-03-24T21:43:21Z</time></trkpt><trkpt lat="-34.24773760095022" lon="-70.59602940025277"><ele>808.25</ele><time>2026-03-24T21:43:22Z</time></trkpt><trkpt lat="-34.247589171145314" lon="-70.59598182588188"><ele>808.5</ele><time>2026-03-24T21:43:23Z</time></trkpt><trkpt lat="-34.24745201552166" lon="-70.59593103051373"><ele>808.75</ele><time>2026-03-24T21:43:24Z</time></trkpt><trkpt lat="-34.24733454748059" lon="-70.59589016325971"><ele>809.0</ele><time>2026-03-24T21:43:25Z</time></trkpt><trkpt lat="-34.247260715519666" lon="-70.59578443091665"><ele>807.75</ele><time>2026-03-24T21:43:26Z</time></trkpt><trkpt lat="-34.24718050842788" lon="-70.59567980507018"><ele>806.5</ele><time>2026-03-24T21:43:27Z</time></trkpt><trkpt lat="-34.247090816502435" lon="-70.59553200553361"><ele>805.25</ele><time>2026-03-24T21:43:28Z</time></trkpt><trkpt lat="-34.247012013116255" lon="-70.59537583710537"><ele>804.0</ele><time>2026-03-24T21:43:29Z</time></trkpt><trkpt lat="-34.246946353746" lon="-70.59527189490979"><ele>808.25</ele><time>2026-03-24T21:43:30Z</time></trkpt><trkpt lat="-34.246875779725315" lon="-70.59515977497156"><ele>812.5</ele><time>2026-03-24T21:43:31Z</time></trkpt><trkpt lat="-34.246796269417544" lon="-70.59506415902071"><ele>816.75</ele><time>2026-03-24T21:43:32Z</time></trkpt><trkpt lat="-34.246719728773634" lon="-70.59494531734924"><ele>821.0</ele><time>2026-03-24T21:43:33Z</time></trkpt><trkpt lat="-34.24666555445678" lon="-70.5948106603507"><ele>821.0</ele><time>2026-03-24T21:43:34Z</time></trkpt><trkpt lat="-34.24659466197713" lon="-70.59468668246932"><ele>821.0</ele><time>2026-03-24T21:43:35Z</time></trkpt><trkpt lat="-34.24650138494245" lon="-70.59456492908967"><ele>821.0</ele><time>2026-03-24T21:43:36Z</time></trkpt><trkpt lat="-34.246443067905155" lon="-70.59443859399639"><ele>821.0</ele><time>2026-03-24T21:43:37Z</time></trkpt><trkpt lat="-34.246432392317786" lon="-70.5943113923784"><ele>822.5999999999999</ele><time>2026-03-24T21:43:38Z</time></trkpt><trkpt lat="-34.24639920835886" lon="-70.5942409431115"><ele>824.2</ele><time>2026-03-24T21:43:39Z</time></trkpt><trkpt lat="-34.24655359349527" lon="-70.59431554439787"><ele>825.8</ele><time>2026-03-24T21:43:45Z</time></trkpt><trkpt lat="-34.246622707854705" lon="-70.59440077442751"><ele>827.4000000000001</ele><time>2026-03-24T21:43:46Z</time></trkpt><trkpt lat="-34.24669715806463" lon="-70.59441692753285"><ele>829.0</ele><time>2026-03-24T21:43:47Z</time></trkpt><trkpt lat="-34.24678435000201" lon="-70.59446443834331"><ele>827.0</ele><time>2026-03-24T21:43:48Z</time></trkpt><trkpt lat="-34.24691136179163" lon="-70.59452164974762"><ele>825.0</ele><time>2026-03-24T21:43:49Z</time></trkpt><trkpt lat="-34.247031795050646" lon="-70.59455787954347"><ele>823.0</ele><time>2026-03-24T21:43:50Z</time></trkpt><trkpt lat="-34.247152136352945" lon="-70.59457607981294"><ele>821.0</ele><time>2026-03-24T21:43:51Z</time></trkpt><trkpt lat="-34.24723779192821" lon="-70.59451778632257"><ele>828.5</ele><time>2026-03-24T21:43:52Z</time></trkpt><trkpt lat="-34.247331908361964" lon="-70.59448416810122"><ele>836.0</ele><time>2026-03-24T21:43:53Z</time></trkpt><trkpt lat="-34.24743350860939" lon="-70.5944362227741"><ele>843.5</ele><time>2026-03-24T21:43:54Z</time></trkpt><trkpt lat="-34.247541952701425" lon="-70.5943871713678"><ele>851.0</ele><time>2026-03-24T21:43:55Z</time></trkpt><trkpt lat="-34.247672711422034" lon="-70.59432974880984"><ele>851.0</ele><time>2026-03-24T21:43:56Z</time></trkpt><trkpt lat="-34.247801780989896" lon="-70.59426651554759"><ele>851.0</ele><time>2026-03-24T21:43:57Z</time></trkpt><trkpt lat="-34.24790826635067" lon="-70.59421028778668"><ele>851.0</ele><time>2026-03-24T21:43:58Z</time></trkpt><trkpt lat="-34.24798459393332" lon="-70.59416232886679"><ele>851.0</ele><time>2026-03-24T21:43:59Z</time></trkpt><trkpt lat="-34.24807878599161" lon="-70.59408405871736"><ele>849.5999999999999</ele><time>2026-03-24T21:44:00Z</time></trkpt><trkpt lat="-34.24816552068293" lon="-70.59399699252009"><ele>848.2</ele><time>2026-03-24T21:44:01Z</time></trkpt><trkpt lat="-34.24824264427588" lon="-70.59392034026384"><ele>846.8</ele><time>2026-03-24T21:44:02Z</time></trkpt><trkpt lat="-34.248296315465126" lon="-70.59386640978255"><ele>845.4000000000001</ele><time>2026-03-24T21:44:03Z</time></trkpt><trkpt lat="-34.248366782259545" lon="-70.59377338776052"><ele>844.0</ele><time>2026-03-24T21:44:05Z</time></trkpt><trkpt lat="-34.24842920907076" lon="-70.59368282280076"><ele>849.0</ele><time>2026-03-24T21:44:06Z</time></trkpt><trkpt lat="-34.2485169615289" lon="-70.59361710722939"><ele>854.0</ele><time>2026-03-24T21:44:07Z</time></trkpt><trkpt lat="-34.24858977030812" lon="-70.59355615156332"><ele>859.0000000000001</ele><time>2026-03-24T21:44:08Z</time></trkpt><trkpt lat="-34.24867362010003" lon="-70.59348907180731"><ele>864.0</ele><time>2026-03-24T21:44:09Z</time></trkpt><trkpt lat="-34.24875102495371" lon="-70.593362092202"><ele>869.0</ele><time>2026-03-24T21:44:10Z</time></trkpt><trkpt lat="-34.24872154772753" lon="-70.59321113580462"><ele>869.0000000000001</ele><time>2026-03-24T21:44:11Z</time></trkpt><trkpt lat="-34.248733204724296" lon="-70.59308794760368"><ele>869.0</ele><time>2026-03-24T21:44:12Z</time></trkpt><trkpt lat="-34.24874839708658" lon="-70.59297088305641"><ele>869.0</ele><time>2026-03-24T21:44:13Z</time></trkpt><trkpt lat="-34.24875413054394" lon="-70.59288831316526"><ele>869.0</ele><time>2026-03-24T21:44:14Z</time></trkpt><trkpt lat="-34.24878606554463" lon="-70.59279439953536"><ele>869.0000000000001</ele><time>2026-03-24T21:44:16Z</time></trkpt><trkpt lat="-34.24887277569316" lon="-70.59279569073038"><ele>869.0</ele><time>2026-03-24T21:44:17Z</time></trkpt><trkpt lat="-34.24893628867943" lon="-70.59274921508586"><ele>872.0</ele><time>2026-03-24T21:44:18Z</time></trkpt><trkpt lat="-34.249034021103476" lon="-70.59267743723063"><ele>875.0</ele><time>2026-03-24T21:44:19Z</time></trkpt><trkpt lat="-34.24915601679562" lon="-70.59264581469131"><ele>878.0</ele><time>2026-03-24T21:44:20Z</time></trkpt><trkpt lat="-34.24927088903715" lon="-70.59260963731461"><ele>881.0</ele><time>2026-03-24T21:44:21Z</time></trkpt><trkpt lat="-34.24937812635689" lon="-70.59259705573675"><ele>881.0</ele><time>2026-03-24T21:44:22Z</time></trkpt><trkpt lat="-34.24950021049959" lon="-70.59261293638373"><ele>880.9999999999999</ele><time>2026-03-24T21:44:23Z</time></trkpt><trkpt lat="-34.24956047345697" lon="-70.5926618140461"><ele>880.9999999999999</ele><time>2026-03-24T21:44:24Z</time></trkpt><trkpt lat="-34.249645588262936" lon="-70.59269554940228"><ele>881.0</ele><time>2026-03-24T21:44:25Z</time></trkpt><trkpt lat="-34.24976637684693" lon="-70.59272443599123"><ele>881.0</ele><time>2026-03-24T21:44:26Z</time></trkpt><trkpt lat="-34.24987150261066" lon="-70.59269057852269"><ele>880.8</ele><time>2026-03-24T21:44:27Z</time></trkpt><trkpt lat="-34.24992759810594" lon="-70.59261665987631"><ele>880.5999999999999</ele><time>2026-03-24T21:44:28Z</time></trkpt><trkpt lat="-34.2499581663104" lon="-70.59246968178323"><ele>880.4</ele><time>2026-03-24T21:44:29Z</time></trkpt><trkpt lat="-34.24995220404646" lon="-70.59233532900184"><ele>880.2</ele><time>2026-03-24T21:44:30Z</time></trkpt><trkpt lat="-34.2499066602996" lon="-70.59223562492649"><ele>880.0</ele><time>2026-03-24T21:44:31Z</time></trkpt><trkpt lat="-34.2498532266094" lon="-70.59214001219607"><ele>880.1666666666666</ele><time>2026-03-24T21:44:32Z</time></trkpt><trkpt lat="-34.249789286689115" lon="-70.59207072288008"><ele>880.3333333333333</ele><time>2026-03-24T21:44:33Z</time></trkpt><trkpt lat="-34.24971347336014" lon="-70.59201446963418"><ele>880.5</ele><time>2026-03-24T21:44:34Z</time></trkpt><trkpt lat="-34.24964780013627" lon="-70.5919622075786"><ele>880.6666666666667</ele><time>2026-03-24T21:44:35Z</time></trkpt><trkpt lat="-34.249583650753344" lon="-70.59191058531553"><ele>880.8333333333334</ele><time>2026-03-24T21:44:36Z</time></trkpt><trkpt lat="-34.24962081413416" lon="-70.59181380917678"><ele>881.0</ele><time>2026-03-24T21:44:40Z</time></trkpt><trkpt lat="-34.24961336823277" lon="-70.59168423825541"><ele>885.1999999999999</ele><time>2026-03-24T21:44:42Z</time></trkpt><trkpt lat="-34.24960375354049" lon="-70.59158967644674"><ele>889.3999999999999</ele><time>2026-03-24T21:44:44Z</time></trkpt><trkpt lat="-34.24955235590931" lon="-70.59147934303006"><ele>893.6</ele><time>2026-03-24T21:44:46Z</time></trkpt><trkpt lat="-34.24952848639427" lon="-70.59137955639103"><ele>897.8</ele><time>2026-03-24T21:44:48Z</time></trkpt><trkpt lat="-34.24936168592988" lon="-70.59137384964443"><ele>902.0</ele><time>2026-03-24T21:44:51Z</time></trkpt><trkpt lat="-34.24928515232727" lon="-70.5914086905478"><ele>902.0000000000001</ele><time>2026-03-24T21:44:52Z</time></trkpt><trkpt lat="-34.24922071303749" lon="-70.59141536028594"><ele>902.0</ele><time>2026-03-24T21:44:53Z</time></trkpt><trkpt lat="-34.24911190605306" lon="-70.59143751354696"><ele>902.0</ele><time>2026-03-24T21:44:56Z</time></trkpt><trkpt lat="-34.24903240680095" lon="-70.5914065558817"><ele>902.0</ele><time>2026-03-24T21:44:58Z</time></trkpt><trkpt lat="-34.24896316972773" lon="-70.59134930405625"><ele>902.0000000000001</ele><time>2026-03-24T21:45:03Z</time></trkpt><trkpt lat="-34.24890143502877" lon="-70.59127282631466"><ele>902.0</ele><time>2026-03-24T21:45:05Z</time></trkpt><trkpt lat="-34.24886185680407" lon="-70.59118271378057"><ele>908.2</ele><time>2026-03-24T21:45:07Z</time></trkpt><trkpt lat="-34.24882926981936" lon="-70.59110538047548"><ele>914.4000000000001</ele><time>2026-03-24T21:45:09Z</time></trkpt><trkpt lat="-34.248761292940685" lon="-70.59106669622595"><ele>920.5999999999999</ele><time>2026-03-24T21:45:11Z</time></trkpt><trkpt lat="-34.248743057027625" lon="-70.59091196496985"><ele>926.8</ele><time>2026-03-24T21:45:13Z</time></trkpt><trkpt lat="-34.24867729824577" lon="-70.59081962860537"><ele>933.0</ele><time>2026-03-24T21:45:15Z</time></trkpt><trkpt lat="-34.24860538529901" lon="-70.59075561026407"><ele>933.0</ele><time>2026-03-24T21:45:17Z</time></trkpt><trkpt lat="-34.24858058036859" lon="-70.5906789555897"><ele>933.0</ele><time>2026-03-24T21:45:19Z</time></trkpt><trkpt lat="-34.24851744819211" lon="-70.59066636909486"><ele>933.0</ele><time>2026-03-24T21:45:22Z</time></trkpt><trkpt lat="-34.248444526329656" lon="-70.59067492051412"><ele>933.0</ele><time>2026-03-24T21:45:24Z</time></trkpt><trkpt lat="-34.24837501774865" lon="-70.59071849068629"><ele>933.0</ele><time>2026-03-24T21:45:26Z</time></trkpt><trkpt lat="-34.24825151193459" lon="-70.59073125082024"><ele>933.0</ele><time>2026-03-24T21:45:30Z</time></trkpt><trkpt lat="-34.248204676287486" lon="-70.59083793689297"><ele>933.0</ele><time>2026-03-24T21:45:32Z</time></trkpt><trkpt lat="-34.24815253414714" lon="-70.59093462009194"><ele>933.0</ele><time>2026-03-24T21:45:34Z</time></trkpt><trkpt lat="-34.24810247516558" lon="-70.5909997624315"><ele>933.0</ele><time>2026-03-24T21:45:41Z</time></trkpt><trkpt lat="-34.24805813312708" lon="-70.59092647331273"><ele>933.0</ele><time>2026-03-24T21:45:45Z</time></trkpt><trkpt lat="-34.24800078987905" lon="-70.59081503799625"><ele>933.0</ele><time>2026-03-24T21:45:47Z</time></trkpt><trkpt lat="-34.24792005289916" lon="-70.5908541542945"><ele>933.0</ele><time>2026-03-24T21:45:49Z</time></trkpt><trkpt lat="-34.24782058906714" lon="-70.59090409732056"><ele>937.0</ele><time>2026-03-24T21:45:51Z</time></trkpt><trkpt lat="-34.247751575519196" lon="-70.59088152095532"><ele>941.0</ele><time>2026-03-24T21:45:53Z</time></trkpt><trkpt lat="-34.247651042253906" lon="-70.59093917072272"><ele>945.0</ele><time>2026-03-24T21:45:57Z</time></trkpt><trkpt lat="-34.24762211433187" lon="-70.59075186704153"><ele>949.0</ele><time>2026-03-24T21:46:03Z</time></trkpt><trkpt lat="-34.24758160613964" lon="-70.59064791002318"><ele>953.0</ele><time>2026-03-24T21:46:05Z</time></trkpt><trkpt lat="-34.24748994821649" lon="-70.59066308720044"><ele>953.0</ele><time>2026-03-24T21:46:06Z</time></trkpt><trkpt lat="-34.24743034433936" lon="-70.59061657369567"><ele>953.0</ele><time>2026-03-24T21:46:07Z</time></trkpt><trkpt lat="-34.24737565753892" lon="-70.59057391396085"><ele>953.0</ele><time>2026-03-24T21:46:08Z</time></trkpt><trkpt lat="-34.24735012085938" lon="-70.59046548114165"><ele>953.0</ele><time>2026-03-24T21:46:09Z</time></trkpt><trkpt lat="-34.2472901081643" lon="-70.59035658743835"><ele>953.0</ele><time>2026-03-24T21:46:10Z</time></trkpt><trkpt lat="-34.24719976854653" lon="-70.59025696136946"><ele>958.25</ele><time>2026-03-24T21:46:11Z</time></trkpt><trkpt lat="-34.247091026691635" lon="-70.59019426512829"><ele>963.5</ele><time>2026-03-24T21:46:12Z</time></trkpt><trkpt lat="-34.24700709596771" lon="-70.5901339204072"><ele>968.75</ele><time>2026-03-24T21:46:13Z</time></trkpt><trkpt lat="-34.246932943057644" lon="-70.59002587092718"><ele>974.0</ele><time>2026-03-24T21:46:14Z</time></trkpt><trkpt lat="-34.24683586906291" lon="-70.58993068040868"><ele>974.0</ele><time>2026-03-24T21:46:15Z</time></trkpt><trkpt lat="-34.246743967454954" lon="-70.5897892749424"><ele>974.0</ele><time>2026-03-24T21:46:16Z</time></trkpt><trkpt lat="-34.246625549903996" lon="-70.58968383227905"><ele>974.0</ele><time>2026-03-24T21:46:17Z</time></trkpt><trkpt lat="-34.24649651825288" lon="-70.58963408263389"><ele>974.0</ele><time>2026-03-24T21:46:18Z</time></trkpt><trkpt lat="-34.2463728301954" lon="-70.58954471839024"><ele>978.0</ele><time>2026-03-24T21:46:19Z</time></trkpt><trkpt lat="-34.24626318440225" lon="-70.58949226107882"><ele>982.0</ele><time>2026-03-24T21:46:20Z</time></trkpt><trkpt lat="-34.24611129432658" lon="-70.5894306960694"><ele>986.0</ele><time>2026-03-24T21:46:21Z</time></trkpt><trkpt lat="-34.24594608130743" lon="-70.58935928152842"><ele>975.5</ele><time>2026-03-24T21:46:22Z</time></trkpt><trkpt lat="-34.245619335341274" lon="-70.58935189018192"><ele>965.0</ele><time>2026-03-24T21:46:23Z</time></trkpt><trkpt lat="-34.245487625817695" lon="-70.58925414754346"><ele>965.0</ele><time>2026-03-24T21:46:24Z</time></trkpt><trkpt lat="-34.24526052315303" lon="-70.58905938517373"><ele>965.0</ele><time>2026-03-24T21:46:25Z</time></trkpt><trkpt lat="-34.2451716051607" lon="-70.58899958426038"><ele>965.0</ele><time>2026-03-24T21:46:26Z</time></trkpt><trkpt lat="-34.24506673033972" lon="-70.58893503790263"><ele>965.0</ele><time>2026-03-24T21:46:27Z</time></trkpt><trkpt lat="-34.24501627582831" lon="-70.58887629459522"><ele>965.0</ele><time>2026-03-24T21:46:28Z</time></trkpt><trkpt lat="-34.244958781795184" lon="-70.5888193210652"><ele>965.0</ele><time>2026-03-24T21:46:29Z</time></trkpt><trkpt lat="-34.24487902255816" lon="-70.58874569282352"><ele>965.0</ele><time>2026-03-24T21:46:30Z</time></trkpt><trkpt lat="-34.244804538696926" lon="-70.58865074944177"><ele>965.0</ele><time>2026-03-24T21:46:31Z</time></trkpt><trkpt lat="-34.24499018104318" lon="-70.58790730817155"><ele>971.4</ele><time>2026-03-24T21:46:32Z</time></trkpt><trkpt lat="-34.24497035948929" lon="-70.58782048905847"><ele>977.8</ele><time>2026-03-24T21:46:35Z</time></trkpt><trkpt lat="-34.245034785394054" lon="-70.58777893871992"><ele>984.2</ele><time>2026-03-24T21:46:36Z</time></trkpt><trkpt lat="-34.245116087137916" lon="-70.58772400597437"><ele>990.6</ele><time>2026-03-24T21:46:37Z</time></trkpt><trkpt lat="-34.245235352733815" lon="-70.58766910420269"><ele>997.0</ele><time>2026-03-24T21:46:38Z</time></trkpt><trkpt lat="-34.24532034500453" lon="-70.58759996023656"><ele>997.0</ele><time>2026-03-24T21:46:39Z</time></trkpt><trkpt lat="-34.245359562588305" lon="-70.58750117764619"><ele>997.0</ele><time>2026-03-24T21:46:41Z</time></trkpt><trkpt lat="-34.24531711279523" lon="-70.58744225716306"><ele>997.0</ele><time>2026-03-24T21:46:42Z</time></trkpt><trkpt lat="-34.245211802265125" lon="-70.5873834106538"><ele>997.0</ele><time>2026-03-24T21:46:43Z</time></trkpt><trkpt lat="-34.245082892007765" lon="-70.58735778598786"><ele>997.0</ele><time>2026-03-24T21:46:44Z</time></trkpt><trkpt lat="-34.244968171497845" lon="-70.58733944238374"><ele>997.0</ele><time>2026-03-24T21:46:45Z</time></trkpt><trkpt lat="-34.24489348977617" lon="-70.58729788949245"><ele>997.0</ele><time>2026-03-24T21:46:46Z</time></trkpt><trkpt lat="-34.244821322762974" lon="-70.58720192231539"><ele>997.0</ele><time>2026-03-24T21:46:47Z</time></trkpt><trkpt lat="-34.244711861993245" lon="-70.58704948769642"><ele>997.0</ele><time>2026-03-24T21:46:48Z</time></trkpt><trkpt lat="-34.24461319793958" lon="-70.58691239440854"><ele>992.5</ele><time>2026-03-24T21:46:49Z</time></trkpt><trkpt lat="-34.24446329902145" lon="-70.58684221120812"><ele>988.0</ele><time>2026-03-24T21:46:50Z</time></trkpt><trkpt lat="-34.24433308685066" lon="-70.5868010984782"><ele>983.5</ele><time>2026-03-24T21:46:51Z</time></trkpt><trkpt lat="-34.24423628871841" lon="-70.58676865558283"><ele>979.0</ele><time>2026-03-24T21:46:52Z</time></trkpt><trkpt lat="-34.24412363488029" lon="-70.5867578245728"><ele>979.0</ele><time>2026-03-24T21:46:53Z</time></trkpt><trkpt lat="-34.243987944166925" lon="-70.58673599403794"><ele>979.0</ele><time>2026-03-24T21:46:54Z</time></trkpt><trkpt lat="-34.243882136012374" lon="-70.5867132549373"><ele>979.0</ele><time>2026-03-24T21:46:55Z</time></trkpt><trkpt lat="-34.24375739574026" lon="-70.58667182292291"><ele>979.0</ele><time>2026-03-24T21:46:56Z</time></trkpt><trkpt lat="-34.243658034936274" lon="-70.58664227750121"><ele>979.8000000000001</ele><time>2026-03-24T21:46:57Z</time></trkpt><trkpt lat="-34.24358685388068" lon="-70.58659657384182"><ele>980.6000000000001</ele><time>2026-03-24T21:46:58Z</time></trkpt><trkpt lat="-34.24355809409732" lon="-70.58652131313134"><ele>981.4</ele><time>2026-03-24T21:46:59Z</time></trkpt><trkpt lat="-34.243547032414206" lon="-70.58639158341096"><ele>982.2</ele><time>2026-03-24T21:47:00Z</time></trkpt><trkpt lat="-34.24357377743346" lon="-70.58626204696242"><ele>983.0</ele><time>2026-03-24T21:47:01Z</time></trkpt><trkpt lat="-34.24362736801692" lon="-70.5861092851265"><ele>983.0</ele><time>2026-03-24T21:47:02Z</time></trkpt><trkpt lat="-34.24367305998962" lon="-70.58592436233832"><ele>983.0</ele><time>2026-03-24T21:47:03Z</time></trkpt><trkpt lat="-34.243741010390096" lon="-70.58578369688982"><ele>983.0</ele><time>2026-03-24T21:47:04Z</time></trkpt><trkpt lat="-34.24381137331052" lon="-70.58567056907036"><ele>983.0</ele><time>2026-03-24T21:47:05Z</time></trkpt><trkpt lat="-34.24387679667116" lon="-70.5855849493809"><ele>983.0</ele><time>2026-03-24T21:47:06Z</time></trkpt><trkpt lat="-34.24385996730176" lon="-70.58543900802495"><ele>983.0</ele><time>2026-03-24T21:47:07Z</time></trkpt><trkpt lat="-34.24381037962614" lon="-70.58529922826916"><ele>983.0</ele><time>2026-03-24T21:47:08Z</time></trkpt><trkpt lat="-34.24373952061818" lon="-70.58519595350252"><ele>983.0</ele><time>2026-03-24T21:47:09Z</time></trkpt><trkpt lat="-34.243688697139085" lon="-70.58513533036931"><ele>983.0</ele><time>2026-03-24T21:47:10Z</time></trkpt><trkpt lat="-34.24369893453337" lon="-70.58501539984289"><ele>979.8</ele><time>2026-03-24T21:47:12Z</time></trkpt><trkpt lat="-34.24369975041831" lon="-70.58489608732938"><ele>976.5999999999999</ele><time>2026-03-24T21:47:13Z</time></trkpt><trkpt lat="-34.24370806598036" lon="-70.58476324673765"><ele>973.4000000000001</ele><time>2026-03-24T21:47:14Z</time></trkpt><trkpt lat="-34.24369876650468" lon="-70.58461776601013"><ele>970.2</ele><time>2026-03-24T21:47:15Z</time></trkpt><trkpt lat="-34.24362014170916" lon="-70.58450897822883"><ele>967.0</ele><time>2026-03-24T21:47:16Z</time></trkpt><trkpt lat="-34.2435085212147" lon="-70.58446847632607"><ele>964.8</ele><time>2026-03-24T21:47:17Z</time></trkpt><trkpt lat="-34.24337462687104" lon="-70.58446461819659"><ele>962.6</ele><time>2026-03-24T21:47:18Z</time></trkpt><trkpt lat="-34.243272338026166" lon="-70.58445755977594"><ele>960.3999999999999</ele><time>2026-03-24T21:47:19Z</time></trkpt><trkpt lat="-34.243218933820245" lon="-70.5843887499741"><ele>958.1999999999999</ele><time>2026-03-24T21:47:20Z</time></trkpt><trkpt lat="-34.24316705453956" lon="-70.58431296090758"><ele>956.0</ele><time>2026-03-24T21:47:21Z</time></trkpt><trkpt lat="-34.2431720373937" lon="-70.58414553658824"><ele>956.0</ele><time>2026-03-24T21:47:23Z</time></trkpt><trkpt lat="-34.24323007114527" lon="-70.58395697214965"><ele>956.0</ele><time>2026-03-24T21:47:24Z</time></trkpt><trkpt lat="-34.243263893334834" lon="-70.58373908772275"><ele>956.0</ele><time>2026-03-24T21:47:25Z</time></trkpt><trkpt lat="-34.243281518747494" lon="-70.58353982305681"><ele>957.5</ele><time>2026-03-24T21:47:26Z</time></trkpt><trkpt lat="-34.24327258772758" lon="-70.58334756460404"><ele>959.0</ele><time>2026-03-24T21:47:27Z</time></trkpt><trkpt lat="-34.24323866288545" lon="-70.58319941755316"><ele>960.5</ele><time>2026-03-24T21:47:28Z</time></trkpt><trkpt lat="-34.24316794234354" lon="-70.58304616792262"><ele>962.0</ele><time>2026-03-24T21:47:29Z</time></trkpt><trkpt lat="-34.243086208868085" lon="-70.5828808969495"><ele>960.5</ele><time>2026-03-24T21:47:30Z</time></trkpt><trkpt lat="-34.243033841465305" lon="-70.58269417446867"><ele>959.0</ele><time>2026-03-24T21:47:31Z</time></trkpt><trkpt lat="-34.242996477297055" lon="-70.58253196939228"><ele>957.5</ele><time>2026-03-24T21:47:32Z</time></trkpt><trkpt lat="-34.242943918940114" lon="-70.5824208073209"><ele>956.0</ele><time>2026-03-24T21:47:33Z</time></trkpt><trkpt lat="-34.24290286229803" lon="-70.5823285719586"><ele>956.0</ele><time>2026-03-24T21:47:34Z</time></trkpt><trkpt lat="-34.24288827194938" lon="-70.58220014623708"><ele>956.0</ele><time>2026-03-24T21:47:35Z</time></trkpt><trkpt lat="-34.24286489320489" lon="-70.58200647705851"><ele>956.0</ele><time>2026-03-24T21:47:36Z</time></trkpt><trkpt lat="-34.242838050305416" lon="-70.58182389914843"><ele>956.0</ele><time>2026-03-24T21:47:37Z</time></trkpt><trkpt lat="-34.24284024837291" lon="-70.58168829273384"><ele>952.75</ele><time>2026-03-24T21:47:38Z</time></trkpt><trkpt lat="-34.24286287963057" lon="-70.58158929441109"><ele>949.5</ele><time>2026-03-24T21:47:39Z</time></trkpt><trkpt lat="-34.24290406604011" lon="-70.58145225508322"><ele>946.25</ele><time>2026-03-24T21:47:40Z</time></trkpt><trkpt lat="-34.24297930266064" lon="-70.58125321587173"><ele>943.0</ele><time>2026-03-24T21:47:41Z</time></trkpt><trkpt lat="-34.243066484909015" lon="-70.58105354982553"><ele>940.8</ele><time>2026-03-24T21:47:42Z</time></trkpt><trkpt lat="-34.2431227993832" lon="-70.5809137503116"><ele>938.5999999999999</ele><time>2026-03-24T21:47:43Z</time></trkpt><trkpt lat="-34.243170155710004" lon="-70.58080981579563"><ele>936.4000000000001</ele><time>2026-03-24T21:47:44Z</time></trkpt><trkpt lat="-34.24322925133137" lon="-70.58070112499064"><ele>934.2</ele><time>2026-03-24T21:47:45Z</time></trkpt><trkpt lat="-34.243246068842325" lon="-70.58061119597926"><ele>932.0</ele><time>2026-03-24T21:47:46Z</time></trkpt><trkpt lat="-34.243150870395695" lon="-70.58053476036348"><ele>932.0</ele><time>2026-03-24T21:47:48Z</time></trkpt><trkpt lat="-34.24309091680647" lon="-70.58049716162233"><ele>932.0</ele><time>2026-03-24T21:47:49Z</time></trkpt><trkpt lat="-34.243054601492524" lon="-70.58042166396238"><ele>932.0</ele><time>2026-03-24T21:47:50Z</time></trkpt><trkpt lat="-34.24296498996154" lon="-70.5803880207082"><ele>932.0</ele><time>2026-03-24T21:47:52Z</time></trkpt><trkpt lat="-34.24291737456721" lon="-70.5803084280069"><ele>932.0</ele><time>2026-03-24T21:47:55Z</time></trkpt><trkpt lat="-34.242886875224" lon="-70.58023761009122"><ele>932.0</ele><time>2026-03-24T21:47:58Z</time></trkpt><trkpt lat="-34.24292041044583" lon="-70.5801690541242"><ele>932.0</ele><time>2026-03-24T21:47:59Z</time></trkpt><trkpt lat="-34.24290603102955" lon="-70.5800476581649"><ele>930.4000000000001</ele><time>2026-03-24T21:48:00Z</time></trkpt><trkpt lat="-34.242892959449186" lon="-70.57992567379489"><ele>928.8000000000001</ele><time>2026-03-24T21:48:01Z</time></trkpt><trkpt lat="-34.24291128045975" lon="-70.5798435458474"><ele>927.2</ele><time>2026-03-24T21:48:02Z</time></trkpt><trkpt lat="-34.242931213084546" lon="-70.5797381611553"><ele>925.6</ele><time>2026-03-24T21:48:03Z</time></trkpt><trkpt lat="-34.24290625548573" lon="-70.57965320560479"><ele>924.0</ele><time>2026-03-24T21:48:04Z</time></trkpt><trkpt lat="-34.24294276907663" lon="-70.57948316564305"><ele>922.4000000000001</ele><time>2026-03-24T21:48:06Z</time></trkpt><trkpt lat="-34.2428998252336" lon="-70.57940447563179"><ele>920.8000000000001</ele><time>2026-03-24T21:48:07Z</time></trkpt><trkpt lat="-34.24283862536495" lon="-70.57933944475262"><ele>919.1999999999999</ele><time>2026-03-24T21:48:08Z</time></trkpt><trkpt lat="-34.24277477495478" lon="-70.57929055447357"><ele>917.5999999999999</ele><time>2026-03-24T21:48:09Z</time></trkpt><trkpt lat="-34.24273908601866" lon="-70.57913142064281"><ele>916.0</ele><time>2026-03-24T21:48:12Z</time></trkpt><trkpt lat="-34.24265526156447" lon="-70.57904064732224"><ele>915.9999999999999</ele><time>2026-03-24T21:48:13Z</time></trkpt><trkpt lat="-34.24256738766969" lon="-70.57899776436571"><ele>916.0</ele><time>2026-03-24T21:48:14Z</time></trkpt><trkpt lat="-34.24250039375494" lon="-70.57896536851923"><ele>916.0</ele><time>2026-03-24T21:48:15Z</time></trkpt><trkpt lat="-34.24240811297445" lon="-70.57892524134147"><ele>916.0</ele><time>2026-03-24T21:48:17Z</time></trkpt><trkpt lat="-34.242331391740855" lon="-70.57896658869807"><ele>915.9999999999999</ele><time>2026-03-24T21:48:19Z</time></trkpt><trkpt lat="-34.24224975138977" lon="-70.57899592864554"><ele>916.0</ele><time>2026-03-24T21:48:21Z</time></trkpt><trkpt lat="-34.24215252691576" lon="-70.57896968245372"><ele>914.8</ele><time>2026-03-24T21:48:23Z</time></trkpt><trkpt lat="-34.242065237161356" lon="-70.57888971611862"><ele>913.5999999999999</ele><time>2026-03-24T21:48:25Z</time></trkpt><trkpt lat="-34.24202550493792" lon="-70.578822478332"><ele>912.4</ele><time>2026-03-24T21:48:26Z</time></trkpt><trkpt lat="-34.24196834543687" lon="-70.5787056572865"><ele>911.2</ele><time>2026-03-24T21:48:27Z</time></trkpt><trkpt lat="-34.24188438815099" lon="-70.57856447955892"><ele>910.0</ele><time>2026-03-24T21:48:28Z</time></trkpt><trkpt lat="-34.241798622072395" lon="-70.5783886249282"><ele>910.0</ele><time>2026-03-24T21:48:29Z</time></trkpt><trkpt lat="-34.241720938167965" lon="-70.5782457711499"><ele>910.0</ele><time>2026-03-24T21:48:30Z</time></trkpt><trkpt lat="-34.24163506961987" lon="-70.57812514083615"><ele>910.0</ele><time>2026-03-24T21:48:31Z</time></trkpt><trkpt lat="-34.24155871094331" lon="-70.5780204312896"><ele>910.0</ele><time>2026-03-24T21:48:32Z</time></trkpt><trkpt lat="-34.241494497339716" lon="-70.57795107994987"><ele>907.75</ele><time>2026-03-24T21:48:33Z</time></trkpt><trkpt lat="-34.2413939945288" lon="-70.57787438615792"><ele>905.5</ele><time>2026-03-24T21:48:34Z</time></trkpt><trkpt lat="-34.24130071938897" lon="-70.57775527348763"><ele>903.25</ele><time>2026-03-24T21:48:35Z</time></trkpt><trkpt lat="-34.24119047229512" lon="-70.57769786928246"><ele>901.0</ele><time>2026-03-24T21:48:36Z</time></trkpt><trkpt lat="-34.24106389021785" lon="-70.57765613207359"><ele>901.0</ele><time>2026-03-24T21:48:37Z</time></trkpt><trkpt lat="-34.24099699454471" lon="-70.57761666130202"><ele>901.0</ele><time>2026-03-24T21:48:38Z</time></trkpt><trkpt lat="-34.240893719316034" lon="-70.57749188635317"><ele>901.0</ele><time>2026-03-24T21:48:40Z</time></trkpt><trkpt lat="-34.2408113450355" lon="-70.57740072784213"><ele>901.0</ele><time>2026-03-24T21:48:41Z</time></trkpt><trkpt lat="-34.24070463717438" lon="-70.57730383424958"><ele>899.75</ele><time>2026-03-24T21:48:42Z</time></trkpt><trkpt lat="-34.24061732590029" lon="-70.57718832051357"><ele>898.5</ele><time>2026-03-24T21:48:43Z</time></trkpt><trkpt lat="-34.24058161222793" lon="-70.5770855859929"><ele>897.25</ele><time>2026-03-24T21:48:44Z</time></trkpt><trkpt lat="-34.2404998880753" lon="-70.57696467395972"><ele>896.0</ele><time>2026-03-24T21:48:45Z</time></trkpt><trkpt lat="-34.24040854920413" lon="-70.57683870215547"><ele>896.0</ele><time>2026-03-24T21:48:46Z</time></trkpt><trkpt lat="-34.24034995623266" lon="-70.57673311719444"><ele>895.9999999999999</ele><time>2026-03-24T21:48:47Z</time></trkpt><trkpt lat="-34.240268061279686" lon="-70.5766634923911"><ele>895.9999999999999</ele><time>2026-03-24T21:48:48Z</time></trkpt><trkpt lat="-34.2402277656101" lon="-70.57660295278643"><ele>896.0</ele><time>2026-03-24T21:48:49Z</time></trkpt><trkpt lat="-34.24018210455032" lon="-70.57642257807602"><ele>896.0</ele><time>2026-03-24T21:48:51Z</time></trkpt><trkpt lat="-34.24011745548887" lon="-70.57631625176538"><ele>896.0</ele><time>2026-03-24T21:48:53Z</time></trkpt><trkpt lat="-34.24002736010178" lon="-70.57624067999427"><ele>895.9999999999999</ele><time>2026-03-24T21:48:55Z</time></trkpt><trkpt lat="-34.23991652699274" lon="-70.57620378559648"><ele>895.9999999999999</ele><time>2026-03-24T21:48:57Z</time></trkpt><trkpt lat="-34.23984039596235" lon="-70.57616095706801"><ele>896.0</ele><time>2026-03-24T21:48:58Z</time></trkpt><trkpt lat="-34.23978917090447" lon="-70.57609853901366"><ele>896.0</ele><time>2026-03-24T21:48:59Z</time></trkpt><trkpt lat="-34.23975843757477" lon="-70.57597736016025"><ele>895.5999999999999</ele><time>2026-03-24T21:49:01Z</time></trkpt><trkpt lat="-34.23966286176839" lon="-70.57590445121737"><ele>895.1999999999999</ele><time>2026-03-24T21:49:03Z</time></trkpt><trkpt lat="-34.239583892737585" lon="-70.57586806475707"><ele>894.8000000000001</ele><time>2026-03-24T21:49:04Z</time></trkpt><trkpt lat="-34.23951802543906" lon="-70.5758242588158"><ele>894.4000000000001</ele><time>2026-03-24T21:49:05Z</time></trkpt><trkpt lat="-34.23942546780599" lon="-70.57578355453961"><ele>894.0</ele><time>2026-03-24T21:49:06Z</time></trkpt><trkpt lat="-34.23933970419988" lon="-70.57571502468033"><ele>894.0</ele><time>2026-03-24T21:49:07Z</time></trkpt><trkpt lat="-34.23925849820742" lon="-70.5756144654409"><ele>894.0000000000001</ele><time>2026-03-24T21:49:08Z</time></trkpt><trkpt lat="-34.23918807052661" lon="-70.57553564973293"><ele>894.0000000000001</ele><time>2026-03-24T21:49:09Z</time></trkpt><trkpt lat="-34.23912329821059" lon="-70.57544235181166"><ele>894.0</ele><time>2026-03-24T21:49:10Z</time></trkpt><trkpt lat="-34.23906131935068" lon="-70.57536890348051"><ele>894.0</ele><time>2026-03-24T21:49:11Z</time></trkpt><trkpt lat="-34.23898629271599" lon="-70.5753132802321"><ele>893.6</ele><time>2026-03-24T21:49:12Z</time></trkpt><trkpt lat="-34.238888449324556" lon="-70.57527258098968"><ele>893.2</ele><time>2026-03-24T21:49:13Z</time></trkpt><trkpt lat="-34.238837025212895" lon="-70.57520812192273"><ele>892.8000000000001</ele><time>2026-03-24T21:49:14Z</time></trkpt><trkpt lat="-34.23878363010655" lon="-70.57512777529"><ele>892.4000000000001</ele><time>2026-03-24T21:49:15Z</time></trkpt><trkpt lat="-34.23869489855702" lon="-70.57503790596225"><ele>892.0</ele><time>2026-03-24T21:49:16Z</time></trkpt><trkpt lat="-34.2386274208002" lon="-70.57494315575858"><ele>892.0</ele><time>2026-03-24T21:49:17Z</time></trkpt><trkpt lat="-34.23855637729003" lon="-70.57488200189815"><ele>892.0</ele><time>2026-03-24T21:49:18Z</time></trkpt><trkpt lat="-34.23844775223043" lon="-70.57488905535087"><ele>892.0</ele><time>2026-03-24T21:49:20Z</time></trkpt><trkpt lat="-34.23836629114129" lon="-70.57475859457884"><ele>892.0</ele><time>2026-03-24T21:49:22Z</time></trkpt><trkpt lat="-34.23829851811722" lon="-70.57468995442623"><ele>892.0</ele><time>2026-03-24T21:49:23Z</time></trkpt><trkpt lat="-34.23821476989607" lon="-70.57463310301837"><ele>892.8</ele><time>2026-03-24T21:49:24Z</time></trkpt><trkpt lat="-34.23813043713741" lon="-70.57455781840869"><ele>893.6</ele><time>2026-03-24T21:49:25Z</time></trkpt><trkpt lat="-34.23808619547098" lon="-70.5744854801665"><ele>894.3999999999999</ele><time>2026-03-24T21:49:26Z</time></trkpt><trkpt lat="-34.238048724262626" lon="-70.57439248123117"><ele>895.1999999999999</ele><time>2026-03-24T21:49:27Z</time></trkpt><trkpt lat="-34.23800917327604" lon="-70.57428457980613"><ele>896.0</ele><time>2026-03-24T21:49:28Z</time></trkpt><trkpt lat="-34.237961773684695" lon="-70.57417516926557"><ele>896.0</ele><time>2026-03-24T21:49:29Z</time></trkpt><trkpt lat="-34.237846411002934" lon="-70.57408556120544"><ele>896.0</ele><time>2026-03-24T21:49:31Z</time></trkpt><trkpt lat="-34.23771335420408" lon="-70.57405206642028"><ele>896.0</ele><time>2026-03-24T21:49:32Z</time></trkpt><trkpt lat="-34.23757476011614" lon="-70.57397354083402"><ele>896.0</ele><time>2026-03-24T21:49:33Z</time></trkpt><trkpt lat="-34.23745410107384" lon="-70.57387605669712"><ele>896.0</ele><time>2026-03-24T21:49:34Z</time></trkpt><trkpt lat="-34.23730400614965" lon="-70.57377479286662"><ele>896.0</ele><time>2026-03-24T21:49:35Z</time></trkpt><trkpt lat="-34.237142567938456" lon="-70.57371352029261"><ele>896.0</ele><time>2026-03-24T21:49:36Z</time></trkpt><trkpt lat="-34.23700505559955" lon="-70.57371345057054"><ele>896.5</ele><time>2026-03-24T21:49:37Z</time></trkpt><trkpt lat="-34.23685078409214" lon="-70.57375889896984"><ele>897.0</ele><time>2026-03-24T21:49:38Z</time></trkpt><trkpt lat="-34.23671544333982" lon="-70.5737865675524"><ele>897.5</ele><time>2026-03-24T21:49:39Z</time></trkpt><trkpt lat="-34.23663538087248" lon="-70.57376320657139"><ele>898.0</ele><time>2026-03-24T21:49:40Z</time></trkpt><trkpt lat="-34.23658053469295" lon="-70.57369357147539"><ele>897.0</ele><time>2026-03-24T21:49:41Z</time></trkpt><trkpt lat="-34.23650346439241" lon="-70.57361475074845"><ele>896.0</ele><time>2026-03-24T21:49:42Z</time></trkpt><trkpt lat="-34.2364086579435" lon="-70.5735149446268"><ele>895.0</ele><time>2026-03-24T21:49:43Z</time></trkpt><trkpt lat="-34.23633378197049" lon="-70.57347385927089"><ele>894.0</ele><time>2026-03-24T21:49:44Z</time></trkpt><trkpt lat="-34.236262080707675" lon="-70.57349020790369"><ele>893.0</ele><time>2026-03-24T21:49:45Z</time></trkpt><trkpt lat="-34.23616017574674" lon="-70.5735627287058"><ele>893.0</ele><time>2026-03-24T21:49:46Z</time></trkpt><trkpt lat="-34.23607443311628" lon="-70.57356797564621"><ele>893.0</ele><time>2026-03-24T21:49:47Z</time></trkpt><trkpt lat="-34.235989287470034" lon="-70.57349260968743"><ele>893.0</ele><time>2026-03-24T21:49:48Z</time></trkpt><trkpt lat="-34.235869120440476" lon="-70.57341611656246"><ele>893.0</ele><time>2026-03-24T21:49:49Z</time></trkpt><trkpt lat="-34.23580672581732" lon="-70.57335096022533"><ele>893.0</ele><time>2026-03-24T21:49:50Z</time></trkpt><trkpt lat="-34.23584101083735" lon="-70.57325497473782"><ele>893.0</ele><time>2026-03-24T21:49:52Z</time></trkpt><trkpt lat="-34.23589574161623" lon="-70.57318645015297"><ele>893.0</ele><time>2026-03-24T21:49:53Z</time></trkpt><trkpt lat="-34.235965230207" lon="-70.57308167947699"><ele>893.0</ele><time>2026-03-24T21:49:55Z</time></trkpt><trkpt lat="-34.2359613219856" lon="-70.57299908198145"><ele>893.0</ele><time>2026-03-24T21:49:56Z</time></trkpt><trkpt lat="-34.23584405282377" lon="-70.57296312809942"><ele>893.0</ele><time>2026-03-24T21:49:59Z</time></trkpt><trkpt lat="-34.23572905437062" lon="-70.57295255580802"><ele>895.25</ele><time>2026-03-24T21:50:00Z</time></trkpt><trkpt lat="-34.23558378012377" lon="-70.57293799345899"><ele>897.5</ele><time>2026-03-24T21:50:01Z</time></trkpt><trkpt lat="-34.23545294811188" lon="-70.57291538699452"><ele>899.75</ele><time>2026-03-24T21:50:02Z</time></trkpt><trkpt lat="-34.23535962443108" lon="-70.57287455986445"><ele>902.0</ele><time>2026-03-24T21:50:03Z</time></trkpt><trkpt lat="-34.23523787080787" lon="-70.57277653930095"><ele>902.0</ele><time>2026-03-24T21:50:04Z</time></trkpt><trkpt lat="-34.235097737651294" lon="-70.57270769297058"><ele>902.0</ele><time>2026-03-24T21:50:05Z</time></trkpt><trkpt lat="-34.23501065141016" lon="-70.57265212922334"><ele>902.0</ele><time>2026-03-24T21:50:06Z</time></trkpt><trkpt lat="-34.23495255798031" lon="-70.5726222254788"><ele>902.0</ele><time>2026-03-24T21:50:07Z</time></trkpt><trkpt lat="-34.234871277124356" lon="-70.5725265866772"><ele>902.0</ele><time>2026-03-24T21:50:08Z</time></trkpt><trkpt lat="-34.23477826442358" lon="-70.57240174326812"><ele>903.75</ele><time>2026-03-24T21:50:09Z</time></trkpt><trkpt lat="-34.234670646922886" lon="-70.57231355877347"><ele>905.5</ele><time>2026-03-24T21:50:10Z</time></trkpt><trkpt lat="-34.234541042943455" lon="-70.5722605549879"><ele>907.25</ele><time>2026-03-24T21:50:11Z</time></trkpt><trkpt lat="-34.23442449093325" lon="-70.57221391666681"><ele>909.0</ele><time>2026-03-24T21:50:12Z</time></trkpt><trkpt lat="-34.234315200375" lon="-70.57217526175789"><ele>909.0</ele><time>2026-03-24T21:50:13Z</time></trkpt><trkpt lat="-34.23421995716269" lon="-70.57215398973213"><ele>909.0</ele><time>2026-03-24T21:50:15Z</time></trkpt><trkpt lat="-34.23428052227391" lon="-70.57210727088919"><ele>909.0</ele><time>2026-03-24T21:50:17Z</time></trkpt><trkpt lat="-34.23434034349845" lon="-70.57202406624835"><ele>909.0</ele><time>2026-03-24T21:50:19Z</time></trkpt><trkpt lat="-34.23433159587874" lon="-70.57190029771795"><ele>909.0</ele><time>2026-03-24T21:50:21Z</time></trkpt><trkpt lat="-34.23431945526562" lon="-70.57180742434487"><ele>909.0</ele><time>2026-03-24T21:50:22Z</time></trkpt><trkpt lat="-34.234286646500024" lon="-70.57171491909737"><ele>911.25</ele><time>2026-03-24T21:50:23Z</time></trkpt><trkpt lat="-34.23422945132793" lon="-70.57163391084339"><ele>913.5</ele><time>2026-03-24T21:50:24Z</time></trkpt><trkpt lat="-34.23411958165629" lon="-70.571508283367"><ele>915.75</ele><time>2026-03-24T21:50:26Z</time></trkpt><trkpt lat="-34.2340457362573" lon="-70.57139847057198"><ele>918.0</ele><time>2026-03-24T21:50:27Z</time></trkpt><trkpt lat="-34.23397566344584" lon="-70.57124472973683"><ele>922.3333333333333</ele><time>2026-03-24T21:50:28Z</time></trkpt><trkpt lat="-34.23380205167633" lon="-70.57115202485375"><ele>926.6666666666666</ele><time>2026-03-24T21:50:29Z</time></trkpt><trkpt lat="-34.233609321600795" lon="-70.57103727669728"><ele>931.0</ele><time>2026-03-24T21:50:30Z</time></trkpt><trkpt lat="-34.233417671962926" lon="-70.5708853487291"><ele>931.0</ele><time>2026-03-24T21:50:31Z</time></trkpt><trkpt lat="-34.23326323061394" lon="-70.57071241834902"><ele>931.0</ele><time>2026-03-24T21:50:32Z</time></trkpt><trkpt lat="-34.2331008409475" lon="-70.57054433676224"><ele>931.0</ele><time>2026-03-24T21:50:33Z</time></trkpt><trkpt lat="-34.23294650393619" lon="-70.57041038958484"><ele>933.25</ele><time>2026-03-24T21:50:34Z</time></trkpt><trkpt lat="-34.232838231370216" lon="-70.57027662651099"><ele>935.5</ele><time>2026-03-24T21:50:35Z</time></trkpt><trkpt lat="-34.23276961002013" lon="-70.57014059522922"><ele>937.75</ele><time>2026-03-24T21:50:36Z</time></trkpt><trkpt lat="-34.232706258429296" lon="-70.56997392351009"><ele>940.0</ele><time>2026-03-24T21:50:37Z</time></trkpt><trkpt lat="-34.232656819773744" lon="-70.56984242454978"><ele>940.0</ele><time>2026-03-24T21:50:38Z</time></trkpt><trkpt lat="-34.23270157522982" lon="-70.56974947508928"><ele>940.0</ele><time>2026-03-24T21:50:39Z</time></trkpt><trkpt lat="-34.23270157522538" lon="-70.56959967105783"><ele>940.0</ele><time>2026-03-24T21:50:40Z</time></trkpt><trkpt lat="-34.23270157523163" lon="-70.56950967826182"><ele>940.0</ele><time>2026-03-24T21:50:41Z</time></trkpt><trkpt lat="-34.232282979367184" lon="-70.569486983068"><ele>940.0</ele><time>2026-03-24T21:50:44Z</time></trkpt><trkpt lat="-34.232184446066256" lon="-70.56947753964891"><ele>940.0</ele><time>2026-03-24T21:50:45Z</time></trkpt><trkpt lat="-34.232113348349664" lon="-70.56941203392208"><ele>940.0</ele><time>2026-03-24T21:50:48Z</time></trkpt><trkpt lat="-34.23212765255023" lon="-70.56932584608178"><ele>940.0</ele><time>2026-03-24T21:50:49Z</time></trkpt><trkpt lat="-34.232155297691364" lon="-70.56921636502537"><ele>940.0</ele><time>2026-03-24T21:50:51Z</time></trkpt><trkpt lat="-34.232228501808336" lon="-70.56913390896776"><ele>940.0</ele><time>2026-03-24T21:50:52Z</time></trkpt><trkpt lat="-34.23222294230817" lon="-70.56905459952321"><ele>940.0</ele><time>2026-03-24T21:50:53Z</time></trkpt><trkpt lat="-34.23220807779531" lon="-70.56890937454462"><ele>940.0</ele><time>2026-03-24T21:50:55Z</time></trkpt><trkpt lat="-34.23231203925495" lon="-70.5688158822858"><ele>940.0</ele><time>2026-03-24T21:50:57Z</time></trkpt><trkpt lat="-34.23237980445372" lon="-70.56874876492388"><ele>940.0</ele><time>2026-03-24T21:50:58Z</time></trkpt><trkpt lat="-34.232443290380495" lon="-70.56867484462346"><ele>939.4999999999999</ele><time>2026-03-24T21:50:59Z</time></trkpt><trkpt lat="-34.23251584154269" lon="-70.56863453901931"><ele>939.0</ele><time>2026-03-24T21:51:00Z</time></trkpt><trkpt lat="-34.232552949486724" lon="-70.568509170581"><ele>938.5</ele><time>2026-03-24T21:51:02Z</time></trkpt><trkpt lat="-34.23252565152008" lon="-70.56840031187652"><ele>938.0</ele><time>2026-03-24T21:51:04Z</time></trkpt><trkpt lat="-34.232559234143295" lon="-70.56830335053671"><ele>937.4999999999999</ele><time>2026-03-24T21:51:05Z</time></trkpt><trkpt lat="-34.232552265075846" lon="-70.56822501792846"><ele>937.0</ele><time>2026-03-24T21:51:06Z</time></trkpt><trkpt lat="-34.232556647924" lon="-70.56810724903121"><ele>937.0</ele><time>2026-03-24T21:51:09Z</time></trkpt><trkpt lat="-34.23258926923054" lon="-70.56795545244046"><ele>937.0</ele><time>2026-03-24T21:51:11Z</time></trkpt><trkpt lat="-34.232601669763305" lon="-70.56782008566853"><ele>937.0</ele><time>2026-03-24T21:51:13Z</time></trkpt><trkpt lat="-34.2326300074941" lon="-70.56774799138073"><ele>937.0</ele><time>2026-03-24T21:51:14Z</time></trkpt><trkpt lat="-34.2326703805514" lon="-70.5676381548152"><ele>937.0</ele><time>2026-03-24T21:51:15Z</time></trkpt><trkpt lat="-34.23271041524818" lon="-70.56753956328669"><ele>934.9999999999999</ele><time>2026-03-24T21:51:16Z</time></trkpt><trkpt lat="-34.23274999424477" lon="-70.56743467781426"><ele>933.0</ele><time>2026-03-24T21:51:17Z</time></trkpt><trkpt lat="-34.23270176777133" lon="-70.56736925476231"><ele>931.0</ele><time>2026-03-24T21:51:18Z</time></trkpt><trkpt lat="-34.2326447267308" lon="-70.56731593883303"><ele>929.0</ele><time>2026-03-24T21:51:19Z</time></trkpt><trkpt lat="-34.23267140054151" lon="-70.5672034817317"><ele>926.9999999999999</ele><time>2026-03-24T21:51:22Z</time></trkpt><trkpt lat="-34.232767525570694" lon="-70.56715462343848"><ele>925.0</ele><time>2026-03-24T21:51:23Z</time></trkpt><trkpt lat="-34.23289034878765" lon="-70.56711035490058"><ele>925.0</ele><time>2026-03-24T21:51:24Z</time></trkpt><trkpt lat="-34.23299486430156" lon="-70.56704853898678"><ele>925.0</ele><time>2026-03-24T21:51:25Z</time></trkpt><trkpt lat="-34.23307090231013" lon="-70.56698762471565"><ele>925.0</ele><time>2026-03-24T21:51:26Z</time></trkpt><trkpt lat="-34.233159876265134" lon="-70.56693958869127"><ele>925.0</ele><time>2026-03-24T21:51:27Z</time></trkpt><trkpt lat="-34.233227162068175" lon="-70.56687570389515"><ele>925.0</ele><time>2026-03-24T21:51:28Z</time></trkpt><trkpt lat="-34.233293515918234" lon="-70.56682598218943"><ele>924.2</ele><time>2026-03-24T21:51:29Z</time></trkpt><trkpt lat="-34.23334683010588" lon="-70.56677866938765"><ele>923.4</ele><time>2026-03-24T21:51:30Z</time></trkpt><trkpt lat="-34.233451170987436" lon="-70.56672840623932"><ele>922.5999999999999</ele><time>2026-03-24T21:51:32Z</time></trkpt><trkpt lat="-34.23352736831536" lon="-70.56663955656205"><ele>921.8</ele><time>2026-03-24T21:51:34Z</time></trkpt><trkpt lat="-34.23359053630138" lon="-70.56654484805163"><ele>921.0</ele><time>2026-03-24T21:51:36Z</time></trkpt><trkpt lat="-34.23364225328698" lon="-70.56645898294302"><ele>921.0</ele><time>2026-03-24T21:51:37Z</time></trkpt><trkpt lat="-34.23369562410877" lon="-70.56639093925871"><ele>920.9999999999999</ele><time>2026-03-24T21:51:38Z</time></trkpt><trkpt lat="-34.2337184979111" lon="-70.56624207435526"><ele>920.9999999999999</ele><time>2026-03-24T21:51:40Z</time></trkpt><trkpt lat="-34.23372225839835" lon="-70.56615852326638"><ele>921.0</ele><time>2026-03-24T21:51:41Z</time></trkpt><trkpt lat="-34.23374864159837" lon="-70.56602745623675"><ele>921.0</ele><time>2026-03-24T21:51:43Z</time></trkpt><trkpt lat="-34.233741791785306" lon="-70.56591092533185"><ele>920.4</ele><time>2026-03-24T21:51:45Z</time></trkpt><trkpt lat="-34.233780692388294" lon="-70.56575794945735"><ele>919.8</ele><time>2026-03-24T21:51:47Z</time></trkpt><trkpt lat="-34.23381419144849" lon="-70.56567798275266"><ele>919.1999999999999</ele><time>2026-03-24T21:51:48Z</time></trkpt><trkpt lat="-34.23381437701721" lon="-70.56558044666663"><ele>918.5999999999999</ele><time>2026-03-24T21:51:49Z</time></trkpt><trkpt lat="-34.23384570813938" lon="-70.56547413069649"><ele>918.0</ele><time>2026-03-24T21:51:50Z</time></trkpt><trkpt lat="-34.23387351804963" lon="-70.56536489162478"><ele>918.3333333333334</ele><time>2026-03-24T21:51:51Z</time></trkpt><trkpt lat="-34.23387716639791" lon="-70.56528508628841"><ele>918.6666666666667</ele><time>2026-03-24T21:51:52Z</time></trkpt><trkpt lat="-34.23393320110395" lon="-70.56520592737006"><ele>919.0</ele><time>2026-03-24T21:51:54Z</time></trkpt><trkpt lat="-34.23395291076977" lon="-70.56511246880868"><ele>919.3333333333334</ele><time>2026-03-24T21:51:57Z</time></trkpt><trkpt lat="-34.23398470879257" lon="-70.56503653898366"><ele>919.6666666666667</ele><time>2026-03-24T21:51:58Z</time></trkpt><trkpt lat="-34.23401126190967" lon="-70.56490873207122"><ele>920.0</ele><time>2026-03-24T21:52:00Z</time></trkpt><trkpt lat="-34.23403125796378" lon="-70.56476924075635"><ele>921.1666666666667</ele><time>2026-03-24T21:52:03Z</time></trkpt><trkpt lat="-34.23404621536431" lon="-70.56468023424877"><ele>922.3333333333334</ele><time>2026-03-24T21:52:04Z</time></trkpt><trkpt lat="-34.23406079201325" lon="-70.56458525225565"><ele>923.5</ele><time>2026-03-24T21:52:05Z</time></trkpt><trkpt lat="-34.234055148549515" lon="-70.56445669540578"><ele>924.6666666666667</ele><time>2026-03-24T21:52:07Z</time></trkpt><trkpt lat="-34.234006749466694" lon="-70.56436747531049"><ele>925.8333333333334</ele><time>2026-03-24T21:52:09Z</time></trkpt><trkpt lat="-34.234014860103755" lon="-70.56427887598781"><ele>927.0</ele><time>2026-03-24T21:52:10Z</time></trkpt><trkpt lat="-34.23403647357102" lon="-70.56413479449002"><ele>927.0</ele><time>2026-03-24T21:52:12Z</time></trkpt><trkpt lat="-34.23395797349304" lon="-70.56405297341227"><ele>927.0</ele><time>2026-03-24T21:52:14Z</time></trkpt><trkpt lat="-34.23397591878498" lon="-70.56393582634122"><ele>927.0</ele><time>2026-03-24T21:52:16Z</time></trkpt><trkpt lat="-34.2339780787857" lon="-70.56384282798687"><ele>927.0</ele><time>2026-03-24T21:52:17Z</time></trkpt><trkpt lat="-34.23395056671492" lon="-70.56372755729167"><ele>927.0</ele><time>2026-03-24T21:52:18Z</time></trkpt><trkpt lat="-34.23393775828867" lon="-70.56362582935402"><ele>921.8333333333334</ele><time>2026-03-24T21:52:19Z</time></trkpt><trkpt lat="-34.23387285683373" lon="-70.56357781959414"><ele>916.6666666666667</ele><time>2026-03-24T21:52:22Z</time></trkpt><trkpt lat="-34.2338492595525" lon="-70.56346309461247"><ele>911.5</ele><time>2026-03-24T21:52:24Z</time></trkpt><trkpt lat="-34.233814220680436" lon="-70.56335631502054"><ele>906.3333333333334</ele><time>2026-03-24T21:52:25Z</time></trkpt><trkpt lat="-34.23378470316182" lon="-70.56326114450741"><ele>901.1666666666667</ele><time>2026-03-24T21:52:26Z</time></trkpt><trkpt lat="-34.23379271371498" lon="-70.56318418681028"><ele>896.0</ele><time>2026-03-24T21:52:27Z</time></trkpt><trkpt lat="-34.23380296033151" lon="-70.56307110803698"><ele>896.0</ele><time>2026-03-24T21:52:28Z</time></trkpt><trkpt lat="-34.23378002972011" lon="-70.56298196125655"><ele>895.9999999999999</ele><time>2026-03-24T21:52:29Z</time></trkpt><trkpt lat="-34.23372491116408" lon="-70.5628733243147"><ele>895.9999999999999</ele><time>2026-03-24T21:52:31Z</time></trkpt><trkpt lat="-34.233821868804434" lon="-70.56273421468508"><ele>896.0</ele><time>2026-03-24T21:52:33Z</time></trkpt><trkpt lat="-34.23384073525804" lon="-70.56265792373388"><ele>896.0</ele><time>2026-03-24T21:52:35Z</time></trkpt><trkpt lat="-34.23374090237649" lon="-70.56261329413181"><ele>895.5000000000001</ele><time>2026-03-24T21:52:37Z</time></trkpt><trkpt lat="-34.233671733664586" lon="-70.56258561480404"><ele>895.0</ele><time>2026-03-24T21:52:38Z</time></trkpt><trkpt lat="-34.23358728828747" lon="-70.56256372291594"><ele>894.5</ele><time>2026-03-24T21:52:40Z</time></trkpt><trkpt lat="-34.23351917389315" lon="-70.56252695990071"><ele>894.0</ele><time>2026-03-24T21:52:42Z</time></trkpt><trkpt lat="-34.233442324812195" lon="-70.5625050303952"><ele>893.5000000000001</ele><time>2026-03-24T21:52:45Z</time></trkpt><trkpt lat="-34.23342016185364" lon="-70.56241753766385"><ele>893.0</ele><time>2026-03-24T21:52:47Z</time></trkpt><trkpt lat="-34.23335725254891" lon="-70.5623781150386"><ele>893.0000000000001</ele><time>2026-03-24T21:52:50Z</time></trkpt><trkpt lat="-34.233270327760124" lon="-70.56236644020247"><ele>893.0</ele><time>2026-03-24T21:52:52Z</time></trkpt><trkpt lat="-34.23321316179501" lon="-70.56231036379826"><ele>893.0</ele><time>2026-03-24T21:52:54Z</time></trkpt><trkpt lat="-34.23312175253981" lon="-70.562331768567"><ele>893.0</ele><time>2026-03-24T21:52:56Z</time></trkpt><trkpt lat="-34.23306429022105" lon="-70.56237588045548"><ele>893.0000000000001</ele><time>2026-03-24T21:52:57Z</time></trkpt><trkpt lat="-34.23299448373013" lon="-70.56242237545887"><ele>893.0</ele><time>2026-03-24T21:53:01Z</time></trkpt><trkpt lat="-34.23292789236554" lon="-70.56239993908633"><ele>892.8333333333334</ele><time>2026-03-24T21:53:05Z</time></trkpt><trkpt lat="-34.232865934482554" lon="-70.56242808475166"><ele>892.6666666666667</ele><time>2026-03-24T21:53:08Z</time></trkpt><trkpt lat="-34.23282884387773" lon="-70.56235260733312"><ele>892.5</ele><time>2026-03-24T21:53:12Z</time></trkpt><trkpt lat="-34.232808300795625" lon="-70.56222630650983"><ele>892.3333333333333</ele><time>2026-03-24T21:53:14Z</time></trkpt><trkpt lat="-34.23272635109575" lon="-70.56216892585903"><ele>892.1666666666666</ele><time>2026-03-24T21:53:16Z</time></trkpt><trkpt lat="-34.23268835034262" lon="-70.56207143698104"><ele>892.0</ele><time>2026-03-24T21:53:19Z</time></trkpt><trkpt lat="-34.232733490801074" lon="-70.56197614640922"><ele>892.8571428571429</ele><time>2026-03-24T21:53:21Z</time></trkpt><trkpt lat="-34.2327515263581" lon="-70.5618859264544"><ele>893.7142857142857</ele><time>2026-03-24T21:53:23Z</time></trkpt><trkpt lat="-34.23266869428794" lon="-70.56193325197262"><ele>894.5714285714286</ele><time>2026-03-24T21:53:26Z</time></trkpt><trkpt lat="-34.23260032193112" lon="-70.56193158806568"><ele>895.4285714285713</ele><time>2026-03-24T21:53:27Z</time></trkpt><trkpt lat="-34.232535027781374" lon="-70.56193275741418"><ele>896.2857142857142</ele><time>2026-03-24T21:53:28Z</time></trkpt><trkpt lat="-34.23247159921517" lon="-70.56191587103413"><ele>897.1428571428571</ele><time>2026-03-24T21:53:29Z</time></trkpt><trkpt lat="-34.232404502675784" lon="-70.56190540123816"><ele>898.0</ele><time>2026-03-24T21:53:30Z</time></trkpt><trkpt lat="-34.23232454556627" lon="-70.5619022229019"><ele>899.5999999999999</ele><time>2026-03-24T21:53:31Z</time></trkpt><trkpt lat="-34.23222971566668" lon="-70.56192121234737"><ele>901.1999999999999</ele><time>2026-03-24T21:53:33Z</time></trkpt><trkpt lat="-34.232142279271116" lon="-70.56196539097591"><ele>902.8</ele><time>2026-03-24T21:53:35Z</time></trkpt><trkpt lat="-34.232061946678506" lon="-70.5619042721809"><ele>904.4</ele><time>2026-03-24T21:53:37Z</time></trkpt><trkpt lat="-34.23197407213519" lon="-70.5618515271523"><ele>906.0</ele><time>2026-03-24T21:53:38Z</time></trkpt><trkpt lat="-34.23191225309688" lon="-70.56179907207263"><ele>906.0</ele><time>2026-03-24T21:53:39Z</time></trkpt><trkpt lat="-34.23184296555978" lon="-70.5617553737025"><ele>906.0</ele><time>2026-03-24T21:53:41Z</time></trkpt><trkpt lat="-34.23178363786089" lon="-70.56172869569203"><ele>906.0</ele><time>2026-03-24T21:53:42Z</time></trkpt><trkpt lat="-34.23169349932196" lon="-70.5617078465663"><ele>906.0</ele><time>2026-03-24T21:53:43Z</time></trkpt><trkpt lat="-34.23158477268291" lon="-70.56166501775688"><ele>906.0</ele><time>2026-03-24T21:53:44Z</time></trkpt><trkpt lat="-34.231510254592955" lon="-70.5616040304321"><ele>906.0</ele><time>2026-03-24T21:53:45Z</time></trkpt><trkpt lat="-34.23144228469321" lon="-70.56154905611466"><ele>907.5</ele><time>2026-03-24T21:53:46Z</time></trkpt><trkpt lat="-34.23136684498112" lon="-70.56153196211054"><ele>909.0</ele><time>2026-03-24T21:53:47Z</time></trkpt><trkpt lat="-34.231284221469146" lon="-70.56154232595073"><ele>910.5</ele><time>2026-03-24T21:53:48Z</time></trkpt><trkpt lat="-34.23120996197533" lon="-70.56153700871444"><ele>912.0</ele><time>2026-03-24T21:53:49Z</time></trkpt><trkpt lat="-34.23115368308745" lon="-70.56149693546381"><ele>913.5</ele><time>2026-03-24T21:53:50Z</time></trkpt><trkpt lat="-34.231050176727365" lon="-70.56142752528304"><ele>915.0</ele><time>2026-03-24T21:53:52Z</time></trkpt><trkpt lat="-34.230982684047476" lon="-70.56144576918732"><ele>915.0</ele><time>2026-03-24T21:53:53Z</time></trkpt><trkpt lat="-34.230792654573925" lon="-70.561340193614"><ele>915.0</ele><time>2026-03-24T21:53:59Z</time></trkpt><trkpt lat="-34.23070261184874" lon="-70.56133246522207"><ele>915.0</ele><time>2026-03-24T21:54:02Z</time></trkpt><trkpt lat="-34.230655012350205" lon="-70.56139064633024"><ele>915.0</ele><time>2026-03-24T21:54:04Z</time></trkpt><trkpt lat="-34.23055119666819" lon="-70.56140034205377"><ele>916.6666666666666</ele><time>2026-03-24T21:54:06Z</time></trkpt><trkpt lat="-34.23047959012573" lon="-70.56138530985015"><ele>918.3333333333333</ele><time>2026-03-24T21:54:07Z</time></trkpt><trkpt lat="-34.230422636542855" lon="-70.56134657119071"><ele>920.0</ele><time>2026-03-24T21:54:08Z</time></trkpt><trkpt lat="-34.230364865278005" lon="-70.5612918834451"><ele>921.6666666666666</ele><time>2026-03-24T21:54:09Z</time></trkpt><trkpt lat="-34.23027592916835" lon="-70.56125134681919"><ele>923.3333333333333</ele><time>2026-03-24T21:54:10Z</time></trkpt><trkpt lat="-34.230191196518746" lon="-70.56124104225044"><ele>925.0</ele><time>2026-03-24T21:54:11Z</time></trkpt><trkpt lat="-34.230103296061245" lon="-70.56125788979578"><ele>925.0</ele><time>2026-03-24T21:54:12Z</time></trkpt><trkpt lat="-34.23001076002074" lon="-70.56126617915291"><ele>925.0</ele><time>2026-03-24T21:54:13Z</time></trkpt><trkpt lat="-34.22993482337591" lon="-70.56124227205733"><ele>925.0</ele><time>2026-03-24T21:54:14Z</time></trkpt><trkpt lat="-34.22983350798537" lon="-70.56122018624498"><ele>925.0</ele><time>2026-03-24T21:54:15Z</time></trkpt><trkpt lat="-34.22973146619605" lon="-70.56118329828705"><ele>925.0</ele><time>2026-03-24T21:54:16Z</time></trkpt><trkpt lat="-34.229617932820524" lon="-70.561168887786"><ele>926.6</ele><time>2026-03-24T21:54:17Z</time></trkpt><trkpt lat="-34.22952041089259" lon="-70.56116972967527"><ele>928.2</ele><time>2026-03-24T21:54:18Z</time></trkpt><trkpt lat="-34.229420002226725" lon="-70.56119035559234"><ele>929.8</ele><time>2026-03-24T21:54:19Z</time></trkpt><trkpt lat="-34.22931038436554" lon="-70.56119584135413"><ele>931.4</ele><time>2026-03-24T21:54:20Z</time></trkpt><trkpt lat="-34.229230916135606" lon="-70.56120127538742"><ele>933.0</ele><time>2026-03-24T21:54:21Z</time></trkpt><trkpt lat="-34.22918120074695" lon="-70.56114251153042"><ele>935.4</ele><time>2026-03-24T21:54:22Z</time></trkpt><trkpt lat="-34.22911146623202" lon="-70.56116423002427"><ele>937.8</ele><time>2026-03-24T21:54:23Z</time></trkpt><trkpt lat="-34.229048998026656" lon="-70.56119666690999"><ele>940.2</ele><time>2026-03-24T21:54:24Z</time></trkpt><trkpt lat="-34.22894808806732" lon="-70.56112259794469"><ele>942.6</ele><time>2026-03-24T21:54:26Z</time></trkpt><trkpt lat="-34.22890384914348" lon="-70.56101213491958"><ele>945.0</ele><time>2026-03-24T21:54:27Z</time></trkpt><trkpt lat="-34.228844576502325" lon="-70.56090686290342"><ele>946.4</ele><time>2026-03-24T21:54:28Z</time></trkpt><trkpt lat="-34.22875713316412" lon="-70.56079674382539"><ele>947.8</ele><time>2026-03-24T21:54:30Z</time></trkpt><trkpt lat="-34.228714334713814" lon="-70.56070865015873"><ele>949.2</ele><time>2026-03-24T21:54:32Z</time></trkpt><trkpt lat="-34.22869369294418" lon="-70.56062389137702"><ele>950.6</ele><time>2026-03-24T21:54:33Z</time></trkpt><trkpt lat="-34.228712756813316" lon="-70.56052556333064"><ele>952.0</ele><time>2026-03-24T21:54:35Z</time></trkpt><trkpt lat="-34.22861433493589" lon="-70.56050816705351"><ele>951.9999999999999</ele><time>2026-03-24T21:54:37Z</time></trkpt><trkpt lat="-34.22857841407981" lon="-70.56041253113263"><ele>952.0</ele><time>2026-03-24T21:54:41Z</time></trkpt><trkpt lat="-34.22852696440478" lon="-70.56032189434214"><ele>952.0</ele><time>2026-03-24T21:54:43Z</time></trkpt><trkpt lat="-34.228499117151294" lon="-70.56025321951714"><ele>952.0</ele><time>2026-03-24T21:54:46Z</time></trkpt><trkpt lat="-34.22840115256223" lon="-70.56020119142113"><ele>951.9999999999999</ele><time>2026-03-24T21:54:48Z</time></trkpt><trkpt lat="-34.22830925162074" lon="-70.56022527128049"><ele>952.0</ele><time>2026-03-24T21:54:50Z</time></trkpt><trkpt lat="-34.22827581669681" lon="-70.56030258948444"><ele>953.6</ele><time>2026-03-24T21:54:54Z</time></trkpt><trkpt lat="-34.228210763315666" lon="-70.56036499112787"><ele>955.2</ele><time>2026-03-24T21:54:58Z</time></trkpt><trkpt lat="-34.22802266481324" lon="-70.56028183404516"><ele>956.8</ele><time>2026-03-24T21:55:01Z</time></trkpt><trkpt lat="-34.2279332019412" lon="-70.56027032885707"><ele>958.4</ele><time>2026-03-24T21:55:03Z</time></trkpt><trkpt lat="-34.22786971001882" lon="-70.56026835015645"><ele>960.0</ele><time>2026-03-24T21:55:05Z</time></trkpt><trkpt lat="-34.22782902400354" lon="-70.56021019897086"><ele>960.8333333333334</ele><time>2026-03-24T21:55:07Z</time></trkpt><trkpt lat="-34.22776039219754" lon="-70.56025256379645"><ele>961.6666666666667</ele><time>2026-03-24T21:55:10Z</time></trkpt><trkpt lat="-34.22771953799966" lon="-70.56032855620248"><ele>962.5</ele><time>2026-03-24T21:55:12Z</time></trkpt><trkpt lat="-34.227633291746756" lon="-70.56034490425266"><ele>963.3333333333334</ele><time>2026-03-24T21:55:15Z</time></trkpt><trkpt lat="-34.227546077375436" lon="-70.56033866726088"><ele>964.1666666666667</ele><time>2026-03-24T21:55:16Z</time></trkpt><trkpt lat="-34.227456145561014" lon="-70.56036984599663"><ele>965.0</ele><time>2026-03-24T21:55:17Z</time></trkpt><trkpt lat="-34.22739464460167" lon="-70.56042754719161"><ele>968.2</ele><time>2026-03-24T21:55:18Z</time></trkpt><trkpt lat="-34.22730802339516" lon="-70.56047469942854"><ele>971.4</ele><time>2026-03-24T21:55:20Z</time></trkpt><trkpt lat="-34.22720336588154" lon="-70.56057380569706"><ele>974.5999999999999</ele><time>2026-03-24T21:55:22Z</time></trkpt><trkpt lat="-34.2271747256299" lon="-70.56064643829298"><ele>977.8</ele><time>2026-03-24T21:55:23Z</time></trkpt><trkpt lat="-34.227129761445426" lon="-70.56072617614922"><ele>981.0</ele><time>2026-03-24T21:55:26Z</time></trkpt><trkpt lat="-34.2270706067995" lon="-70.56083940390874"><ele>981.0</ele><time>2026-03-24T21:55:27Z</time></trkpt><trkpt lat="-34.22700770762332" lon="-70.56094699794612"><ele>980.9999999999999</ele><time>2026-03-24T21:55:28Z</time></trkpt><trkpt lat="-34.226949560227574" lon="-70.56103378498474"><ele>980.9999999999999</ele><time>2026-03-24T21:55:29Z</time></trkpt><trkpt lat="-34.226870354768714" lon="-70.56114526087836"><ele>981.0</ele><time>2026-03-24T21:55:31Z</time></trkpt><trkpt lat="-34.22679657172239" lon="-70.56124493823897"><ele>981.0</ele><time>2026-03-24T21:55:33Z</time></trkpt><trkpt lat="-34.226726886468576" lon="-70.5612902876372"><ele>980.6666666666666</ele><time>2026-03-24T21:55:34Z</time></trkpt><trkpt lat="-34.2266749696226" lon="-70.56136937101087"><ele>980.3333333333333</ele><time>2026-03-24T21:55:35Z</time></trkpt><trkpt lat="-34.226618245792444" lon="-70.56140381830079"><ele>980.0</ele><time>2026-03-24T21:55:36Z</time></trkpt><trkpt lat="-34.226595616679454" lon="-70.56147954293728"><ele>979.6666666666666</ele><time>2026-03-24T21:55:38Z</time></trkpt><trkpt lat="-34.22647942533233" lon="-70.56150927358081"><ele>979.3333333333333</ele><time>2026-03-24T21:55:42Z</time></trkpt><trkpt lat="-34.22639770845692" lon="-70.56154848903793"><ele>979.0</ele><time>2026-03-24T21:55:43Z</time></trkpt><trkpt lat="-34.22634507130409" lon="-70.56161413794227"><ele>981.8000000000001</ele><time>2026-03-24T21:55:44Z</time></trkpt><trkpt lat="-34.22624422030153" lon="-70.56168002163295"><ele>984.6000000000001</ele><time>2026-03-24T21:55:46Z</time></trkpt><trkpt lat="-34.22615342701673" lon="-70.56172801624136"><ele>987.4</ele><time>2026-03-24T21:55:47Z</time></trkpt><trkpt lat="-34.22609749355956" lon="-70.56176860023194"><ele>990.2</ele><time>2026-03-24T21:55:48Z</time></trkpt><trkpt lat="-34.22596915803878" lon="-70.56177529113748"><ele>993.0</ele><time>2026-03-24T21:55:50Z</time></trkpt><trkpt lat="-34.225879801071564" lon="-70.56175140372852"><ele>993.0</ele><time>2026-03-24T21:55:51Z</time></trkpt><trkpt lat="-34.225750553416916" lon="-70.56169392253013"><ele>993.0</ele><time>2026-03-24T21:55:52Z</time></trkpt><trkpt lat="-34.225655786642044" lon="-70.56170117180032"><ele>993.0</ele><time>2026-03-24T21:55:53Z</time></trkpt><trkpt lat="-34.22559522390574" lon="-70.56174685313391"><ele>993.0</ele><time>2026-03-24T21:55:54Z</time></trkpt><trkpt lat="-34.225489809874716" lon="-70.56176419683163"><ele>993.0</ele><time>2026-03-24T21:55:55Z</time></trkpt><trkpt lat="-34.22535042958712" lon="-70.56175534211181"><ele>995.4</ele><time>2026-03-24T21:55:56Z</time></trkpt><trkpt lat="-34.22525867474215" lon="-70.56179578382068"><ele>997.8</ele><time>2026-03-24T21:55:57Z</time></trkpt><trkpt lat="-34.22518174165781" lon="-70.56182443409803"><ele>1000.2</ele><time>2026-03-24T21:55:58Z</time></trkpt><trkpt lat="-34.225093837762216" lon="-70.56188862737805"><ele>1002.6</ele><time>2026-03-24T21:55:59Z</time></trkpt><trkpt lat="-34.22504752504636" lon="-70.56195966527766"><ele>1005.0</ele><time>2026-03-24T21:56:00Z</time></trkpt><trkpt lat="-34.224957737273286" lon="-70.56199511434983"><ele>1004.0</ele><time>2026-03-24T21:56:02Z</time></trkpt><trkpt lat="-34.224872156923276" lon="-70.56205658147479"><ele>1003.0</ele><time>2026-03-24T21:56:03Z</time></trkpt><trkpt lat="-34.22473151725256" lon="-70.56209996487924"><ele>1002.0</ele><time>2026-03-24T21:56:04Z</time></trkpt><trkpt lat="-34.224581629101905" lon="-70.56217332902095"><ele>1001.0</ele><time>2026-03-24T21:56:05Z</time></trkpt><trkpt lat="-34.224437106622226" lon="-70.56225160544801"><ele>999.25</ele><time>2026-03-24T21:56:06Z</time></trkpt><trkpt lat="-34.22431236894056" lon="-70.56231800211908"><ele>997.5</ele><time>2026-03-24T21:56:07Z</time></trkpt><trkpt lat="-34.22419780299564" lon="-70.56238537855702"><ele>995.75</ele><time>2026-03-24T21:56:08Z</time></trkpt><trkpt lat="-34.224097250379586" lon="-70.56246205014375"><ele>994.0</ele><time>2026-03-24T21:56:09Z</time></trkpt><trkpt lat="-34.224035346371956" lon="-70.56256108932605"><ele>994.0</ele><time>2026-03-24T21:56:10Z</time></trkpt><trkpt lat="-34.224006031703475" lon="-70.56266935586889"><ele>994.0000000000001</ele><time>2026-03-24T21:56:11Z</time></trkpt><trkpt lat="-34.22400993001141" lon="-70.56280438362094"><ele>994.0000000000001</ele><time>2026-03-24T21:56:12Z</time></trkpt><trkpt lat="-34.22401886354221" lon="-70.56292918588318"><ele>994.0</ele><time>2026-03-24T21:56:13Z</time></trkpt><trkpt lat="-34.224117145651405" lon="-70.56301558117799"><ele>994.0</ele><time>2026-03-24T21:56:14Z</time></trkpt><trkpt lat="-34.22420136907413" lon="-70.56309623736615"><ele>991.8000000000001</ele><time>2026-03-24T21:56:15Z</time></trkpt><trkpt lat="-34.22428162369092" lon="-70.56317631737869"><ele>989.6000000000001</ele><time>2026-03-24T21:56:16Z</time></trkpt><trkpt lat="-34.224349851140175" lon="-70.56327196845795"><ele>987.4</ele><time>2026-03-24T21:56:17Z</time></trkpt><trkpt lat="-34.22439498109492" lon="-70.56339268237356"><ele>985.2</ele><time>2026-03-24T21:56:18Z</time></trkpt><trkpt lat="-34.224440323541444" lon="-70.56352166000707"><ele>983.0</ele><time>2026-03-24T21:56:19Z</time></trkpt><trkpt lat="-34.22449498028504" lon="-70.56367231277305"><ele>982.0</ele><time>2026-03-24T21:56:20Z</time></trkpt><trkpt lat="-34.224595454535894" lon="-70.56381761031241"><ele>981.0</ele><time>2026-03-24T21:56:21Z</time></trkpt><trkpt lat="-34.224701943986574" lon="-70.5639636978462"><ele>980.0</ele><time>2026-03-24T21:56:22Z</time></trkpt><trkpt lat="-34.224813202838476" lon="-70.56414148542727"><ele>980.0</ele><time>2026-03-24T21:56:23Z</time></trkpt><trkpt lat="-34.22492387730402" lon="-70.56430836696593"><ele>980.0</ele><time>2026-03-24T21:56:24Z</time></trkpt><trkpt lat="-34.225028322549385" lon="-70.5644656756116"><ele>980.0</ele><time>2026-03-24T21:56:25Z</time></trkpt><trkpt lat="-34.22513765800106" lon="-70.56462674445139"><ele>974.0</ele><time>2026-03-24T21:56:26Z</time></trkpt><trkpt lat="-34.225268597369514" lon="-70.56478805971993"><ele>968.0</ele><time>2026-03-24T21:56:27Z</time></trkpt><trkpt lat="-34.225383941289245" lon="-70.56495616195892"><ele>962.0</ele><time>2026-03-24T21:56:28Z</time></trkpt><trkpt lat="-34.22548320830502" lon="-70.56511940594936"><ele>962.0</ele><time>2026-03-24T21:56:29Z</time></trkpt><trkpt lat="-34.22557090857651" lon="-70.56524441198324"><ele>962.0</ele><time>2026-03-24T21:56:30Z</time></trkpt><trkpt lat="-34.22563713938142" lon="-70.56533828428495"><ele>962.0</ele><time>2026-03-24T21:56:31Z</time></trkpt><trkpt lat="-34.22568360943101" lon="-70.56540301884161"><ele>962.0</ele><time>2026-03-24T21:56:32Z</time></trkpt><trkpt lat="-34.22573380810876" lon="-70.56547232532479"><ele>962.0</ele><time>2026-03-24T21:56:34Z</time></trkpt><trkpt lat="-34.225779502720336" lon="-70.56554431150677"><ele>960.75</ele><time>2026-03-24T21:56:36Z</time></trkpt><trkpt lat="-34.22601290318241" lon="-70.56538506565126"><ele>959.5</ele><time>2026-03-24T21:56:38Z</time></trkpt><trkpt lat="-34.22606990670357" lon="-70.56533002934157"><ele>958.25</ele><time>2026-03-24T21:56:40Z</time></trkpt><trkpt lat="-34.2261354518542" lon="-70.56527908609587"><ele>957.0</ele><time>2026-03-24T21:56:42Z</time></trkpt><trkpt lat="-34.226156907011415" lon="-70.56519023058966"><ele>959.4000000000001</ele><time>2026-03-24T21:56:44Z</time></trkpt><trkpt lat="-34.226278552091344" lon="-70.56515560009888"><ele>961.8000000000001</ele><time>2026-03-24T21:56:47Z</time></trkpt><trkpt lat="-34.22635445835722" lon="-70.56511264558013"><ele>964.2</ele><time>2026-03-24T21:56:48Z</time></trkpt><trkpt lat="-34.2264005786413" lon="-70.56503362246892"><ele>966.6</ele><time>2026-03-24T21:56:49Z</time></trkpt><trkpt lat="-34.226444255054204" lon="-70.56492620322894"><ele>969.0</ele><time>2026-03-24T21:56:50Z</time></trkpt><trkpt lat="-34.22648053568338" lon="-70.56485076132391"><ele>969.0</ele><time>2026-03-24T21:56:51Z</time></trkpt><trkpt lat="-34.226459955067796" lon="-70.56476145253102"><ele>969.0</ele><time>2026-03-24T21:56:52Z</time></trkpt><trkpt lat="-34.22647240849812" lon="-70.56468518459077"><ele>969.0</ele><time>2026-03-24T21:56:53Z</time></trkpt><trkpt lat="-34.226510171449085" lon="-70.56459740600206"><ele>969.0</ele><time>2026-03-24T21:56:54Z</time></trkpt><trkpt lat="-34.22653596702982" lon="-70.56450664910346"><ele>969.0</ele><time>2026-03-24T21:56:55Z</time></trkpt><trkpt lat="-34.22658318715462" lon="-70.56460742942879"><ele>969.0</ele><time>2026-03-24T21:56:57Z</time></trkpt><trkpt lat="-34.226628886798835" lon="-70.56472004976021"><ele>970.5</ele><time>2026-03-24T21:56:58Z</time></trkpt><trkpt lat="-34.22664426443096" lon="-70.5648165478403"><ele>972.0</ele><time>2026-03-24T21:56:59Z</time></trkpt><trkpt lat="-34.22664722872384" lon="-70.56492042393519"><ele>973.5</ele><time>2026-03-24T21:57:00Z</time></trkpt><trkpt lat="-34.22667928292226" lon="-70.56500175422032"><ele>975.0</ele><time>2026-03-24T21:57:01Z</time></trkpt><trkpt lat="-34.22669581127888" lon="-70.56512297929731"><ele>976.5</ele><time>2026-03-24T21:57:03Z</time></trkpt><trkpt lat="-34.22667260348253" lon="-70.56520991325236"><ele>978.0</ele><time>2026-03-24T21:57:04Z</time></trkpt><trkpt lat="-34.22671354467516" lon="-70.56530466889261"><ele>975.0</ele><time>2026-03-24T21:57:06Z</time></trkpt><trkpt lat="-34.226764117797664" lon="-70.56544724381469"><ele>972.0</ele><time>2026-03-24T21:57:08Z</time></trkpt><trkpt lat="-34.22683969214503" lon="-70.56553326705058"><ele>969.0</ele><time>2026-03-24T21:57:09Z</time></trkpt><trkpt lat="-34.22688701775921" lon="-70.56561806337527"><ele>966.0</ele><time>2026-03-24T21:57:10Z</time></trkpt><trkpt lat="-34.22691893255043" lon="-70.56571758845885"><ele>963.0</ele><time>2026-03-24T21:57:11Z</time></trkpt><trkpt lat="-34.22696154729487" lon="-70.56580551104916"><ele>963.0</ele><time>2026-03-24T21:57:12Z</time></trkpt><trkpt lat="-34.22702398084448" lon="-70.56583640270163"><ele>963.0</ele><time>2026-03-24T21:57:13Z</time></trkpt><trkpt lat="-34.22709490056758" lon="-70.56580941401825"><ele>963.0</ele><time>2026-03-24T21:57:14Z</time></trkpt><trkpt lat="-34.227160457188454" lon="-70.56586026229968"><ele>963.0</ele><time>2026-03-24T21:57:16Z</time></trkpt><trkpt lat="-34.22724507654645" lon="-70.56592791432409"><ele>963.0</ele><time>2026-03-24T21:57:19Z</time></trkpt><trkpt lat="-34.22733257555022" lon="-70.5659350814955"><ele>963.0</ele><time>2026-03-24T21:57:21Z</time></trkpt><trkpt lat="-34.227426292957304" lon="-70.565902727701"><ele>963.3333333333334</ele><time>2026-03-24T21:57:23Z</time></trkpt><trkpt lat="-34.227506977570435" lon="-70.56592401891838"><ele>963.6666666666667</ele><time>2026-03-24T21:57:25Z</time></trkpt><trkpt lat="-34.22751362168099" lon="-70.56604327705747"><ele>964.0</ele><time>2026-03-24T21:57:27Z</time></trkpt><trkpt lat="-34.22752864220518" lon="-70.56612367153326"><ele>964.3333333333334</ele><time>2026-03-24T21:57:29Z</time></trkpt><trkpt lat="-34.22748344352564" lon="-70.56621025461426"><ele>964.6666666666667</ele><time>2026-03-24T21:57:34Z</time></trkpt><trkpt lat="-34.2274347879998" lon="-70.56626603283695"><ele>965.0</ele><time>2026-03-24T21:57:35Z</time></trkpt><trkpt lat="-34.22749554650196" lon="-70.56637342980329"><ele>961.2</ele><time>2026-03-24T21:57:37Z</time></trkpt><trkpt lat="-34.227532724507284" lon="-70.56646232802909"><ele>957.4</ele><time>2026-03-24T21:57:39Z</time></trkpt><trkpt lat="-34.22757142235924" lon="-70.56658262559006"><ele>953.5999999999999</ele><time>2026-03-24T21:57:40Z</time></trkpt><trkpt lat="-34.227652073269184" lon="-70.56665510645496"><ele>949.8</ele><time>2026-03-24T21:57:41Z</time></trkpt><trkpt lat="-34.22770658229679" lon="-70.56677741463028"><ele>946.0</ele><time>2026-03-24T21:57:42Z</time></trkpt><trkpt lat="-34.22778000723002" lon="-70.56689702429408"><ele>944.25</ele><time>2026-03-24T21:57:43Z</time></trkpt><trkpt lat="-34.227865397565616" lon="-70.56704294993818"><ele>942.5</ele><time>2026-03-24T21:57:44Z</time></trkpt><trkpt lat="-34.227956646073906" lon="-70.56716864996345"><ele>940.75</ele><time>2026-03-24T21:57:45Z</time></trkpt><trkpt lat="-34.2280647212899" lon="-70.56724613618073"><ele>939.0</ele><time>2026-03-24T21:57:46Z</time></trkpt><trkpt lat="-34.228155644312615" lon="-70.56731555744935"><ele>938.5</ele><time>2026-03-24T21:57:47Z</time></trkpt><trkpt lat="-34.22825728284837" lon="-70.56739986992781"><ele>938.0</ele><time>2026-03-24T21:57:48Z</time></trkpt><trkpt lat="-34.22835079484852" lon="-70.56754862884043"><ele>937.5</ele><time>2026-03-24T21:57:49Z</time></trkpt><trkpt lat="-34.22847197931783" lon="-70.56769277321433"><ele>937.0</ele><time>2026-03-24T21:57:50Z</time></trkpt><trkpt lat="-34.22854978200124" lon="-70.56778992800183"><ele>936.9999999999999</ele><time>2026-03-24T21:57:51Z</time></trkpt><trkpt lat="-34.228603660833336" lon="-70.56784091279827"><ele>937.0</ele><time>2026-03-24T21:57:52Z</time></trkpt><trkpt lat="-34.22864222550684" lon="-70.56792148766831"><ele>937.0</ele><time>2026-03-24T21:57:53Z</time></trkpt><trkpt lat="-34.22863377925185" lon="-70.56803884910532"><ele>937.0</ele><time>2026-03-24T21:57:54Z</time></trkpt><trkpt lat="-34.228635224760126" lon="-70.56814732404057"><ele>936.9999999999999</ele><time>2026-03-24T21:57:55Z</time></trkpt><trkpt lat="-34.22859565592778" lon="-70.56823486380554"><ele>937.0</ele><time>2026-03-24T21:57:56Z</time></trkpt><trkpt lat="-34.2284566026411" lon="-70.56831695605386"><ele>936.6</ele><time>2026-03-24T21:57:58Z</time></trkpt><trkpt lat="-34.22839423001549" lon="-70.56835734027081"><ele>936.2</ele><time>2026-03-24T21:57:59Z</time></trkpt><trkpt lat="-34.22832435439673" lon="-70.56832735612889"><ele>935.8</ele><time>2026-03-24T21:58:08Z</time></trkpt><trkpt lat="-34.22822266834095" lon="-70.5683780169114"><ele>935.4</ele><time>2026-03-24T21:58:13Z</time></trkpt><trkpt lat="-34.22815110594193" lon="-70.5684145132934"><ele>935.0</ele><time>2026-03-24T21:58:17Z</time></trkpt><trkpt lat="-34.228410863924886" lon="-70.56938699939943"><ele>936.0</ele><time>2026-03-24T21:58:19Z</time></trkpt><trkpt lat="-34.22802349109653" lon="-70.5691010177973"><ele>936.0</ele><time>2026-03-24T21:58:21Z</time></trkpt><trkpt lat="-34.227893245505584" lon="-70.56907902824409"><ele>936.0</ele><time>2026-03-24T21:58:22Z</time></trkpt><trkpt lat="-34.22774741818166" lon="-70.56909649056611"><ele>936.0</ele><time>2026-03-24T21:58:23Z</time></trkpt><trkpt lat="-34.227590310223746" lon="-70.56911843492104"><ele>936.0</ele><time>2026-03-24T21:58:24Z</time></trkpt><trkpt lat="-34.227505408089996" lon="-70.56915054931176"><ele>936.0</ele><time>2026-03-24T21:58:25Z</time></trkpt><trkpt lat="-34.22740409808497" lon="-70.56917579621646"><ele>935.9999999999999</ele><time>2026-03-24T21:58:26Z</time></trkpt><trkpt lat="-34.22731751068463" lon="-70.56920963857483"><ele>935.9999999999999</ele><time>2026-03-24T21:58:27Z</time></trkpt><trkpt lat="-34.22723667126472" lon="-70.56922140896349"><ele>936.0</ele><time>2026-03-24T21:58:28Z</time></trkpt><trkpt lat="-34.22713293739414" lon="-70.56926413475605"><ele>936.0</ele><time>2026-03-24T21:58:29Z</time></trkpt><trkpt lat="-34.227059593620126" lon="-70.56930888175147"><ele>936.5999999999999</ele><time>2026-03-24T21:58:30Z</time></trkpt><trkpt lat="-34.22696987687153" lon="-70.56936772539314"><ele>937.1999999999999</ele><time>2026-03-24T21:58:32Z</time></trkpt><trkpt lat="-34.227002974733615" lon="-70.56927068862488"><ele>937.8000000000001</ele><time>2026-03-24T21:58:37Z</time></trkpt><trkpt lat="-34.22691251606714" lon="-70.569437275287"><ele>938.4000000000001</ele><time>2026-03-24T21:58:41Z</time></trkpt><trkpt lat="-34.226842052650255" lon="-70.56949892038106"><ele>939.0</ele><time>2026-03-24T21:58:42Z</time></trkpt><trkpt lat="-34.22679548967279" lon="-70.56956392761545"><ele>939.0</ele><time>2026-03-24T21:58:43Z</time></trkpt><trkpt lat="-34.22680809924089" lon="-70.56964167301439"><ele>939.0</ele><time>2026-03-24T21:58:45Z</time></trkpt><trkpt lat="-34.226770777720226" lon="-70.56972648434645"><ele>939.0</ele><time>2026-03-24T21:58:48Z</time></trkpt><trkpt lat="-34.226759284554" lon="-70.56981709632619"><ele>939.0</ele><time>2026-03-24T21:58:50Z</time></trkpt><trkpt lat="-34.22670349199405" lon="-70.56986977713518"><ele>939.0</ele><time>2026-03-24T21:58:53Z</time></trkpt><trkpt lat="-34.2266647490643" lon="-70.56999720577559"><ele>939.0</ele><time>2026-03-24T21:58:56Z</time></trkpt><trkpt lat="-34.226679390550224" lon="-70.57011307677395"><ele>939.0</ele><time>2026-03-24T21:58:58Z</time></trkpt><trkpt lat="-34.226720400013015" lon="-70.57020526971682"><ele>939.0</ele><time>2026-03-24T21:58:59Z</time></trkpt><trkpt lat="-34.22670052152969" lon="-70.57034611958689"><ele>939.0</ele><time>2026-03-24T21:59:00Z</time></trkpt><trkpt lat="-34.22669020286814" lon="-70.57042714018685"><ele>939.0</ele><time>2026-03-24T21:59:01Z</time></trkpt><trkpt lat="-34.22668126804537" lon="-70.57050482127032"><ele>939.0</ele><time>2026-03-24T21:59:02Z</time></trkpt><trkpt lat="-34.226648831365" lon="-70.57058824104116"><ele>939.0</ele><time>2026-03-24T21:59:04Z</time></trkpt><trkpt lat="-34.22659825256114" lon="-70.57064409928428"><ele>939.8333333333334</ele><time>2026-03-24T21:59:07Z</time></trkpt><trkpt lat="-34.22652963484937" lon="-70.57073904327747"><ele>940.6666666666667</ele><time>2026-03-24T21:59:09Z</time></trkpt><trkpt lat="-34.226470997548454" lon="-70.57077113322711"><ele>941.5</ele><time>2026-03-24T21:59:10Z</time></trkpt><trkpt lat="-34.226406456710194" lon="-70.57079502881494"><ele>942.3333333333334</ele><time>2026-03-24T21:59:11Z</time></trkpt><trkpt lat="-34.226319510727635" lon="-70.57075524498966"><ele>943.1666666666667</ele><time>2026-03-24T21:59:12Z</time></trkpt><trkpt lat="-34.226226743808176" lon="-70.57072327010431"><ele>944.0</ele><time>2026-03-24T21:59:13Z</time></trkpt><trkpt lat="-34.226148907721665" lon="-70.57073785395674"><ele>944.2</ele><time>2026-03-24T21:59:14Z</time></trkpt><trkpt lat="-34.22607086126046" lon="-70.57077171877474"><ele>944.4000000000001</ele><time>2026-03-24T21:59:15Z</time></trkpt><trkpt lat="-34.22597518308715" lon="-70.57082027545697"><ele>944.6</ele><time>2026-03-24T21:59:17Z</time></trkpt><trkpt lat="-34.22595219024198" lon="-70.57089515897766"><ele>944.8</ele><time>2026-03-24T21:59:18Z</time></trkpt><trkpt lat="-34.22588947283257" lon="-70.57094896697417"><ele>945.0</ele><time>2026-03-24T21:59:19Z</time></trkpt><trkpt lat="-34.22574800947313" lon="-70.5710038788112"><ele>945.5</ele><time>2026-03-24T21:59:20Z</time></trkpt><trkpt lat="-34.225627581313894" lon="-70.5711521127566"><ele>946.0</ele><time>2026-03-24T21:59:21Z</time></trkpt><trkpt lat="-34.22554201450467" lon="-70.57126801867183"><ele>946.5</ele><time>2026-03-24T21:59:22Z</time></trkpt><trkpt lat="-34.22547801394817" lon="-70.57133280202005"><ele>947.0</ele><time>2026-03-24T21:59:23Z</time></trkpt><trkpt lat="-34.2253942443054" lon="-70.57145118393213"><ele>947.2</ele><time>2026-03-24T21:59:25Z</time></trkpt><trkpt lat="-34.22530781885093" lon="-70.57155379248682"><ele>947.4000000000001</ele><time>2026-03-24T21:59:26Z</time></trkpt><trkpt lat="-34.225225497373" lon="-70.57162061619181"><ele>947.5999999999999</ele><time>2026-03-24T21:59:27Z</time></trkpt><trkpt lat="-34.22520288191185" lon="-70.57171618699498"><ele>947.8</ele><time>2026-03-24T21:59:29Z</time></trkpt><trkpt lat="-34.2252435500925" lon="-70.57179929384691"><ele>948.0</ele><time>2026-03-24T21:59:31Z</time></trkpt><trkpt lat="-34.22521672203836" lon="-70.57189306546422"><ele>948.0</ele><time>2026-03-24T21:59:34Z</time></trkpt><trkpt lat="-34.22518199284505" lon="-70.57199775083855"><ele>948.0</ele><time>2026-03-24T21:59:36Z</time></trkpt><trkpt lat="-34.22509441819524" lon="-70.57205855476403"><ele>948.0</ele><time>2026-03-24T21:59:39Z</time></trkpt><trkpt lat="-34.22496337062303" lon="-70.5721381327233"><ele>948.0</ele><time>2026-03-24T21:59:41Z</time></trkpt><trkpt lat="-34.22491220127076" lon="-70.57227251537843"><ele>950.2</ele><time>2026-03-24T21:59:43Z</time></trkpt><trkpt lat="-34.22485187924346" lon="-70.57239759443108"><ele>952.4</ele><time>2026-03-24T21:59:44Z</time></trkpt><trkpt lat="-34.22477147535342" lon="-70.5724568275152"><ele>954.6000000000001</ele><time>2026-03-24T21:59:45Z</time></trkpt><trkpt lat="-34.22479756719575" lon="-70.57257853203495"><ele>956.8000000000001</ele><time>2026-03-24T21:59:47Z</time></trkpt><trkpt lat="-34.224749060625875" lon="-70.57263090876826"><ele>959.0</ele><time>2026-03-24T21:59:50Z</time></trkpt><trkpt lat="-34.22470048207498" lon="-70.57269309064218"><ele>960.25</ele><time>2026-03-24T21:59:52Z</time></trkpt><trkpt lat="-34.22464033285472" lon="-70.57273241212954"><ele>961.5</ele><time>2026-03-24T21:59:54Z</time></trkpt><trkpt lat="-34.22444365422408" lon="-70.57299101623741"><ele>962.75</ele><time>2026-03-24T21:59:56Z</time></trkpt><trkpt lat="-34.224419740934046" lon="-70.57306608817385"><ele>964.0</ele><time>2026-03-24T21:59:57Z</time></trkpt><trkpt lat="-34.22428437853204" lon="-70.57307122917952"><ele>967.6</ele><time>2026-03-24T22:00:01Z</time></trkpt><trkpt lat="-34.22421014244961" lon="-70.57310769008595"><ele>971.2</ele><time>2026-03-24T22:00:02Z</time></trkpt><trkpt lat="-34.224097322994886" lon="-70.57316961536458"><ele>974.8000000000001</ele><time>2026-03-24T22:00:03Z</time></trkpt><trkpt lat="-34.22398065977769" lon="-70.57321365312593"><ele>978.4000000000001</ele><time>2026-03-24T22:00:04Z</time></trkpt><trkpt lat="-34.22386525080238" lon="-70.57321727064785"><ele>982.0</ele><time>2026-03-24T22:00:05Z</time></trkpt><trkpt lat="-34.223690293239564" lon="-70.57321567526614"><ele>982.0</ele><time>2026-03-24T22:00:06Z</time></trkpt><trkpt lat="-34.22354848767756" lon="-70.57319566191316"><ele>982.0</ele><time>2026-03-24T22:00:07Z</time></trkpt><trkpt lat="-34.22334396975729" lon="-70.57316123841954"><ele>982.0</ele><time>2026-03-24T22:00:08Z</time></trkpt><trkpt lat="-34.22314303797616" lon="-70.57310024606163"><ele>983.6666666666666</ele><time>2026-03-24T22:00:09Z</time></trkpt><trkpt lat="-34.22293180942575" lon="-70.57300549643634"><ele>985.3333333333333</ele><time>2026-03-24T22:00:10Z</time></trkpt><trkpt lat="-34.22273981901939" lon="-70.5729071649248"><ele>987.0</ele><time>2026-03-24T22:00:11Z</time></trkpt><trkpt lat="-34.222536957196255" lon="-70.5728191529464"><ele>985.0</ele><time>2026-03-24T22:00:12Z</time></trkpt><trkpt lat="-34.222327942677644" lon="-70.57274013930022"><ele>983.0</ele><time>2026-03-24T22:00:13Z</time></trkpt><trkpt lat="-34.22213376278156" lon="-70.57266078838043"><ele>981.0</ele><time>2026-03-24T22:00:14Z</time></trkpt><trkpt lat="-34.22185662635337" lon="-70.57255030352925"><ele>981.0</ele><time>2026-03-24T22:00:15Z</time></trkpt><trkpt lat="-34.22163682412649" lon="-70.57247000095668"><ele>981.0</ele><time>2026-03-24T22:00:16Z</time></trkpt><trkpt lat="-34.22142628986266" lon="-70.57240091214915"><ele>981.0</ele><time>2026-03-24T22:00:17Z</time></trkpt><trkpt lat="-34.22121399468372" lon="-70.57233847721282"><ele>982.0</ele><time>2026-03-24T22:00:18Z</time></trkpt><trkpt lat="-34.22102883128815" lon="-70.57228504253405"><ele>983.0</ele><time>2026-03-24T22:00:19Z</time></trkpt><trkpt lat="-34.220861604643375" lon="-70.57222542434337"><ele>984.0</ele><time>2026-03-24T22:00:20Z</time></trkpt><trkpt lat="-34.22073771003142" lon="-70.57219332670644"><ele>984.0</ele><time>2026-03-24T22:00:21Z</time></trkpt><trkpt lat="-34.220653520261465" lon="-70.57217452109276"><ele>984.0</ele><time>2026-03-24T22:00:22Z</time></trkpt><trkpt lat="-34.22061294716347" lon="-70.57201625460371"><ele>984.0</ele><time>2026-03-24T22:00:23Z</time></trkpt><trkpt lat="-34.22057960593266" lon="-70.57222732860309"><ele>984.0</ele><time>2026-03-24T22:00:24Z</time></trkpt><trkpt lat="-34.22050186199434" lon="-70.5722710377625"><ele>984.25</ele><time>2026-03-24T22:00:26Z</time></trkpt><trkpt lat="-34.22038356068094" lon="-70.5722730106809"><ele>984.5</ele><time>2026-03-24T22:00:27Z</time></trkpt><trkpt lat="-34.220247164923116" lon="-70.5722584230817"><ele>984.75</ele><time>2026-03-24T22:00:28Z</time></trkpt><trkpt lat="-34.22008827327684" lon="-70.57221996721296"><ele>985.0</ele><time>2026-03-24T22:00:29Z</time></trkpt><trkpt lat="-34.219946259408765" lon="-70.5722614390372"><ele>985.0</ele><time>2026-03-24T22:00:30Z</time></trkpt><trkpt lat="-34.21980051351124" lon="-70.57227611221812"><ele>985.0</ele><time>2026-03-24T22:00:31Z</time></trkpt><trkpt lat="-34.2196853334118" lon="-70.5722877081454"><ele>985.0</ele><time>2026-03-24T22:00:32Z</time></trkpt><trkpt lat="-34.21959307559332" lon="-70.5722969963482"><ele>985.0</ele><time>2026-03-24T22:00:33Z</time></trkpt><trkpt lat="-34.21978609795991" lon="-70.57253556022516"><ele>985.0</ele><time>2026-03-24T22:00:34Z</time></trkpt><trkpt lat="-34.219744255764745" lon="-70.57260511593198"><ele>985.0</ele><time>2026-03-24T22:00:35Z</time></trkpt><trkpt lat="-34.21968131520672" lon="-70.57268372343859"><ele>985.0</ele><time>2026-03-24T22:00:37Z</time></trkpt><trkpt lat="-34.21963444403784" lon="-70.57274226161775"><ele>985.0</ele><time>2026-03-24T22:00:39Z</time></trkpt><trkpt lat="-34.2198918117159" lon="-70.57259854767005"><ele>997.0</ele><time>2026-03-24T22:00:40Z</time></trkpt><trkpt lat="-34.219214034187125" lon="-70.57293510036763"><ele>997.0</ele><time>2026-03-24T22:00:44Z</time></trkpt><trkpt lat="-34.219174867053944" lon="-70.57302689213607"><ele>997.0</ele><time>2026-03-24T22:00:45Z</time></trkpt><trkpt lat="-34.21914420038187" lon="-70.5731428211439"><ele>997.0</ele><time>2026-03-24T22:00:46Z</time></trkpt><trkpt lat="-34.21914491359551" lon="-70.57326198423462"><ele>997.0</ele><time>2026-03-24T22:00:47Z</time></trkpt><trkpt lat="-34.21913208128516" lon="-70.57338827665657"><ele>997.0</ele><time>2026-03-24T22:00:48Z</time></trkpt><trkpt lat="-34.21903787138353" lon="-70.57344921184678"><ele>997.6</ele><time>2026-03-24T22:00:50Z</time></trkpt><trkpt lat="-34.21893977152597" lon="-70.57348115688288"><ele>998.2</ele><time>2026-03-24T22:00:51Z</time></trkpt><trkpt lat="-34.21883180943068" lon="-70.57351714187124"><ele>998.8</ele><time>2026-03-24T22:00:52Z</time></trkpt><trkpt lat="-34.218731533215674" lon="-70.57352516492709"><ele>999.4</ele><time>2026-03-24T22:00:53Z</time></trkpt><trkpt lat="-34.21865251648131" lon="-70.57356644815165"><ele>1000.0</ele><time>2026-03-24T22:00:54Z</time></trkpt><trkpt lat="-34.21855763966529" lon="-70.57363423018604"><ele>999.9999999999999</ele><time>2026-03-24T22:00:55Z</time></trkpt><trkpt lat="-34.21848177082085" lon="-70.57368504685772"><ele>1000.0</ele><time>2026-03-24T22:00:56Z</time></trkpt><trkpt lat="-34.21847691018659" lon="-70.57379729916906"><ele>1000.0</ele><time>2026-03-24T22:00:58Z</time></trkpt><trkpt lat="-34.218489847161585" lon="-70.57387849828906"><ele>1000.0</ele><time>2026-03-24T22:00:59Z</time></trkpt><trkpt lat="-34.2184878797614" lon="-70.57397229992677"><ele>999.9999999999999</ele><time>2026-03-24T22:01:00Z</time></trkpt><trkpt lat="-34.21843288600683" lon="-70.57404391909928"><ele>1000.0</ele><time>2026-03-24T22:01:01Z</time></trkpt><trkpt lat="-34.21835683887369" lon="-70.574116822978"><ele>1002.25</ele><time>2026-03-24T22:01:02Z</time></trkpt><trkpt lat="-34.21829740013561" lon="-70.57421857819962"><ele>1004.5</ele><time>2026-03-24T22:01:03Z</time></trkpt><trkpt lat="-34.21824800988176" lon="-70.57435675263885"><ele>1006.75</ele><time>2026-03-24T22:01:04Z</time></trkpt><trkpt lat="-34.21818637848654" lon="-70.57453782406972"><ele>1009.0</ele><time>2026-03-24T22:01:05Z</time></trkpt><trkpt lat="-34.21816134730879" lon="-70.57470410786243"><ele>1009.4000000000001</ele><time>2026-03-24T22:01:06Z</time></trkpt><trkpt lat="-34.218149450873874" lon="-70.57484513562247"><ele>1009.8000000000001</ele><time>2026-03-24T22:01:07Z</time></trkpt><trkpt lat="-34.21813746397426" lon="-70.57498903974016"><ele>1010.1999999999999</ele><time>2026-03-24T22:01:08Z</time></trkpt><trkpt lat="-34.218108019149035" lon="-70.57513959612261"><ele>1010.5999999999999</ele><time>2026-03-24T22:01:09Z</time></trkpt><trkpt lat="-34.218062861737586" lon="-70.5752184041805"><ele>1011.0</ele><time>2026-03-24T22:01:10Z</time></trkpt><trkpt lat="-34.21797700285738" lon="-70.57527877321427"><ele>1011.0</ele><time>2026-03-24T22:01:11Z</time></trkpt><trkpt lat="-34.217871094779944" lon="-70.57529030005722"><ele>1010.9999999999999</ele><time>2026-03-24T22:01:12Z</time></trkpt><trkpt lat="-34.21774347108035" lon="-70.57524457781038"><ele>1010.9999999999999</ele><time>2026-03-24T22:01:13Z</time></trkpt><trkpt lat="-34.217635169480836" lon="-70.5752401830044"><ele>1011.0</ele><time>2026-03-24T22:01:14Z</time></trkpt><trkpt lat="-34.217568748432846" lon="-70.57529926569886"><ele>1011.0</ele><time>2026-03-24T22:01:15Z</time></trkpt><trkpt lat="-34.217531904286005" lon="-70.5753913755242"><ele>1012.75</ele><time>2026-03-24T22:01:16Z</time></trkpt><trkpt lat="-34.217466128679796" lon="-70.57550272343427"><ele>1014.5</ele><time>2026-03-24T22:01:17Z</time></trkpt><trkpt lat="-34.21734301016194" lon="-70.57559423997559"><ele>1016.25</ele><time>2026-03-24T22:01:18Z</time></trkpt><trkpt lat="-34.21719295990679" lon="-70.5757235498321"><ele>1018.0</ele><time>2026-03-24T22:01:19Z</time></trkpt><trkpt lat="-34.21707821262913" lon="-70.57581321567085"><ele>1018.25</ele><time>2026-03-24T22:01:20Z</time></trkpt><trkpt lat="-34.2170295208962" lon="-70.57588267762091"><ele>1018.5</ele><time>2026-03-24T22:01:21Z</time></trkpt><trkpt lat="-34.21696740053297" lon="-70.57602262052187"><ele>1018.75</ele><time>2026-03-24T22:01:22Z</time></trkpt><trkpt lat="-34.216893026499875" lon="-70.57616310752333"><ele>1019.0</ele><time>2026-03-24T22:01:23Z</time></trkpt><trkpt lat="-34.216824346497226" lon="-70.57627613576845"><ele>1019.8000000000001</ele><time>2026-03-24T22:01:24Z</time></trkpt><trkpt lat="-34.21682617305595" lon="-70.57638347068924"><ele>1020.6000000000001</ele><time>2026-03-24T22:01:25Z</time></trkpt><trkpt lat="-34.21682087134194" lon="-70.57652975113044"><ele>1021.4</ele><time>2026-03-24T22:01:26Z</time></trkpt><trkpt lat="-34.21677390175102" lon="-70.57667385330045"><ele>1022.2</ele><time>2026-03-24T22:01:27Z</time></trkpt><trkpt lat="-34.216720229102144" lon="-70.57677986410656"><ele>1023.0</ele><time>2026-03-24T22:01:28Z</time></trkpt><trkpt lat="-34.216732437501356" lon="-70.5768629283039"><ele>1023.0</ele><time>2026-03-24T22:01:29Z</time></trkpt><trkpt lat="-34.216761955644934" lon="-70.57693304672429"><ele>1023.0</ele><time>2026-03-24T22:01:31Z</time></trkpt><trkpt lat="-34.216748047209606" lon="-70.57699766066614"><ele>1023.0</ele><time>2026-03-24T22:04:10Z</time></trkpt><trkpt lat="-34.216813145506784" lon="-70.57706425070299"><ele>1023.0</ele><time>2026-03-24T22:04:11Z</time></trkpt><trkpt lat="-34.2169020599997" lon="-70.57713619718473"><ele>1023.0</ele><time>2026-03-24T22:04:12Z</time></trkpt><trkpt lat="-34.216994080113906" lon="-70.57725241986265"><ele>1023.0</ele><time>2026-03-24T22:04:13Z</time></trkpt><trkpt lat="-34.2170615724718" lon="-70.57736118818785"><ele>1024.6</ele><time>2026-03-24T22:04:14Z</time></trkpt><trkpt lat="-34.21710703619403" lon="-70.57747774183315"><ele>1026.1999999999998</ele><time>2026-03-24T22:04:15Z</time></trkpt><trkpt lat="-34.21711008110294" lon="-70.57763055906743"><ele>1027.8</ele><time>2026-03-24T22:04:16Z</time></trkpt><trkpt lat="-34.217108759719444" lon="-70.5777598584842"><ele>1029.3999999999999</ele><time>2026-03-24T22:04:17Z</time></trkpt><trkpt lat="-34.21708374654455" lon="-70.57787438186517"><ele>1031.0</ele><time>2026-03-24T22:04:18Z</time></trkpt><trkpt lat="-34.217099720194234" lon="-70.57799366389033"><ele>1032.3999999999999</ele><time>2026-03-24T22:04:19Z</time></trkpt><trkpt lat="-34.21711346471004" lon="-70.57810130385367"><ele>1033.8</ele><time>2026-03-24T22:04:20Z</time></trkpt><trkpt lat="-34.21708383923697" lon="-70.57819405842608"><ele>1035.1999999999998</ele><time>2026-03-24T22:04:21Z</time></trkpt><trkpt lat="-34.21705688194627" lon="-70.57834537148797"><ele>1036.6</ele><time>2026-03-24T22:04:23Z</time></trkpt><trkpt lat="-34.21708728157949" lon="-70.57844830578732"><ele>1038.0</ele><time>2026-03-24T22:04:24Z</time></trkpt><trkpt lat="-34.21715167612395" lon="-70.57854060390925"><ele>1038.0</ele><time>2026-03-24T22:04:25Z</time></trkpt><trkpt lat="-34.2172084536086" lon="-70.57863669995072"><ele>1038.0</ele><time>2026-03-24T22:04:26Z</time></trkpt><trkpt lat="-34.217241692355465" lon="-70.57872232817064"><ele>1038.0</ele><time>2026-03-24T22:04:27Z</time></trkpt><trkpt lat="-34.2172191112783" lon="-70.57880952539202"><ele>1038.0</ele><time>2026-03-24T22:04:28Z</time></trkpt><trkpt lat="-34.21727203792737" lon="-70.57890461763073"><ele>1038.0</ele><time>2026-03-24T22:04:30Z</time></trkpt><trkpt lat="-34.21735969298448" lon="-70.57891792044052"><ele>1038.0</ele><time>2026-03-24T22:04:32Z</time></trkpt><trkpt lat="-34.21742364128453" lon="-70.5788698777276"><ele>1042.5</ele><time>2026-03-24T22:04:34Z</time></trkpt><trkpt lat="-34.21750587604885" lon="-70.57885683412975"><ele>1047.0</ele><time>2026-03-24T22:04:36Z</time></trkpt><trkpt lat="-34.21757226071846" lon="-70.57885073358506"><ele>1051.5</ele><time>2026-03-24T22:04:37Z</time></trkpt><trkpt lat="-34.21768280581793" lon="-70.5788656440053"><ele>1056.0</ele><time>2026-03-24T22:04:39Z</time></trkpt><trkpt lat="-34.21776630286436" lon="-70.57884700907708"><ele>1060.5</ele><time>2026-03-24T22:04:41Z</time></trkpt><trkpt lat="-34.21784430439918" lon="-70.57887446391207"><ele>1065.0</ele><time>2026-03-24T22:04:44Z</time></trkpt><trkpt lat="-34.2179103370754" lon="-70.57892574181619"><ele>1065.0</ele><time>2026-03-24T22:04:46Z</time></trkpt><trkpt lat="-34.217936059001566" lon="-70.57901787190872"><ele>1065.0</ele><time>2026-03-24T22:04:49Z</time></trkpt><trkpt lat="-34.21798643878024" lon="-70.57908228716026"><ele>1065.0</ele><time>2026-03-24T22:04:51Z</time></trkpt><trkpt lat="-34.218060888715996" lon="-70.57911813271079"><ele>1065.0</ele><time>2026-03-24T22:04:53Z</time></trkpt><trkpt lat="-34.21815338352481" lon="-70.57917965059352"><ele>1065.0</ele><time>2026-03-24T22:04:55Z</time></trkpt><trkpt lat="-34.21824319006582" lon="-70.57925021545559"><ele>1065.0</ele><time>2026-03-24T22:04:57Z</time></trkpt><trkpt lat="-34.21829448075028" lon="-70.5793041264415"><ele>1068.2</ele><time>2026-03-24T22:04:58Z</time></trkpt><trkpt lat="-34.218364415108425" lon="-70.57933714013404"><ele>1071.4</ele><time>2026-03-24T22:04:59Z</time></trkpt><trkpt lat="-34.21843295276604" lon="-70.57938975173761"><ele>1074.6</ele><time>2026-03-24T22:05:00Z</time></trkpt><trkpt lat="-34.21846883571017" lon="-70.57948140593074"><ele>1077.8</ele><time>2026-03-24T22:05:01Z</time></trkpt><trkpt lat="-34.21850308580418" lon="-70.57959798662674"><ele>1081.0</ele><time>2026-03-24T22:05:02Z</time></trkpt><trkpt lat="-34.218533710897326" lon="-70.5797258461054"><ele>1084.1666666666665</ele><time>2026-03-24T22:05:03Z</time></trkpt><trkpt lat="-34.2185791891689" lon="-70.5798111175598"><ele>1087.3333333333333</ele><time>2026-03-24T22:05:04Z</time></trkpt><trkpt lat="-34.218646825788575" lon="-70.57983312101113"><ele>1090.5</ele><time>2026-03-24T22:05:05Z</time></trkpt><trkpt lat="-34.21873617827555" lon="-70.57981444197691"><ele>1093.6666666666667</ele><time>2026-03-24T22:05:06Z</time></trkpt><trkpt lat="-34.21880356330727" lon="-70.57984686268694"><ele>1096.8333333333335</ele><time>2026-03-24T22:05:08Z</time></trkpt><trkpt lat="-34.218778405356574" lon="-70.57997440655308"><ele>1100.0</ele><time>2026-03-24T22:05:10Z</time></trkpt><trkpt lat="-34.218777960254236" lon="-70.5800790642594"><ele>1100.0</ele><time>2026-03-24T22:05:12Z</time></trkpt><trkpt lat="-34.218811909746535" lon="-70.58015737780835"><ele>1100.0</ele><time>2026-03-24T22:05:14Z</time></trkpt><trkpt lat="-34.21885030920908" lon="-70.58024335134955"><ele>1100.0</ele><time>2026-03-24T22:05:16Z</time></trkpt><trkpt lat="-34.21887420518261" lon="-70.58034304942147"><ele>1100.0</ele><time>2026-03-24T22:05:19Z</time></trkpt><trkpt lat="-34.218941938939764" lon="-70.58038767302114"><ele>1100.0</ele><time>2026-03-24T22:05:22Z</time></trkpt><trkpt lat="-34.2190078144563" lon="-70.58044109018682"><ele>1100.0</ele><time>2026-03-24T22:05:25Z</time></trkpt><trkpt lat="-34.21908339762328" lon="-70.58049488579778"><ele>1105.1666666666667</ele><time>2026-03-24T22:05:27Z</time></trkpt><trkpt lat="-34.219169632171834" lon="-70.58054023673131"><ele>1110.3333333333335</ele><time>2026-03-24T22:05:30Z</time></trkpt><trkpt lat="-34.21919375385207" lon="-70.5806289868749"><ele>1115.5</ele><time>2026-03-24T22:05:32Z</time></trkpt><trkpt lat="-34.21913964282921" lon="-70.58068937211875"><ele>1120.6666666666667</ele><time>2026-03-24T22:05:34Z</time></trkpt><trkpt lat="-34.21913900930609" lon="-70.5807773628361"><ele>1125.8333333333333</ele><time>2026-03-24T22:05:36Z</time></trkpt><trkpt lat="-34.21921508709227" lon="-70.58082162119202"><ele>1131.0</ele><time>2026-03-24T22:05:39Z</time></trkpt><trkpt lat="-34.21924188765111" lon="-70.58089507456911"><ele>1131.0</ele><time>2026-03-24T22:05:43Z</time></trkpt><trkpt lat="-34.21924083816513" lon="-70.58098200830038"><ele>1131.0</ele><time>2026-03-24T22:05:46Z</time></trkpt><trkpt lat="-34.21929943679332" lon="-70.58105619275946"><ele>1131.0</ele><time>2026-03-24T22:05:48Z</time></trkpt><trkpt lat="-34.21935019549612" lon="-70.58116728641626"><ele>1131.0</ele><time>2026-03-24T22:05:50Z</time></trkpt><trkpt lat="-34.21938563402653" lon="-70.581246110623"><ele>1131.0</ele><time>2026-03-24T22:05:51Z</time></trkpt><trkpt lat="-34.21942483414427" lon="-70.58131314325"><ele>1131.0</ele><time>2026-03-24T22:05:52Z</time></trkpt><trkpt lat="-34.219437933592864" lon="-70.5814422907225"><ele>1136.2</ele><time>2026-03-24T22:05:53.999Z</time></trkpt><trkpt lat="-34.219458962979246" lon="-70.58154009680491"><ele>1141.3999999999999</ele><time>2026-03-24T22:05:56Z</time></trkpt><trkpt lat="-34.21939405363317" lon="-70.5816033861079"><ele>1146.6</ele><time>2026-03-24T22:05:58Z</time></trkpt><trkpt lat="-34.21934582678125" lon="-70.58171037366363"><ele>1151.8</ele><time>2026-03-24T22:06:00Z</time></trkpt><trkpt lat="-34.21929203344884" lon="-70.58181283248145"><ele>1157.0</ele><time>2026-03-24T22:06:02Z</time></trkpt><trkpt lat="-34.219243440892846" lon="-70.58190553757657"><ele>1158.8</ele><time>2026-03-24T22:06:04Z</time></trkpt><trkpt lat="-34.219205188146965" lon="-70.58203560224145"><ele>1160.6</ele><time>2026-03-24T22:06:06Z</time></trkpt><trkpt lat="-34.21916328646576" lon="-70.58212497003072"><ele>1162.3999999999999</ele><time>2026-03-24T22:06:07Z</time></trkpt><trkpt lat="-34.21913695795508" lon="-70.58220385395467"><ele>1164.2</ele><time>2026-03-24T22:06:08Z</time></trkpt><trkpt lat="-34.21913303701462" lon="-70.58228460938096"><ele>1166.0</ele><time>2026-03-24T22:06:09Z</time></trkpt><trkpt lat="-34.21921562342485" lon="-70.58239360024932"><ele>1166.0</ele><time>2026-03-24T22:06:11Z</time></trkpt><trkpt lat="-34.21928413898938" lon="-70.58247250259056"><ele>1166.0</ele><time>2026-03-24T22:06:12Z</time></trkpt><trkpt lat="-34.219354696744965" lon="-70.5825433022213"><ele>1166.0</ele><time>2026-03-24T22:06:13Z</time></trkpt><trkpt lat="-34.21946517890137" lon="-70.58260619006255"><ele>1166.0</ele><time>2026-03-24T22:06:14Z</time></trkpt><trkpt lat="-34.219538071942715" lon="-70.5826759580172"><ele>1166.0</ele><time>2026-03-24T22:06:15Z</time></trkpt><trkpt lat="-34.219593416071916" lon="-70.582744823283"><ele>1166.0</ele><time>2026-03-24T22:06:17Z</time></trkpt><trkpt lat="-34.21967617099518" lon="-70.58280250282472"><ele>1166.0</ele><time>2026-03-24T22:06:18Z</time></trkpt><trkpt lat="-34.21977150188603" lon="-70.58285857833663"><ele>1166.0</ele><time>2026-03-24T22:06:19Z</time></trkpt><trkpt lat="-34.219846786738444" lon="-70.58290988509685"><ele>1166.0</ele><time>2026-03-24T22:06:20Z</time></trkpt><trkpt lat="-34.21988859794609" lon="-70.58300609963374"><ele>1166.0</ele><time>2026-03-24T22:06:22Z</time></trkpt><trkpt lat="-34.219956781453995" lon="-70.58302719033708"><ele>1166.0</ele><time>2026-03-24T22:06:23Z</time></trkpt><trkpt lat="-34.22003279025311" lon="-70.58306247499353"><ele>1165.3333333333335</ele><time>2026-03-24T22:06:24Z</time></trkpt><trkpt lat="-34.22008849471856" lon="-70.5830989659613"><ele>1164.6666666666667</ele><time>2026-03-24T22:06:25Z</time></trkpt><trkpt lat="-34.220157985504365" lon="-70.58312436349142"><ele>1164.0</ele><time>2026-03-24T22:06:26Z</time></trkpt><trkpt lat="-34.22027001761448" lon="-70.58314764871807"><ele>1163.3333333333333</ele><time>2026-03-24T22:06:27Z</time></trkpt><trkpt lat="-34.22035870057214" lon="-70.58319492850362"><ele>1162.6666666666665</ele><time>2026-03-24T22:06:28Z</time></trkpt><trkpt lat="-34.220420848030294" lon="-70.58326853309289"><ele>1162.0</ele><time>2026-03-24T22:06:29Z</time></trkpt><trkpt lat="-34.22044954439352" lon="-70.5833912435566"><ele>1162.0</ele><time>2026-03-24T22:06:30Z</time></trkpt><trkpt lat="-34.22046467138853" lon="-70.58346522575283"><ele>1162.0</ele><time>2026-03-24T22:06:31Z</time></trkpt><trkpt lat="-34.220530902108" lon="-70.58348916855806"><ele>1162.0</ele><time>2026-03-24T22:06:32Z</time></trkpt><trkpt lat="-34.22061180967116" lon="-70.58354401279209"><ele>1162.0</ele><time>2026-03-24T22:06:33Z</time></trkpt><trkpt lat="-34.2206796123686" lon="-70.58357487209223"><ele>1162.0</ele><time>2026-03-24T22:06:34Z</time></trkpt><trkpt lat="-34.22081477300861" lon="-70.58361550534534"><ele>1162.0</ele><time>2026-03-24T22:06:36Z</time></trkpt><trkpt lat="-34.220888777140274" lon="-70.5836482654343"><ele>1167.4</ele><time>2026-03-24T22:06:37Z</time></trkpt><trkpt lat="-34.22095338367856" lon="-70.5837042265094"><ele>1172.8000000000002</ele><time>2026-03-24T22:06:38Z</time></trkpt><trkpt lat="-34.22105312192228" lon="-70.58372735737296"><ele>1178.2</ele><time>2026-03-24T22:06:40Z</time></trkpt><trkpt lat="-34.22115353640552" lon="-70.58380357767281"><ele>1183.6000000000001</ele><time>2026-03-24T22:06:42Z</time></trkpt><trkpt lat="-34.22121247653085" lon="-70.58383895913873"><ele>1189.0</ele><time>2026-03-24T22:06:43Z</time></trkpt><trkpt lat="-34.22129356748836" lon="-70.58389820673423"><ele>1189.0</ele><time>2026-03-24T22:06:45Z</time></trkpt><trkpt lat="-34.221345918143925" lon="-70.5839629071822"><ele>1189.0</ele><time>2026-03-24T22:06:46Z</time></trkpt><trkpt lat="-34.22138153890118" lon="-70.58402997113787"><ele>1189.0</ele><time>2026-03-24T22:06:47Z</time></trkpt><trkpt lat="-34.22140938075592" lon="-70.58409986892141"><ele>1189.0</ele><time>2026-03-24T22:06:48Z</time></trkpt><trkpt lat="-34.22150141844445" lon="-70.58416104531189"><ele>1189.0</ele><time>2026-03-24T22:06:50Z</time></trkpt><trkpt lat="-34.221553801500114" lon="-70.58420454285852"><ele>1189.0</ele><time>2026-03-24T22:06:51Z</time></trkpt><trkpt lat="-34.221605079884135" lon="-70.5843250888628"><ele>1191.8333333333333</ele><time>2026-03-24T22:06:53Z</time></trkpt><trkpt lat="-34.221649704577274" lon="-70.58444756200477"><ele>1194.6666666666665</ele><time>2026-03-24T22:06:55Z</time></trkpt><trkpt lat="-34.22167646162971" lon="-70.584543298274"><ele>1197.5</ele><time>2026-03-24T22:06:57Z</time></trkpt><trkpt lat="-34.22169687050067" lon="-70.58461896301849"><ele>1200.3333333333333</ele><time>2026-03-24T22:06:59Z</time></trkpt><trkpt lat="-34.221692989126794" lon="-70.5847112616559"><ele>1203.1666666666667</ele><time>2026-03-24T22:07:01Z</time></trkpt><trkpt lat="-34.221723280629796" lon="-70.58480064830027"><ele>1206.0</ele><time>2026-03-24T22:07:03Z</time></trkpt><trkpt lat="-34.22179088359687" lon="-70.584859375914"><ele>1209.3999999999999</ele><time>2026-03-24T22:07:05Z</time></trkpt><trkpt lat="-34.22185105204529" lon="-70.58490923060094"><ele>1212.8</ele><time>2026-03-24T22:07:06Z</time></trkpt><trkpt lat="-34.2219023663595" lon="-70.5849897164103"><ele>1216.1999999999998</ele><time>2026-03-24T22:07:08Z</time></trkpt><trkpt lat="-34.221946094780144" lon="-70.58509129409609"><ele>1219.6</ele><time>2026-03-24T22:07:10Z</time></trkpt><trkpt lat="-34.222034547734246" lon="-70.58512250262481"><ele>1223.0</ele><time>2026-03-24T22:07:12Z</time></trkpt><trkpt lat="-34.22214024435436" lon="-70.58507273250316"><ele>1223.0</ele><time>2026-03-24T22:07:14Z</time></trkpt><trkpt lat="-34.22222062013255" lon="-70.58505950475814"><ele>1223.0</ele><time>2026-03-24T22:07:16Z</time></trkpt><trkpt lat="-34.22228261056317" lon="-70.5850863364278"><ele>1223.0</ele><time>2026-03-24T22:07:17Z</time></trkpt><trkpt lat="-34.2223569203719" lon="-70.58515705686501"><ele>1223.0</ele><time>2026-03-24T22:07:19Z</time></trkpt><trkpt lat="-34.22242551220659" lon="-70.58519990196204"><ele>1223.0</ele><time>2026-03-24T22:07:21Z</time></trkpt><trkpt lat="-34.22250136015607" lon="-70.58529473040988"><ele>1223.0</ele><time>2026-03-24T22:07:23Z</time></trkpt><trkpt lat="-34.222538403689164" lon="-70.58535791044044"><ele>1226.0</ele><time>2026-03-24T22:07:24Z</time></trkpt><trkpt lat="-34.222630131536334" lon="-70.5854537130751"><ele>1229.0</ele><time>2026-03-24T22:07:26Z</time></trkpt><trkpt lat="-34.22268121504775" lon="-70.58549923646403"><ele>1232.0</ele><time>2026-03-24T22:07:27Z</time></trkpt><trkpt lat="-34.222731774412594" lon="-70.58556192355152"><ele>1235.0</ele><time>2026-03-24T22:07:28Z</time></trkpt><trkpt lat="-34.22277289422777" lon="-70.5856349718601"><ele>1238.0</ele><time>2026-03-24T22:07:29Z</time></trkpt><trkpt lat="-34.22281992017918" lon="-70.58570839920763"><ele>1241.0</ele><time>2026-03-24T22:07:31Z</time></trkpt><trkpt lat="-34.22287898519149" lon="-70.58577926936263"><ele>1241.0</ele><time>2026-03-24T22:07:33Z</time></trkpt><trkpt lat="-34.22292617613242" lon="-70.58586386656096"><ele>1241.0</ele><time>2026-03-24T22:07:36Z</time></trkpt><trkpt lat="-34.222988387705364" lon="-70.5859512677745"><ele>1241.0</ele><time>2026-03-24T22:07:38Z</time></trkpt><trkpt lat="-34.223054876538015" lon="-70.58602377704774"><ele>1241.0</ele><time>2026-03-24T22:07:40Z</time></trkpt><trkpt lat="-34.22313449833668" lon="-70.58608007666774"><ele>1241.0</ele><time>2026-03-24T22:07:42Z</time></trkpt><trkpt lat="-34.22321332486297" lon="-70.58612127555115"><ele>1241.0</ele><time>2026-03-24T22:07:44Z</time></trkpt><trkpt lat="-34.22323244117987" lon="-70.58620761331346"><ele>1247.5</ele><time>2026-03-24T22:07:45Z</time></trkpt><trkpt lat="-34.22328643312183" lon="-70.58625629682417"><ele>1254.0</ele><time>2026-03-24T22:07:47Z</time></trkpt><trkpt lat="-34.223354827793976" lon="-70.58632445698576"><ele>1260.5</ele><time>2026-03-24T22:07:49Z</time></trkpt><trkpt lat="-34.22342582401038" lon="-70.58642999177226"><ele>1267.0</ele><time>2026-03-24T22:07:51Z</time></trkpt><trkpt lat="-34.223446407360605" lon="-70.58653171115418"><ele>1273.5</ele><time>2026-03-24T22:07:53Z</time></trkpt><trkpt lat="-34.22349868284692" lon="-70.58657436017663"><ele>1280.0</ele><time>2026-03-24T22:07:54Z</time></trkpt><trkpt lat="-34.22358832305188" lon="-70.58663274156909"><ele>1280.0</ele><time>2026-03-24T22:07:56Z</time></trkpt><trkpt lat="-34.22368203628932" lon="-70.58672460510044"><ele>1280.0</ele><time>2026-03-24T22:07:58Z</time></trkpt><trkpt lat="-34.22374285249213" lon="-70.58679000657249"><ele>1280.0</ele><time>2026-03-24T22:08:00Z</time></trkpt><trkpt lat="-34.22379494096455" lon="-70.58689009205628"><ele>1280.0</ele><time>2026-03-24T22:08:02Z</time></trkpt><trkpt lat="-34.22386260367933" lon="-70.58700220043407"><ele>1280.0</ele><time>2026-03-24T22:08:04Z</time></trkpt><trkpt lat="-34.223926735923534" lon="-70.58704258100083"><ele>1284.5</ele><time>2026-03-24T22:08:05Z</time></trkpt><trkpt lat="-34.22399113638259" lon="-70.58706135658699"><ele>1289.0</ele><time>2026-03-24T22:08:06Z</time></trkpt><trkpt lat="-34.22402855273757" lon="-70.58712334913524"><ele>1293.5</ele><time>2026-03-24T22:08:07Z</time></trkpt><trkpt lat="-34.22406731212233" lon="-70.58720191428345"><ele>1298.0</ele><time>2026-03-24T22:08:08Z</time></trkpt><trkpt lat="-34.22412517983966" lon="-70.58728929391252"><ele>1302.5</ele><time>2026-03-24T22:08:09Z</time></trkpt><trkpt lat="-34.224185615721666" lon="-70.58735295200137"><ele>1307.0</ele><time>2026-03-24T22:08:10Z</time></trkpt><trkpt lat="-34.224280106308726" lon="-70.58739831375732"><ele>1307.0</ele><time>2026-03-24T22:08:12Z</time></trkpt><trkpt lat="-34.224325857733106" lon="-70.58746002892876"><ele>1307.0</ele><time>2026-03-24T22:08:13Z</time></trkpt><trkpt lat="-34.224398186453456" lon="-70.58752605309992"><ele>1307.0</ele><time>2026-03-24T22:08:14Z</time></trkpt><trkpt lat="-34.224481822226" lon="-70.58758112130546"><ele>1307.0</ele><time>2026-03-24T22:08:15Z</time></trkpt><trkpt lat="-34.22455208227902" lon="-70.58766085991412"><ele>1307.0</ele><time>2026-03-24T22:08:16Z</time></trkpt><trkpt lat="-34.22458398751106" lon="-70.58776419746982"><ele>1307.0</ele><time>2026-03-24T22:08:17Z</time></trkpt><trkpt lat="-34.224619925844365" lon="-70.58783483804969"><ele>1307.0</ele><time>2026-03-24T22:08:18Z</time></trkpt><trkpt lat="-34.224732424001324" lon="-70.5878453880818"><ele>1307.0</ele><time>2026-03-24T22:08:20Z</time></trkpt><trkpt lat="-34.22480253018198" lon="-70.58782539380364"><ele>1307.0</ele><time>2026-03-24T22:08:21Z</time></trkpt><trkpt lat="-34.22485494058426" lon="-70.58788228744807"><ele>1307.0</ele><time>2026-03-24T22:08:22Z</time></trkpt><trkpt lat="-34.2249485437737" lon="-70.58796023224858"><ele>1307.0</ele><time>2026-03-24T22:08:24Z</time></trkpt><trkpt lat="-34.22500439560667" lon="-70.58801615544014"><ele>1307.0</ele><time>2026-03-24T22:08:26Z</time></trkpt><trkpt lat="-34.22508392764851" lon="-70.58804071155559"><ele>1314.1666666666667</ele><time>2026-03-24T22:08:29Z</time></trkpt><trkpt lat="-34.22517013953767" lon="-70.58808513934419"><ele>1321.3333333333335</ele><time>2026-03-24T22:08:31Z</time></trkpt><trkpt lat="-34.225220850318564" lon="-70.58814658765348"><ele>1328.5</ele><time>2026-03-24T22:08:32Z</time></trkpt><trkpt lat="-34.22527684275322" lon="-70.5881842282428"><ele>1335.6666666666667</ele><time>2026-03-24T22:08:33Z</time></trkpt><trkpt lat="-34.22536452576425" lon="-70.58823310428957"><ele>1342.8333333333333</ele><time>2026-03-24T22:08:35Z</time></trkpt><trkpt lat="-34.22534354938329" lon="-70.58836566033166"><ele>1350.0</ele><time>2026-03-24T22:08:37Z</time></trkpt><trkpt lat="-34.22536987220382" lon="-70.58845450824828"><ele>1350.0</ele><time>2026-03-24T22:08:39Z</time></trkpt><trkpt lat="-34.22543111777464" lon="-70.58847698714234"><ele>1350.0</ele><time>2026-03-24T22:08:40Z</time></trkpt><trkpt lat="-34.22545538160971" lon="-70.58856880912235"><ele>1350.0</ele><time>2026-03-24T22:08:42Z</time></trkpt><trkpt lat="-34.22541094197455" lon="-70.58869348469051"><ele>1350.0</ele><time>2026-03-24T22:08:44Z</time></trkpt><trkpt lat="-34.225350250263006" lon="-70.58876644779693"><ele>1350.0</ele><time>2026-03-24T22:08:45Z</time></trkpt><trkpt lat="-34.225320412381706" lon="-70.58884402326757"><ele>1350.0</ele><time>2026-03-24T22:08:46Z</time></trkpt><trkpt lat="-34.22532587703869" lon="-70.58892988487668"><ele>1351.2</ele><time>2026-03-24T22:08:48Z</time></trkpt><trkpt lat="-34.22537533675619" lon="-70.5890652499986"><ele>1352.4</ele><time>2026-03-24T22:08:50Z</time></trkpt><trkpt lat="-34.22543110403856" lon="-70.58910876708772"><ele>1353.6</ele><time>2026-03-24T22:08:51Z</time></trkpt><trkpt lat="-34.225514385557396" lon="-70.58918288882603"><ele>1354.8</ele><time>2026-03-24T22:08:52Z</time></trkpt><trkpt lat="-34.22561837049497" lon="-70.58925905276871"><ele>1356.0</ele><time>2026-03-24T22:08:53Z</time></trkpt><trkpt lat="-34.22569666355359" lon="-70.58932271634902"><ele>1356.5</ele><time>2026-03-24T22:08:54Z</time></trkpt><trkpt lat="-34.225767455261646" lon="-70.58933671856448"><ele>1357.0</ele><time>2026-03-24T22:08:56Z</time></trkpt><trkpt lat="-34.22580118657389" lon="-70.58943856784659"><ele>1357.5</ele><time>2026-03-24T22:08:58Z</time></trkpt><trkpt lat="-34.2258274384048" lon="-70.58953521695048"><ele>1358.0</ele><time>2026-03-24T22:08:59Z</time></trkpt><trkpt lat="-34.22581740695262" lon="-70.58961078108413"><ele>1358.5</ele><time>2026-03-24T22:09:02Z</time></trkpt><trkpt lat="-34.22582741427672" lon="-70.5897173076687"><ele>1359.0</ele><time>2026-03-24T22:09:04Z</time></trkpt><trkpt lat="-34.22581975046648" lon="-70.58981091824063"><ele>1357.8000000000002</ele><time>2026-03-24T22:09:05Z</time></trkpt><trkpt lat="-34.22576137779664" lon="-70.58987055860358"><ele>1356.6000000000001</ele><time>2026-03-24T22:09:07Z</time></trkpt><trkpt lat="-34.22570076078264" lon="-70.5899336064105"><ele>1355.4</ele><time>2026-03-24T22:09:08Z</time></trkpt><trkpt lat="-34.22566099877289" lon="-70.59001179869216"><ele>1354.2</ele><time>2026-03-24T22:09:09Z</time></trkpt><trkpt lat="-34.22557812651936" lon="-70.59014461270495"><ele>1353.0</ele><time>2026-03-24T22:09:10Z</time></trkpt><trkpt lat="-34.22551331098334" lon="-70.59024141853249"><ele>1353.0</ele><time>2026-03-24T22:09:11Z</time></trkpt><trkpt lat="-34.22549736183619" lon="-70.59031771312506"><ele>1353.0</ele><time>2026-03-24T22:09:12Z</time></trkpt><trkpt lat="-34.225510625770575" lon="-70.59039354252303"><ele>1353.0</ele><time>2026-03-24T22:09:13Z</time></trkpt><trkpt lat="-34.22550019535532" lon="-70.59052180136402"><ele>1353.0</ele><time>2026-03-24T22:09:15Z</time></trkpt><trkpt lat="-34.225453814181655" lon="-70.59059775485771"><ele>1353.0</ele><time>2026-03-24T22:09:16Z</time></trkpt><trkpt lat="-34.22540600488975" lon="-70.59066602942441"><ele>1353.0</ele><time>2026-03-24T22:09:17Z</time></trkpt><trkpt lat="-34.22542414173327" lon="-70.59076335979626"><ele>1357.2</ele><time>2026-03-24T22:09:19Z</time></trkpt><trkpt lat="-34.22539958747926" lon="-70.59087459493479"><ele>1361.4</ele><time>2026-03-24T22:09:21Z</time></trkpt><trkpt lat="-34.2253192412659" lon="-70.59098203632676"><ele>1365.6000000000001</ele><time>2026-03-24T22:09:23Z</time></trkpt><trkpt lat="-34.22524136620208" lon="-70.59109332610197"><ele>1369.8000000000002</ele><time>2026-03-24T22:09:25Z</time></trkpt><trkpt lat="-34.22520075266286" lon="-70.59115260511427"><ele>1374.0</ele><time>2026-03-24T22:09:26Z</time></trkpt><trkpt lat="-34.225118578298826" lon="-70.59119054642788"><ele>1375.4</ele><time>2026-03-24T22:09:27Z</time></trkpt><trkpt lat="-34.225032965332076" lon="-70.59123454390412"><ele>1376.8000000000002</ele><time>2026-03-24T22:09:28Z</time></trkpt><trkpt lat="-34.224936643152446" lon="-70.59125185053105"><ele>1378.1999999999998</ele><time>2026-03-24T22:09:30Z</time></trkpt><trkpt lat="-34.224851722812815" lon="-70.59132815467525"><ele>1379.6</ele><time>2026-03-24T22:09:33Z</time></trkpt><trkpt lat="-34.22477900536224" lon="-70.59139255317055"><ele>1381.0</ele><time>2026-03-24T22:09:34Z</time></trkpt><trkpt lat="-34.22470694827739" lon="-70.59148183446754"><ele>1381.0</ele><time>2026-03-24T22:09:36Z</time></trkpt><trkpt lat="-34.224633503269104" lon="-70.59152339410892"><ele>1381.0</ele><time>2026-03-24T22:09:38Z</time></trkpt><trkpt lat="-34.22462840633568" lon="-70.59163991887611"><ele>1381.0</ele><time>2026-03-24T22:09:40Z</time></trkpt><trkpt lat="-34.22459229697138" lon="-70.59173927333883"><ele>1381.0</ele><time>2026-03-24T22:09:41Z</time></trkpt><trkpt lat="-34.22451269617551" lon="-70.59185467595921"><ele>1381.0</ele><time>2026-03-24T22:09:42Z</time></trkpt><trkpt lat="-34.22445049636161" lon="-70.59195856046499"><ele>1380.8</ele><time>2026-03-24T22:09:43Z</time></trkpt><trkpt lat="-34.22440342738905" lon="-70.59201084665351"><ele>1380.6</ele><time>2026-03-24T22:09:44Z</time></trkpt><trkpt lat="-34.224343464710806" lon="-70.59205415985356"><ele>1380.4</ele><time>2026-03-24T22:09:45Z</time></trkpt><trkpt lat="-34.22422074060241" lon="-70.59213607646096"><ele>1380.2</ele><time>2026-03-24T22:09:46Z</time></trkpt><trkpt lat="-34.22413323225735" lon="-70.59221078732723"><ele>1380.0</ele><time>2026-03-24T22:09:47Z</time></trkpt><trkpt lat="-34.224141106546284" lon="-70.59232524736697"><ele>1380.0</ele><time>2026-03-24T22:09:49Z</time></trkpt><trkpt lat="-34.2240668438969" lon="-70.59241166455092"><ele>1380.0</ele><time>2026-03-24T22:09:52Z</time></trkpt><trkpt lat="-34.22396122829114" lon="-70.59246775643534"><ele>1380.0</ele><time>2026-03-24T22:09:54Z</time></trkpt><trkpt lat="-34.223896619037376" lon="-70.59252536379817"><ele>1380.0</ele><time>2026-03-24T22:09:57Z</time></trkpt><trkpt lat="-34.22382925230318" lon="-70.59252629637183"><ele>1380.0</ele><time>2026-03-24T22:09:59Z</time></trkpt><trkpt lat="-34.22374473444713" lon="-70.59253206002634"><ele>1381.0</ele><time>2026-03-24T22:10:01Z</time></trkpt><trkpt lat="-34.22367040811938" lon="-70.59253974101438"><ele>1382.0</ele><time>2026-03-24T22:10:02Z</time></trkpt><trkpt lat="-34.223600704035874" lon="-70.59254292065681"><ele>1383.0</ele><time>2026-03-24T22:10:03Z</time></trkpt><trkpt lat="-34.22352576619369" lon="-70.59259292536885"><ele>1384.0</ele><time>2026-03-24T22:10:07Z</time></trkpt><trkpt lat="-34.22345578357842" lon="-70.59263020142521"><ele>1385.0</ele><time>2026-03-24T22:10:09Z</time></trkpt><trkpt lat="-34.22338277441595" lon="-70.59264235628767"><ele>1386.0</ele><time>2026-03-24T22:10:10Z</time></trkpt><trkpt lat="-34.22328033775896" lon="-70.59265211802634"><ele>1386.0</ele><time>2026-03-24T22:10:12Z</time></trkpt><trkpt lat="-34.22323141508576" lon="-70.59272115999602"><ele>1386.0</ele><time>2026-03-24T22:10:14Z</time></trkpt><trkpt lat="-34.22313319119601" lon="-70.59268968221299"><ele>1386.0</ele><time>2026-03-24T22:10:17Z</time></trkpt><trkpt lat="-34.22306505638702" lon="-70.5926840268774"><ele>1386.0</ele><time>2026-03-24T22:10:18Z</time></trkpt><trkpt lat="-34.222946227928716" lon="-70.59272253192965"><ele>1386.0</ele><time>2026-03-24T22:10:20Z</time></trkpt><trkpt lat="-34.222883229577576" lon="-70.59278603445664"><ele>1379.6</ele><time>2026-03-24T22:10:22Z</time></trkpt><trkpt lat="-34.22283539521018" lon="-70.59285457379382"><ele>1373.1999999999998</ele><time>2026-03-24T22:10:25Z</time></trkpt><trkpt lat="-34.22276972710816" lon="-70.5928927841806"><ele>1366.8000000000002</ele><time>2026-03-24T22:10:27Z</time></trkpt><trkpt lat="-34.222689680374145" lon="-70.59288874084692"><ele>1360.4</ele><time>2026-03-24T22:10:30Z</time></trkpt><trkpt lat="-34.222625725909566" lon="-70.59289064335344"><ele>1354.0</ele><time>2026-03-24T22:10:32Z</time></trkpt><trkpt lat="-34.22230741744612" lon="-70.59293435372554"><ele>1351.1666666666665</ele><time>2026-03-24T22:10:35Z</time></trkpt><trkpt lat="-34.222251359220955" lon="-70.59289135409496"><ele>1348.3333333333333</ele><time>2026-03-24T22:10:36Z</time></trkpt><trkpt lat="-34.222161305597034" lon="-70.59288263319893"><ele>1345.5</ele><time>2026-03-24T22:10:38Z</time></trkpt><trkpt lat="-34.22208237557855" lon="-70.5928939060485"><ele>1342.6666666666667</ele><time>2026-03-24T22:10:42Z</time></trkpt><trkpt lat="-34.22201769037679" lon="-70.59288640872211"><ele>1339.8333333333335</ele><time>2026-03-24T22:10:45Z</time></trkpt><trkpt lat="-34.221938696930735" lon="-70.59284151106635"><ele>1337.0</ele><time>2026-03-24T22:10:48Z</time></trkpt><trkpt lat="-34.22184991516896" lon="-70.59283805988349"><ele>1337.0</ele><time>2026-03-24T22:10:51Z</time></trkpt><trkpt lat="-34.221773407404726" lon="-70.59283969754455"><ele>1337.0</ele><time>2026-03-24T22:10:53Z</time></trkpt><trkpt lat="-34.22167359417787" lon="-70.59282812189332"><ele>1337.0</ele><time>2026-03-24T22:10:55Z</time></trkpt><trkpt lat="-34.22160925897669" lon="-70.59286509543196"><ele>1337.0</ele><time>2026-03-24T22:10:59Z</time></trkpt><trkpt lat="-34.22137679653855" lon="-70.592873614507"><ele>1336.8333333333335</ele><time>2026-03-24T22:11:01Z</time></trkpt><trkpt lat="-34.221299560385944" lon="-70.592868933085"><ele>1336.6666666666667</ele><time>2026-03-24T22:11:02Z</time></trkpt><trkpt lat="-34.22122679873881" lon="-70.59287981751682"><ele>1336.5</ele><time>2026-03-24T22:11:03Z</time></trkpt><trkpt lat="-34.22115658727618" lon="-70.59289353027262"><ele>1336.3333333333333</ele><time>2026-03-24T22:11:04Z</time></trkpt><trkpt lat="-34.22107281211773" lon="-70.59289852285518"><ele>1336.1666666666665</ele><time>2026-03-24T22:11:05Z</time></trkpt><trkpt lat="-34.22098551602183" lon="-70.59285370466667"><ele>1336.0</ele><time>2026-03-24T22:11:06Z</time></trkpt><trkpt lat="-34.220869390298716" lon="-70.59279812519108"><ele>1336.0</ele><time>2026-03-24T22:11:07Z</time></trkpt><trkpt lat="-34.22079106187384" lon="-70.5927857599488"><ele>1336.0</ele><time>2026-03-24T22:11:08Z</time></trkpt><trkpt lat="-34.22072012593951" lon="-70.5928392069524"><ele>1336.0</ele><time>2026-03-24T22:11:09Z</time></trkpt><trkpt lat="-34.22065211862327" lon="-70.59289248983171"><ele>1336.0</ele><time>2026-03-24T22:11:10Z</time></trkpt><trkpt lat="-34.22056468585685" lon="-70.59298164397197"><ele>1336.0</ele><time>2026-03-24T22:11:11Z</time></trkpt><trkpt lat="-34.22046771215261" lon="-70.59304190321853"><ele>1338.3333333333333</ele><time>2026-03-24T22:11:12Z</time></trkpt><trkpt lat="-34.22038102786462" lon="-70.59308808316422"><ele>1340.6666666666665</ele><time>2026-03-24T22:11:13Z</time></trkpt><trkpt lat="-34.22032366611444" lon="-70.5931466426935"><ele>1343.0</ele><time>2026-03-24T22:11:14Z</time></trkpt><trkpt lat="-34.22035435404848" lon="-70.59321344022042"><ele>1345.3333333333333</ele><time>2026-03-24T22:11:15Z</time></trkpt><trkpt lat="-34.220376658811304" lon="-70.59329684936218"><ele>1347.6666666666667</ele><time>2026-03-24T22:11:16Z</time></trkpt><trkpt lat="-34.220385488756456" lon="-70.59345616707553"><ele>1350.0</ele><time>2026-03-24T22:11:18Z</time></trkpt><trkpt lat="-34.22041618848434" lon="-70.593530087295"><ele>1350.0</ele><time>2026-03-24T22:11:19Z</time></trkpt><trkpt lat="-34.22049345526279" lon="-70.59361915571677"><ele>1350.0</ele><time>2026-03-24T22:11:21Z</time></trkpt><trkpt lat="-34.22055256858389" lon="-70.59374398479954"><ele>1350.0</ele><time>2026-03-24T22:11:23Z</time></trkpt><trkpt lat="-34.22056647630944" lon="-70.59384661823368"><ele>1350.0</ele><time>2026-03-24T22:11:24Z</time></trkpt><trkpt lat="-34.22056918910627" lon="-70.59394389270778"><ele>1350.0</ele><time>2026-03-24T22:11:25Z</time></trkpt><trkpt lat="-34.22056893025518" lon="-70.59403074927901"><ele>1348.6</ele><time>2026-03-24T22:11:26Z</time></trkpt><trkpt lat="-34.22054284180211" lon="-70.59415173687158"><ele>1347.2</ele><time>2026-03-24T22:11:28Z</time></trkpt><trkpt lat="-34.220494790097696" lon="-70.59420187268408"><ele>1345.8000000000002</ele><time>2026-03-24T22:11:29Z</time></trkpt><trkpt lat="-34.22043795831228" lon="-70.59430266086207"><ele>1344.4</ele><time>2026-03-24T22:11:31Z</time></trkpt><trkpt lat="-34.22038492862439" lon="-70.59439259767437"><ele>1343.0</ele><time>2026-03-24T22:11:33Z</time></trkpt><trkpt lat="-34.22030142313461" lon="-70.59449215028047"><ele>1335.4</ele><time>2026-03-24T22:11:36Z</time></trkpt><trkpt lat="-34.22021092261262" lon="-70.59451548770215"><ele>1327.8000000000002</ele><time>2026-03-24T22:11:38Z</time></trkpt><trkpt lat="-34.22014426627389" lon="-70.59459494944066"><ele>1320.2</ele><time>2026-03-24T22:11:40Z</time></trkpt><trkpt lat="-34.22003976983068" lon="-70.59463648583342"><ele>1312.6</ele><time>2026-03-24T22:11:42Z</time></trkpt><trkpt lat="-34.21997916475817" lon="-70.59469359162468"><ele>1305.0</ele><time>2026-03-24T22:11:43Z</time></trkpt><trkpt lat="-34.21992992381852" lon="-70.59476737303167"><ele>1305.0</ele><time>2026-03-24T22:11:44Z</time></trkpt><trkpt lat="-34.219874485109614" lon="-70.59481684471498"><ele>1305.0</ele><time>2026-03-24T22:11:45Z</time></trkpt><trkpt lat="-34.21981630511708" lon="-70.59486533342108"><ele>1305.0</ele><time>2026-03-24T22:11:46Z</time></trkpt><trkpt lat="-34.2197594105092" lon="-70.59492680730638"><ele>1305.0</ele><time>2026-03-24T22:11:47Z</time></trkpt><trkpt lat="-34.21968557948492" lon="-70.59502684263953"><ele>1305.0</ele><time>2026-03-24T22:11:48Z</time></trkpt><trkpt lat="-34.219645980462325" lon="-70.59510467650189"><ele>1305.0</ele><time>2026-03-24T22:11:49Z</time></trkpt><trkpt lat="-34.21968024647578" lon="-70.59526779444755"><ele>1307.5</ele><time>2026-03-24T22:11:51Z</time></trkpt><trkpt lat="-34.21971486823694" lon="-70.59533858074938"><ele>1310.0</ele><time>2026-03-24T22:11:52Z</time></trkpt><trkpt lat="-34.21976810033121" lon="-70.59545720362655"><ele>1312.5</ele><time>2026-03-24T22:11:54Z</time></trkpt><trkpt lat="-34.21974461828152" lon="-70.59554528286883"><ele>1315.0</ele><time>2026-03-24T22:11:57Z</time></trkpt><trkpt lat="-34.21974411529715" lon="-70.5956280746815"><ele>1317.5</ele><time>2026-03-24T22:11:58Z</time></trkpt><trkpt lat="-34.21973323783164" lon="-70.59571964852249"><ele>1320.0</ele><time>2026-03-24T22:11:59Z</time></trkpt><trkpt lat="-34.21970858200227" lon="-70.59580158423599"><ele>1320.0</ele><time>2026-03-24T22:12:01Z</time></trkpt><trkpt lat="-34.219711884764834" lon="-70.59593830971731"><ele>1320.0</ele><time>2026-03-24T22:12:03Z</time></trkpt><trkpt lat="-34.21968392384737" lon="-70.59606429512105"><ele>1320.0</ele><time>2026-03-24T22:12:05Z</time></trkpt><trkpt lat="-34.21959944818913" lon="-70.59617961624194"><ele>1320.0</ele><time>2026-03-24T22:12:07Z</time></trkpt><trkpt lat="-34.21953999188686" lon="-70.59624837739634"><ele>1320.0</ele><time>2026-03-24T22:12:08.999Z</time></trkpt><trkpt lat="-34.219549318995554" lon="-70.596341708025"><ele>1313.6</ele><time>2026-03-24T22:12:10.999Z</time></trkpt><trkpt lat="-34.219518656812156" lon="-70.59645386315567"><ele>1307.2</ele><time>2026-03-24T22:12:15Z</time></trkpt><trkpt lat="-34.219396736319766" lon="-70.59663327364115"><ele>1300.8000000000002</ele><time>2026-03-24T22:12:18Z</time></trkpt><trkpt lat="-34.21936371713631" lon="-70.59670333967955"><ele>1294.4</ele><time>2026-03-24T22:12:20Z</time></trkpt><trkpt lat="-34.21945285512692" lon="-70.59670508953486"><ele>1288.0</ele><time>2026-03-24T22:12:24Z</time></trkpt><trkpt lat="-34.21951480064813" lon="-70.59673319666278"><ele>1288.0</ele><time>2026-03-24T22:12:26Z</time></trkpt><trkpt lat="-34.21954934414578" lon="-70.59681339847785"><ele>1288.0</ele><time>2026-03-24T22:12:29Z</time></trkpt><trkpt lat="-34.21948602327104" lon="-70.59691893142018"><ele>1288.0</ele><time>2026-03-24T22:12:31Z</time></trkpt><trkpt lat="-34.2194313447634" lon="-70.5969637914288"><ele>1288.0</ele><time>2026-03-24T22:12:32Z</time></trkpt><trkpt lat="-34.21937085695028" lon="-70.5970796759463"><ele>1288.0</ele><time>2026-03-24T22:12:34Z</time></trkpt><trkpt lat="-34.21936554827272" lon="-70.59719931703202"><ele>1282.3333333333333</ele><time>2026-03-24T22:12:36Z</time></trkpt><trkpt lat="-34.21938048921557" lon="-70.5972820373436"><ele>1276.6666666666665</ele><time>2026-03-24T22:12:38Z</time></trkpt><trkpt lat="-34.219297859513205" lon="-70.59737142140968"><ele>1271.0</ele><time>2026-03-24T22:12:40Z</time></trkpt><trkpt lat="-34.21923678805187" lon="-70.5974478735212"><ele>1265.3333333333333</ele><time>2026-03-24T22:12:42Z</time></trkpt><trkpt lat="-34.21918012469406" lon="-70.5975127158914"><ele>1259.6666666666667</ele><time>2026-03-24T22:12:44Z</time></trkpt><trkpt lat="-34.219100425506674" lon="-70.5975659607613"><ele>1254.0</ele><time>2026-03-24T22:12:46Z</time></trkpt><trkpt lat="-34.21905675568932" lon="-70.59765434816727"><ele>1255.0</ele><time>2026-03-24T22:12:49Z</time></trkpt><trkpt lat="-34.21897549184778" lon="-70.59764556225288"><ele>1256.0</ele><time>2026-03-24T22:12:51Z</time></trkpt><trkpt lat="-34.21890626324391" lon="-70.59764077236265"><ele>1257.0</ele><time>2026-03-24T22:12:52Z</time></trkpt><trkpt lat="-34.218830254089376" lon="-70.59771108089389"><ele>1258.0</ele><time>2026-03-24T22:12:54Z</time></trkpt><trkpt lat="-34.21875831937468" lon="-70.59773155701578"><ele>1259.0</ele><time>2026-03-24T22:12:56Z</time></trkpt><trkpt lat="-34.21868402780049" lon="-70.5978018618789"><ele>1260.0</ele><time>2026-03-24T22:13:00Z</time></trkpt><trkpt lat="-34.21861526281468" lon="-70.59786102105191"><ele>1253.8</ele><time>2026-03-24T22:13:01Z</time></trkpt><trkpt lat="-34.21855983470347" lon="-70.59790657547822"><ele>1247.6</ele><time>2026-03-24T22:13:02Z</time></trkpt><trkpt lat="-34.21849903497965" lon="-70.59800748537816"><ele>1241.4</ele><time>2026-03-24T22:13:04Z</time></trkpt><trkpt lat="-34.2184683768746" lon="-70.59811724220947"><ele>1235.2</ele><time>2026-03-24T22:13:07Z</time></trkpt><trkpt lat="-34.218425509276365" lon="-70.59823318115916"><ele>1229.0</ele><time>2026-03-24T22:13:09Z</time></trkpt><trkpt lat="-34.218421351910585" lon="-70.59832821486783"><ele>1229.0</ele><time>2026-03-24T22:13:12Z</time></trkpt><trkpt lat="-34.2184582382669" lon="-70.59839568694053"><ele>1229.0</ele><time>2026-03-24T22:13:14Z</time></trkpt><trkpt lat="-34.21842457365855" lon="-70.59858453629064"><ele>1229.0</ele><time>2026-03-24T22:13:16Z</time></trkpt><trkpt lat="-34.218492225102786" lon="-70.59868630604643"><ele>1229.0</ele><time>2026-03-24T22:13:18Z</time></trkpt><trkpt lat="-34.21854701479237" lon="-70.5987242497565"><ele>1229.0</ele><time>2026-03-24T22:13:19Z</time></trkpt><trkpt lat="-34.21865141703927" lon="-70.59881000094038"><ele>1224.4</ele><time>2026-03-24T22:13:21Z</time></trkpt><trkpt lat="-34.21869717668338" lon="-70.59886472609116"><ele>1219.8000000000002</ele><time>2026-03-24T22:13:22Z</time></trkpt><trkpt lat="-34.218807723231066" lon="-70.59904477665356"><ele>1215.1999999999998</ele><time>2026-03-24T22:13:24Z</time></trkpt><trkpt lat="-34.21881253868963" lon="-70.59912998765772"><ele>1210.6</ele><time>2026-03-24T22:13:25Z</time></trkpt><trkpt lat="-34.218826511531425" lon="-70.5992169875761"><ele>1206.0</ele><time>2026-03-24T22:13:26Z</time></trkpt><trkpt lat="-34.218813631709345" lon="-70.59929240138734"><ele>1206.0</ele><time>2026-03-24T22:13:27Z</time></trkpt><trkpt lat="-34.2186991276516" lon="-70.5993240311153"><ele>1206.0</ele><time>2026-03-24T22:13:28Z</time></trkpt><trkpt lat="-34.21864434295361" lon="-70.59937732510447"><ele>1206.0</ele><time>2026-03-24T22:13:29Z</time></trkpt><trkpt lat="-34.21857156677576" lon="-70.59951206287678"><ele>1206.0</ele><time>2026-03-24T22:13:31Z</time></trkpt><trkpt lat="-34.218505713918226" lon="-70.59959695317781"><ele>1206.0</ele><time>2026-03-24T22:13:32Z</time></trkpt><trkpt lat="-34.218453294648" lon="-70.59967610001752"><ele>1204.5</ele><time>2026-03-24T22:13:33Z</time></trkpt><trkpt lat="-34.21840216283889" lon="-70.59974122427013"><ele>1203.0</ele><time>2026-03-24T22:13:34Z</time></trkpt><trkpt lat="-34.218318890257045" lon="-70.59977427205057"><ele>1201.5</ele><time>2026-03-24T22:13:35Z</time></trkpt><trkpt lat="-34.21823440491958" lon="-70.59976515377299"><ele>1200.0</ele><time>2026-03-24T22:13:37Z</time></trkpt><trkpt lat="-34.218179463236744" lon="-70.59966602190408"><ele>1198.5</ele><time>2026-03-24T22:13:38Z</time></trkpt><trkpt lat="-34.21811679491118" lon="-70.59963401158252"><ele>1197.0</ele><time>2026-03-24T22:13:39Z</time></trkpt><trkpt lat="-34.21814181592103" lon="-70.59951203540086"><ele>1195.1666666666667</ele><time>2026-03-24T22:13:41Z</time></trkpt><trkpt lat="-34.21809280235774" lon="-70.59944897382668"><ele>1193.3333333333333</ele><time>2026-03-24T22:13:42Z</time></trkpt><trkpt lat="-34.21801786133036" lon="-70.59941580423975"><ele>1191.5</ele><time>2026-03-24T22:13:43Z</time></trkpt><trkpt lat="-34.21797773119813" lon="-70.5993309958324"><ele>1189.6666666666665</ele><time>2026-03-24T22:13:44Z</time></trkpt><trkpt lat="-34.217921140868405" lon="-70.5992692583717"><ele>1187.8333333333333</ele><time>2026-03-24T22:13:45Z</time></trkpt><trkpt lat="-34.21784913141128" lon="-70.59930096404565"><ele>1186.0</ele><time>2026-03-24T22:13:46Z</time></trkpt><trkpt lat="-34.21774509626785" lon="-70.59934547939531"><ele>1186.0</ele><time>2026-03-24T22:13:48Z</time></trkpt><trkpt lat="-34.21766628794058" lon="-70.59930557871733"><ele>1186.0</ele><time>2026-03-24T22:13:49Z</time></trkpt><trkpt lat="-34.21760282282917" lon="-70.59929183823432"><ele>1186.0</ele><time>2026-03-24T22:13:51Z</time></trkpt><trkpt lat="-34.2173669140474" lon="-70.59921099770953"><ele>1186.0</ele><time>2026-03-24T22:13:55Z</time></trkpt><trkpt lat="-34.21730637311141" lon="-70.59915452933768"><ele>1178.5</ele><time>2026-03-24T22:13:56Z</time></trkpt><trkpt lat="-34.21724449666177" lon="-70.59907236306226"><ele>1171.0</ele><time>2026-03-24T22:13:57Z</time></trkpt><trkpt lat="-34.21712818159914" lon="-70.59896684018628"><ele>1163.5</ele><time>2026-03-24T22:13:58Z</time></trkpt><trkpt lat="-34.217040042353574" lon="-70.59887021726323"><ele>1156.0</ele><time>2026-03-24T22:13:58.999Z</time></trkpt><trkpt lat="-34.21695853428363" lon="-70.59876261845542"><ele>1156.0</ele><time>2026-03-24T22:13:59.999Z</time></trkpt><trkpt lat="-34.21686253797205" lon="-70.59870682623794"><ele>1156.0</ele><time>2026-03-24T22:14:00.999Z</time></trkpt><trkpt lat="-34.21679999409775" lon="-70.59872960388459"><ele>1156.0</ele><time>2026-03-24T22:14:01.999Z</time></trkpt><trkpt lat="-34.216683433969735" lon="-70.59875031702875"><ele>1156.0</ele><time>2026-03-24T22:14:03.999Z</time></trkpt><trkpt lat="-34.216595177700455" lon="-70.5987585702424"><ele>1156.0</ele><time>2026-03-24T22:14:04.999Z</time></trkpt><trkpt lat="-34.21651512268369" lon="-70.59874025717164"><ele>1157.0</ele><time>2026-03-24T22:14:05.999Z</time></trkpt><trkpt lat="-34.21641893593233" lon="-70.59871109367067"><ele>1158.0</ele><time>2026-03-24T22:14:06.999Z</time></trkpt><trkpt lat="-34.21632647696781" lon="-70.59870409891337"><ele>1159.0</ele><time>2026-03-24T22:14:07.999Z</time></trkpt><trkpt lat="-34.216233590964784" lon="-70.59869858320482"><ele>1160.0</ele><time>2026-03-24T22:14:08.999Z</time></trkpt><trkpt lat="-34.21615206739239" lon="-70.5986878821001"><ele>1161.0</ele><time>2026-03-24T22:14:09.999Z</time></trkpt><trkpt lat="-34.21604783651584" lon="-70.59862951872663"><ele>1161.0</ele><time>2026-03-24T22:14:11.999Z</time></trkpt><trkpt lat="-34.21593560183913" lon="-70.5985934103718"><ele>1161.0</ele><time>2026-03-24T22:14:13.999Z</time></trkpt><trkpt lat="-34.21585138148904" lon="-70.59854234441151"><ele>1161.0</ele><time>2026-03-24T22:14:14.999Z</time></trkpt><trkpt lat="-34.21577861863645" lon="-70.59852537959084"><ele>1161.0</ele><time>2026-03-24T22:14:15.999Z</time></trkpt><trkpt lat="-34.215697797070476" lon="-70.59843230093166"><ele>1161.0</ele><time>2026-03-24T22:14:17.999Z</time></trkpt><trkpt lat="-34.21558251714122" lon="-70.5984563073672"><ele>1156.6</ele><time>2026-03-24T22:14:20Z</time></trkpt><trkpt lat="-34.21544844042501" lon="-70.59845022937594"><ele>1152.1999999999998</ele><time>2026-03-24T22:14:22Z</time></trkpt><trkpt lat="-34.21536426034489" lon="-70.59843185055963"><ele>1147.8000000000002</ele><time>2026-03-24T22:14:23Z</time></trkpt><trkpt lat="-34.215284292847535" lon="-70.59841050232461"><ele>1143.4</ele><time>2026-03-24T22:14:24Z</time></trkpt><trkpt lat="-34.215203947200955" lon="-70.59839662821403"><ele>1139.0</ele><time>2026-03-24T22:14:25Z</time></trkpt><trkpt lat="-34.215128351161745" lon="-70.59837580396534"><ele>1139.0</ele><time>2026-03-24T22:14:26Z</time></trkpt><trkpt lat="-34.21501176539097" lon="-70.59834891145132"><ele>1139.0</ele><time>2026-03-24T22:14:28Z</time></trkpt><trkpt lat="-34.21494326598377" lon="-70.59835031851621"><ele>1139.0</ele><time>2026-03-24T22:14:29Z</time></trkpt><trkpt lat="-34.21486340501033" lon="-70.59831581745766"><ele>1139.0</ele><time>2026-03-24T22:14:31Z</time></trkpt><trkpt lat="-34.21481002207026" lon="-70.59841344919722"><ele>1139.0</ele><time>2026-03-24T22:14:33Z</time></trkpt><trkpt lat="-34.21484020492586" lon="-70.59851268330318"><ele>1139.0</ele><time>2026-03-24T22:14:35Z</time></trkpt><trkpt lat="-34.21490057678848" lon="-70.59857409981008"><ele>1139.0</ele><time>2026-03-24T22:14:36Z</time></trkpt><trkpt lat="-34.21500161428774" lon="-70.59866211974801"><ele>1139.0</ele><time>2026-03-24T22:14:38Z</time></trkpt><trkpt lat="-34.21500400381656" lon="-70.59876684259608"><ele>1139.0</ele><time>2026-03-24T22:14:40Z</time></trkpt><trkpt lat="-34.214822939602634" lon="-70.59890882989868"><ele>1133.5</ele><time>2026-03-24T22:14:42Z</time></trkpt><trkpt lat="-34.21475610892564" lon="-70.59896416493392"><ele>1128.0</ele><time>2026-03-24T22:14:43Z</time></trkpt><trkpt lat="-34.21468067083017" lon="-70.59901644912718"><ele>1122.5</ele><time>2026-03-24T22:14:44Z</time></trkpt><trkpt lat="-34.214599994890314" lon="-70.59906137162814"><ele>1117.0</ele><time>2026-03-24T22:14:45Z</time></trkpt><trkpt lat="-34.214515953215965" lon="-70.59908147553818"><ele>1111.5</ele><time>2026-03-24T22:14:46Z</time></trkpt><trkpt lat="-34.21445435912838" lon="-70.59910627078258"><ele>1106.0</ele><time>2026-03-24T22:14:47Z</time></trkpt><trkpt lat="-34.214393641229286" lon="-70.59916841146392"><ele>1106.0</ele><time>2026-03-24T22:14:48Z</time></trkpt><trkpt lat="-34.21426210698712" lon="-70.5991982969545"><ele>1106.0</ele><time>2026-03-24T22:14:50Z</time></trkpt><trkpt lat="-34.21416739737832" lon="-70.59924527250311"><ele>1106.0</ele><time>2026-03-24T22:14:51Z</time></trkpt><trkpt lat="-34.21408145528053" lon="-70.59923143599501"><ele>1106.0</ele><time>2026-03-24T22:14:52Z</time></trkpt><trkpt lat="-34.21401066177314" lon="-70.59921974956669"><ele>1106.0</ele><time>2026-03-24T22:14:53Z</time></trkpt><trkpt lat="-34.213892085282566" lon="-70.59927166256504"><ele>1100.3999999999999</ele><time>2026-03-24T22:14:55Z</time></trkpt><trkpt lat="-34.21384054271888" lon="-70.5993548352442"><ele>1094.8</ele><time>2026-03-24T22:14:56Z</time></trkpt><trkpt lat="-34.2137849078594" lon="-70.59944823917535"><ele>1089.1999999999998</ele><time>2026-03-24T22:14:57Z</time></trkpt><trkpt lat="-34.21375697104086" lon="-70.59952482114518"><ele>1083.6</ele><time>2026-03-24T22:14:58Z</time></trkpt><trkpt lat="-34.21386034515913" lon="-70.59964728261507"><ele>1078.0</ele><time>2026-03-24T22:15:00Z</time></trkpt><trkpt lat="-34.21395898217876" lon="-70.59967820195742"><ele>1079.5</ele><time>2026-03-24T22:15:01Z</time></trkpt><trkpt lat="-34.214061301372375" lon="-70.59963713195856"><ele>1081.0</ele><time>2026-03-24T22:15:02Z</time></trkpt><trkpt lat="-34.21416312696373" lon="-70.59956931162893"><ele>1082.5</ele><time>2026-03-24T22:15:03Z</time></trkpt><trkpt lat="-34.21429738387343" lon="-70.59955771833026"><ele>1084.0</ele><time>2026-03-24T22:15:04Z</time></trkpt><trkpt lat="-34.21440476688672" lon="-70.59958131736718"><ele>1084.0</ele><time>2026-03-24T22:15:05Z</time></trkpt><trkpt lat="-34.21450361257338" lon="-70.59966362769484"><ele>1084.0</ele><time>2026-03-24T22:15:06Z</time></trkpt><trkpt lat="-34.21456964816905" lon="-70.59973007342424"><ele>1084.0</ele><time>2026-03-24T22:15:07Z</time></trkpt><trkpt lat="-34.21453204058936" lon="-70.59979663237253"><ele>1084.0</ele><time>2026-03-24T22:15:09Z</time></trkpt><trkpt lat="-34.214424955214206" lon="-70.59978777443507"><ele>1084.0</ele><time>2026-03-24T22:15:11Z</time></trkpt><trkpt lat="-34.21436368673511" lon="-70.59973701192403"><ele>1084.0</ele><time>2026-03-24T22:15:12Z</time></trkpt><trkpt lat="-34.21428561733994" lon="-70.59967726707558"><ele>1084.0</ele><time>2026-03-24T22:15:13Z</time></trkpt><trkpt lat="-34.214209688384805" lon="-70.59967290635173"><ele>1084.0</ele><time>2026-03-24T22:15:14Z</time></trkpt><trkpt lat="-34.21413457342715" lon="-70.59970758883573"><ele>1084.0</ele><time>2026-03-24T22:15:15Z</time></trkpt><trkpt lat="-34.21406232526908" lon="-70.59977062660501"><ele>1084.0</ele><time>2026-03-24T22:15:16Z</time></trkpt><trkpt lat="-34.213980946846355" lon="-70.59985787893595"><ele>1084.0</ele><time>2026-03-24T22:15:17Z</time></trkpt><trkpt lat="-34.21393229336515" lon="-70.5999299346053"><ele>1081.0</ele><time>2026-03-24T22:15:18Z</time></trkpt><trkpt lat="-34.21385832004579" lon="-70.59993680916664"><ele>1078.0</ele><time>2026-03-24T22:15:19Z</time></trkpt><trkpt lat="-34.213782816537424" lon="-70.59991721683669"><ele>1075.0</ele><time>2026-03-24T22:15:20Z</time></trkpt><trkpt lat="-34.213697417496284" lon="-70.59989941615082"><ele>1072.0</ele><time>2026-03-24T22:15:21Z</time></trkpt><trkpt lat="-34.2136222340488" lon="-70.5998400579721"><ele>1069.0</ele><time>2026-03-24T22:15:22Z</time></trkpt><trkpt lat="-34.213569954442036" lon="-70.59978574507538"><ele>1066.0</ele><time>2026-03-24T22:15:23Z</time></trkpt><trkpt lat="-34.21348688404022" lon="-70.59966168189537"><ele>1066.0</ele><time>2026-03-24T22:15:25Z</time></trkpt><trkpt lat="-34.21339585422485" lon="-70.59969639254386"><ele>1066.0</ele><time>2026-03-24T22:15:27Z</time></trkpt><trkpt lat="-34.21328886645151" lon="-70.59974765389514"><ele>1066.0</ele><time>2026-03-24T22:15:29Z</time></trkpt><trkpt lat="-34.21322305528982" lon="-70.59977480697425"><ele>1066.0</ele><time>2026-03-24T22:15:30Z</time></trkpt><trkpt lat="-34.21314474580387" lon="-70.59978965532575"><ele>1066.0</ele><time>2026-03-24T22:15:31Z</time></trkpt><trkpt lat="-34.21306403578816" lon="-70.59979966419478"><ele>1066.0</ele><time>2026-03-24T22:15:32Z</time></trkpt><trkpt lat="-34.21294712041826" lon="-70.5998731818458"><ele>1061.6666666666665</ele><time>2026-03-24T22:15:34Z</time></trkpt><trkpt lat="-34.21288165632851" lon="-70.59989412519616"><ele>1057.3333333333333</ele><time>2026-03-24T22:15:35Z</time></trkpt><trkpt lat="-34.212765710177464" lon="-70.59988202145132"><ele>1053.0</ele><time>2026-03-24T22:15:37Z</time></trkpt><trkpt lat="-34.21269725405342" lon="-70.59988373664206"><ele>1048.6666666666667</ele><time>2026-03-24T22:15:38Z</time></trkpt><trkpt lat="-34.21257160133149" lon="-70.5998890193665"><ele>1044.3333333333335</ele><time>2026-03-24T22:15:40Z</time></trkpt><trkpt lat="-34.21250993449342" lon="-70.59987233540394"><ele>1040.0</ele><time>2026-03-24T22:15:41Z</time></trkpt><trkpt lat="-34.21240620062986" lon="-70.59981996769437"><ele>1036.6666666666667</ele><time>2026-03-24T22:15:42Z</time></trkpt><trkpt lat="-34.2122848078895" lon="-70.59980782303445"><ele>1033.3333333333335</ele><time>2026-03-24T22:15:43Z</time></trkpt><trkpt lat="-34.212206194257604" lon="-70.5997958580208"><ele>1030.0</ele><time>2026-03-24T22:15:44Z</time></trkpt><trkpt lat="-34.212135441954715" lon="-70.59977381914953"><ele>1026.6666666666667</ele><time>2026-03-24T22:15:45Z</time></trkpt><trkpt lat="-34.21205379410332" lon="-70.59977060890287"><ele>1023.3333333333334</ele><time>2026-03-24T22:15:46Z</time></trkpt><trkpt lat="-34.21197528886719" lon="-70.59975129662435"><ele>1020.0</ele><time>2026-03-24T22:15:47Z</time></trkpt><trkpt lat="-34.211917388637005" lon="-70.59978337341377"><ele>1020.0</ele><time>2026-03-24T22:15:48Z</time></trkpt><trkpt lat="-34.2118835328139" lon="-70.59986860896028"><ele>1020.0</ele><time>2026-03-24T22:15:50Z</time></trkpt><trkpt lat="-34.21185027511389" lon="-70.59994742078577"><ele>1020.0</ele><time>2026-03-24T22:15:50.999Z</time></trkpt><trkpt lat="-34.2118012804741" lon="-70.60005507109182"><ele>1020.0</ele><time>2026-03-24T22:15:51.999Z</time></trkpt><trkpt lat="-34.21169472041424" lon="-70.6000544943392"><ele>1020.0</ele><time>2026-03-24T22:15:53.999Z</time></trkpt><trkpt lat="-34.211610059988544" lon="-70.6000385332825"><ele>1020.0</ele><time>2026-03-24T22:15:54.999Z</time></trkpt><trkpt lat="-34.21152417754258" lon="-70.60005216551409"><ele>1018.0</ele><time>2026-03-24T22:15:55.999Z</time></trkpt><trkpt lat="-34.21145010435755" lon="-70.60008225098785"><ele>1016.0</ele><time>2026-03-24T22:15:56.999Z</time></trkpt><trkpt lat="-34.21138362216677" lon="-70.60009265615396"><ele>1014.0</ele><time>2026-03-24T22:15:57.999Z</time></trkpt><trkpt lat="-34.21131005958334" lon="-70.60009078995961"><ele>1012.0</ele><time>2026-03-24T22:15:58.999Z</time></trkpt><trkpt lat="-34.211192237955686" lon="-70.60007762871905"><ele>1010.0</ele><time>2026-03-24T22:16:00.999Z</time></trkpt><trkpt lat="-34.211104192674604" lon="-70.60003443896179"><ele>1008.0</ele><time>2026-03-24T22:16:01.999Z</time></trkpt><trkpt lat="-34.21100899919935" lon="-70.59999936174391"><ele>1008.0</ele><time>2026-03-24T22:16:02.999Z</time></trkpt><trkpt lat="-34.210947612292024" lon="-70.59997543761627"><ele>1008.0</ele><time>2026-03-24T22:16:03.999Z</time></trkpt><trkpt lat="-34.21086116589898" lon="-70.5999541304096"><ele>1008.0</ele><time>2026-03-24T22:16:04.999Z</time></trkpt><trkpt lat="-34.21076016217244" lon="-70.59992041618706"><ele>1008.0</ele><time>2026-03-24T22:16:05.999Z</time></trkpt><trkpt lat="-34.21068226418713" lon="-70.59989420760729"><ele>1008.0</ele><time>2026-03-24T22:16:06.999Z</time></trkpt><trkpt lat="-34.21061769520095" lon="-70.59987859299882"><ele>1008.0</ele><time>2026-03-24T22:16:07.999Z</time></trkpt><trkpt lat="-34.2105083446075" lon="-70.59990882913029"><ele>1006.8333333333334</ele><time>2026-03-24T22:16:09.999Z</time></trkpt><trkpt lat="-34.210432395128926" lon="-70.5999876739305"><ele>1005.6666666666667</ele><time>2026-03-24T22:16:12.999Z</time></trkpt><trkpt lat="-34.21035606233485" lon="-70.60002670355253"><ele>1004.5</ele><time>2026-03-24T22:16:13.999Z</time></trkpt><trkpt lat="-34.21026477362892" lon="-70.60006026908208"><ele>1003.3333333333334</ele><time>2026-03-24T22:16:14.999Z</time></trkpt><trkpt lat="-34.21017261363689" lon="-70.6000866594676"><ele>1002.1666666666667</ele><time>2026-03-24T22:16:15.999Z</time></trkpt><trkpt lat="-34.21010006902727" lon="-70.60006380175216"><ele>1001.0</ele><time>2026-03-24T22:16:16.999Z</time></trkpt><trkpt lat="-34.210030389226254" lon="-70.60003589601578"><ele>1001.0</ele><time>2026-03-24T22:16:17.999Z</time></trkpt><trkpt lat="-34.2099730393343" lon="-70.59990857032555"><ele>1000.9999999999999</ele><time>2026-03-24T22:16:19.999Z</time></trkpt><trkpt lat="-34.20988802688866" lon="-70.59986856794694"><ele>1000.9999999999999</ele><time>2026-03-24T22:16:21.999Z</time></trkpt><trkpt lat="-34.20978835245633" lon="-70.59990880230279"><ele>1001.0</ele><time>2026-03-24T22:16:23.999Z</time></trkpt><trkpt lat="-34.20966856164513" lon="-70.59984606461438"><ele>1001.0</ele><time>2026-03-24T22:16:25Z</time></trkpt><trkpt lat="-34.20957009582002" lon="-70.5997798108265"><ele>1001.5</ele><time>2026-03-24T22:16:26Z</time></trkpt><trkpt lat="-34.20949047462792" lon="-70.59967556960218"><ele>1002.0</ele><time>2026-03-24T22:16:27Z</time></trkpt><trkpt lat="-34.209465421746195" lon="-70.59952454907196"><ele>1002.5</ele><time>2026-03-24T22:16:28Z</time></trkpt><trkpt lat="-34.20943159650725" lon="-70.59938422768464"><ele>1003.0</ele><time>2026-03-24T22:16:29Z</time></trkpt><trkpt lat="-34.20939186072098" lon="-70.59928596196069"><ele>1000.8</ele><time>2026-03-24T22:16:30Z</time></trkpt><trkpt lat="-34.20933813987913" lon="-70.59921438971564"><ele>998.5999999999999</ele><time>2026-03-24T22:16:31Z</time></trkpt><trkpt lat="-34.2092501710699" lon="-70.599169632966"><ele>996.4000000000001</ele><time>2026-03-24T22:16:32Z</time></trkpt><trkpt lat="-34.209141362003656" lon="-70.59912277512527"><ele>994.2</ele><time>2026-03-24T22:16:33Z</time></trkpt><trkpt lat="-34.20901561790009" lon="-70.59909950780965"><ele>992.0</ele><time>2026-03-24T22:16:34Z</time></trkpt><trkpt lat="-34.20886367395965" lon="-70.59905854597672"><ele>990.6666666666667</ele><time>2026-03-24T22:16:35Z</time></trkpt><trkpt lat="-34.20871651364933" lon="-70.59898722299563"><ele>989.3333333333333</ele><time>2026-03-24T22:16:36Z</time></trkpt><trkpt lat="-34.208576542782495" lon="-70.59892320553354"><ele>988.0</ele><time>2026-03-24T22:16:37Z</time></trkpt><trkpt lat="-34.20843884466563" lon="-70.59887947319525"><ele>988.0</ele><time>2026-03-24T22:16:38Z</time></trkpt><trkpt lat="-34.208309703675845" lon="-70.59887544748652"><ele>988.0</ele><time>2026-03-24T22:16:39Z</time></trkpt><trkpt lat="-34.20817933035469" lon="-70.59886353206427"><ele>988.0</ele><time>2026-03-24T22:16:40Z</time></trkpt><trkpt lat="-34.20805776868561" lon="-70.59887230931349"><ele>988.0</ele><time>2026-03-24T22:16:41Z</time></trkpt><trkpt lat="-34.20792000697488" lon="-70.59890331982437"><ele>982.0</ele><time>2026-03-24T22:16:42Z</time></trkpt><trkpt lat="-34.20781805790482" lon="-70.59883548566543"><ele>982.0</ele><time>2026-03-24T22:16:43Z</time></trkpt><trkpt lat="-34.207752289004524" lon="-70.59885000825565"><ele>982.0</ele><time>2026-03-24T22:16:44Z</time></trkpt><trkpt lat="-34.20766145403935" lon="-70.59885990858092"><ele>982.0</ele><time>2026-03-24T22:16:46Z</time></trkpt><trkpt lat="-34.20764348485339" lon="-70.59896005142203"><ele>982.0</ele><time>2026-03-24T22:16:56Z</time></trkpt></trkseg></trk></gpx>